PWSweather.com
Personal Weather Stations
Station Observations
HVALPSUND
Hvalpsund, FarsoeDK 9640

HvalpsundFarsoeDK 9640

Lat: 56.705311, Lon: 9.203638

Elevation: 5

Station Type: Vantage Pro2

http://hvalpsundvejr.dk

High Low Average
Temperature 38.6°F3.7°C 26.9°F-2.8°C 32.5°F0.3°C
Dew Point 33.0°F0.6°C 22.9°F-5.1°C 28.6°F-1.9°C
Winds 15.2 mph 24.5 kmh 2.7 mph 4.3 kmh 8.0 mph SW12.9 kmh SW
Wind Gusts 18.0 mph29.0 kmh 4.0 mph6.4 kmh 11.0 mph17.7 kmh
Humidity 92% 77% 85%
Pressure 30.00 in1015.9 mb 29.93 in1013.5 mb -
Precipitation 0.00 in0.0 mm - -
Hour Temp Dew Point Humidity Winds Wind Gusts Pressure Precip Precip Rate Daily Precip Total
12:00 AM 27.6°F-2.4°C 23.1°F-4.9°C 83% 7.2 mph SW11.6 kmh SW 9.0 mph14.5 kmh 29.96 in1014.6 mb 0.00 in0.0 mm 0.00 in0.0 mm 0.00 in0.0 mm
12:01 AM 27.5°F-2.5°C 23.0°F-5.0°C 83% 5.7 mph SW9.2 kmh SW 9.0 mph14.5 kmh 29.96 in1014.6 mb 0.00 in0.0 mm 0.00 in0.0 mm 0.00 in0.0 mm
12:02 AM 27.5°F-2.5°C 23.0°F-5.0°C 83% 7.1 mph SW11.4 kmh SW 8.0 mph12.9 kmh 29.96 in1014.6 mb 0.00 in0.0 mm 0.00 in0.0 mm 0.00 in0.0 mm
12:03 AM 27.5°F-2.5°C 23.0°F-5.0°C 83% 6.3 mph SW10.1 kmh SW 8.0 mph12.9 kmh 29.96 in1014.6 mb 0.00 in0.0 mm 0.00 in0.0 mm 0.00 in0.0 mm
12:04 AM 27.5°F-2.5°C 23.0°F-5.0°C 83% 7.7 mph SW12.4 kmh SW 10.0 mph16.1 kmh 29.96 in1014.6 mb 0.00 in0.0 mm 0.00 in0.0 mm 0.00 in0.0 mm
12:05 AM 27.6°F-2.4°C 23.1°F-4.9°C 83% 6.3 mph SW10.1 kmh SW 10.0 mph16.1 kmh 29.96 in1014.6 mb 0.00 in0.0 mm 0.00 in0.0 mm 0.00 in0.0 mm
12:06 AM 27.6°F-2.4°C 23.1°F-4.9°C 83% 6.5 mph SW10.5 kmh SW 8.0 mph12.9 kmh 29.96 in1014.6 mb 0.00 in0.0 mm 0.00 in0.0 mm 0.00 in0.0 mm
12:07 AM 27.6°F-2.4°C 23.1°F-4.9°C 83% 6.3 mph SW10.1 kmh SW 8.0 mph12.9 kmh 29.96 in1014.6 mb 0.00 in0.0 mm 0.00 in0.0 mm 0.00 in0.0 mm
12:08 AM 27.6°F-2.4°C 23.1°F-4.9°C 83% 6.4 mph SW10.3 kmh SW 8.0 mph12.9 kmh 29.96 in1014.6 mb 0.00 in0.0 mm 0.00 in0.0 mm 0.00 in0.0 mm
12:09 AM 27.6°F-2.4°C 23.1°F-4.9°C 83% 5.5 mph SW8.9 kmh SW 8.0 mph12.9 kmh 29.96 in1014.6 mb 0.00 in0.0 mm 0.00 in0.0 mm 0.00 in0.0 mm
12:10 AM 27.6°F-2.4°C 23.1°F-4.9°C 83% 7.7 mph SW12.4 kmh SW 11.0 mph17.7 kmh 29.96 in1014.6 mb 0.00 in0.0 mm 0.00 in0.0 mm 0.00 in0.0 mm
12:11 AM 27.6°F-2.4°C 23.1°F-4.9°C 83% 6.7 mph SSW10.8 kmh SSW 11.0 mph17.7 kmh 29.96 in1014.6 mb 0.00 in0.0 mm 0.00 in0.0 mm 0.00 in0.0 mm
12:12 AM 27.6°F-2.4°C 23.1°F-4.9°C 83% 5.4 mph SSW8.7 kmh SSW 9.0 mph14.5 kmh 29.96 in1014.6 mb 0.00 in0.0 mm 0.00 in0.0 mm 0.00 in0.0 mm
12:13 AM 27.6°F-2.4°C 23.1°F-4.9°C 83% 5.2 mph SW8.4 kmh SW 8.0 mph12.9 kmh 29.96 in1014.6 mb 0.00 in0.0 mm 0.00 in0.0 mm 0.00 in0.0 mm
12:14 AM 27.6°F-2.4°C 23.1°F-4.9°C 83% 5.3 mph SW8.5 kmh SW 7.0 mph11.3 kmh 29.96 in1014.6 mb 0.00 in0.0 mm 0.00 in0.0 mm 0.00 in0.0 mm
12:15 AM 27.6°F-2.4°C 23.1°F-4.9°C 83% 5.0 mph SSW8.0 kmh SSW 7.0 mph11.3 kmh 29.96 in1014.6 mb 0.00 in0.0 mm 0.00 in0.0 mm 0.00 in0.0 mm
12:16 AM 27.6°F-2.4°C 23.1°F-4.9°C 83% 4.2 mph SSW6.8 kmh SSW 7.0 mph11.3 kmh 29.96 in1014.6 mb 0.00 in0.0 mm 0.00 in0.0 mm 0.00 in0.0 mm
12:17 AM 27.7°F-2.4°C 23.2°F-4.9°C 83% 5.2 mph SSW8.4 kmh SSW 7.0 mph11.3 kmh 29.96 in1014.6 mb 0.00 in0.0 mm 0.00 in0.0 mm 0.00 in0.0 mm
12:18 AM 27.6°F-2.4°C 23.1°F-4.9°C 83% 6.2 mph SSW10.0 kmh SSW 8.0 mph12.9 kmh 29.96 in1014.6 mb 0.00 in0.0 mm 0.00 in0.0 mm 0.00 in0.0 mm
12:19 AM 27.6°F-2.4°C 23.1°F-4.9°C 83% 5.2 mph SSW8.4 kmh SSW 8.0 mph12.9 kmh 29.96 in1014.6 mb 0.00 in0.0 mm 0.00 in0.0 mm 0.00 in0.0 mm
12:20 AM 27.6°F-2.4°C 23.1°F-4.9°C 83% 6.2 mph SW10.0 kmh SW 7.0 mph11.3 kmh 29.96 in1014.6 mb 0.00 in0.0 mm 0.00 in0.0 mm 0.00 in0.0 mm
12:21 AM 27.6°F-2.4°C 23.1°F-4.9°C 83% 6.8 mph SW10.9 kmh SW 10.0 mph16.1 kmh 29.96 in1014.6 mb 0.00 in0.0 mm 0.00 in0.0 mm 0.00 in0.0 mm
12:22 AM 27.7°F-2.4°C 23.2°F-4.9°C 83% 7.1 mph SW11.4 kmh SW 10.0 mph16.1 kmh 29.96 in1014.6 mb 0.00 in0.0 mm 0.00 in0.0 mm 0.00 in0.0 mm
12:23 AM 27.7°F-2.4°C 23.2°F-4.9°C 83% 7.8 mph SW12.6 kmh SW 11.0 mph17.7 kmh 29.96 in1014.6 mb 0.00 in0.0 mm 0.00 in0.0 mm 0.00 in0.0 mm
12:24 AM 27.7°F-2.4°C 22.9°F-5.1°C 82% 7.3 mph SW11.7 kmh SW 11.0 mph17.7 kmh 29.96 in1014.6 mb 0.00 in0.0 mm 0.00 in0.0 mm 0.00 in0.0 mm
12:25 AM 27.8°F-2.3°C 23.0°F-5.0°C 82% 7.5 mph SW12.1 kmh SW 11.0 mph17.7 kmh 29.96 in1014.6 mb 0.00 in0.0 mm 0.00 in0.0 mm 0.00 in0.0 mm
12:26 AM 27.8°F-2.3°C 23.0°F-5.0°C 82% 8.7 mph SW14.0 kmh SW 11.0 mph17.7 kmh 29.96 in1014.6 mb 0.00 in0.0 mm 0.00 in0.0 mm 0.00 in0.0 mm
12:27 AM 27.8°F-2.3°C 23.0°F-5.0°C 82% 8.3 mph SW13.4 kmh SW 11.0 mph17.7 kmh 29.96 in1014.6 mb 0.00 in0.0 mm 0.00 in0.0 mm 0.00 in0.0 mm
12:28 AM 27.8°F-2.3°C 23.0°F-5.0°C 82% 5.8 mph SW9.3 kmh SW 10.0 mph16.1 kmh 29.96 in1014.6 mb 0.00 in0.0 mm 0.00 in0.0 mm 0.00 in0.0 mm
12:29 AM 27.8°F-2.3°C 23.0°F-5.0°C 82% 5.7 mph SW9.2 kmh SW 7.0 mph11.3 kmh 29.96 in1014.6 mb 0.00 in0.0 mm 0.00 in0.0 mm 0.00 in0.0 mm
12:30 AM 27.8°F-2.3°C 23.0°F-5.0°C 82% 5.3 mph SW8.5 kmh SW 7.0 mph11.3 kmh 29.96 in1014.6 mb 0.00 in0.0 mm 0.00 in0.0 mm 0.00 in0.0 mm
12:31 AM 27.8°F-2.3°C 23.0°F-5.0°C 82% 5.8 mph SW9.3 kmh SW 8.0 mph12.9 kmh 29.96 in1014.6 mb 0.00 in0.0 mm 0.00 in0.0 mm 0.00 in0.0 mm
12:32 AM 27.8°F-2.3°C 23.0°F-5.0°C 82% 5.5 mph SW8.9 kmh SW 8.0 mph12.9 kmh 29.96 in1014.6 mb 0.00 in0.0 mm 0.00 in0.0 mm 0.00 in0.0 mm
12:33 AM 27.8°F-2.3°C 23.0°F-5.0°C 82% 5.2 mph SW8.4 kmh SW 8.0 mph12.9 kmh 29.96 in1014.6 mb 0.00 in0.0 mm 0.00 in0.0 mm 0.00 in0.0 mm
12:34 AM 27.7°F-2.4°C 22.9°F-5.1°C 82% 7.2 mph SW11.6 kmh SW 9.0 mph14.5 kmh 29.96 in1014.6 mb 0.00 in0.0 mm 0.00 in0.0 mm 0.00 in0.0 mm
12:35 AM 27.8°F-2.3°C 23.0°F-5.0°C 82% 5.6 mph SW9.0 kmh SW 9.0 mph14.5 kmh 29.96 in1014.6 mb 0.00 in0.0 mm 0.00 in0.0 mm 0.00 in0.0 mm
12:36 AM 27.8°F-2.3°C 23.0°F-5.0°C 82% 5.0 mph SW8.0 kmh SW 7.0 mph11.3 kmh 29.96 in1014.6 mb 0.00 in0.0 mm 0.00 in0.0 mm 0.00 in0.0 mm
12:37 AM 27.8°F-2.3°C 23.0°F-5.0°C 82% 5.2 mph SW8.4 kmh SW 7.0 mph11.3 kmh 29.96 in1014.6 mb 0.00 in0.0 mm 0.00 in0.0 mm 0.00 in0.0 mm
12:38 AM 27.8°F-2.3°C 23.3°F-4.8°C 83% 3.4 mph SW5.5 kmh SW 7.0 mph11.3 kmh 29.96 in1014.6 mb 0.00 in0.0 mm 0.00 in0.0 mm 0.00 in0.0 mm
12:39 AM 27.7°F-2.4°C 23.2°F-4.9°C 83% 4.7 mph SW7.6 kmh SW 7.0 mph11.3 kmh 29.96 in1014.6 mb 0.00 in0.0 mm 0.00 in0.0 mm 0.00 in0.0 mm
12:40 AM 27.7°F-2.4°C 22.9°F-5.1°C 82% 4.4 mph SW7.1 kmh SW 7.0 mph11.3 kmh 29.96 in1014.6 mb 0.00 in0.0 mm 0.00 in0.0 mm 0.00 in0.0 mm
12:41 AM 27.7°F-2.4°C 22.9°F-5.1°C 82% 4.1 mph SSW6.6 kmh SSW 6.0 mph9.7 kmh 29.96 in1014.6 mb 0.00 in0.0 mm 0.00 in0.0 mm 0.00 in0.0 mm
12:42 AM 27.7°F-2.4°C 22.9°F-5.1°C 82% 5.8 mph SSW9.3 kmh SSW 7.0 mph11.3 kmh 29.96 in1014.6 mb 0.00 in0.0 mm 0.00 in0.0 mm 0.00 in0.0 mm
12:43 AM 27.7°F-2.4°C 22.9°F-5.1°C 82% 4.7 mph SSW7.6 kmh SSW 7.0 mph11.3 kmh 29.96 in1014.6 mb 0.00 in0.0 mm 0.00 in0.0 mm 0.00 in0.0 mm
12:44 AM 27.7°F-2.4°C 22.9°F-5.1°C 82% 4.0 mph SSW6.4 kmh SSW 7.0 mph11.3 kmh 29.96 in1014.6 mb 0.00 in0.0 mm 0.00 in0.0 mm 0.00 in0.0 mm
12:45 AM 27.8°F-2.3°C 23.0°F-5.0°C 82% 7.7 mph SW12.4 kmh SW 11.0 mph17.7 kmh 29.95 in1014.2 mb 0.00 in0.0 mm 0.00 in0.0 mm 0.00 in0.0 mm
12:46 AM 27.7°F-2.4°C 22.9°F-5.1°C 82% 6.2 mph SSW10.0 kmh SSW 11.0 mph17.7 kmh 29.96 in1014.6 mb 0.00 in0.0 mm 0.00 in0.0 mm 0.00 in0.0 mm
12:47 AM 27.8°F-2.3°C 23.0°F-5.0°C 82% 5.4 mph SSW8.7 kmh SSW 8.0 mph12.9 kmh 29.95 in1014.2 mb 0.00 in0.0 mm 0.00 in0.0 mm 0.00 in0.0 mm
12:48 AM 27.8°F-2.3°C 23.0°F-5.0°C 82% 4.4 mph SSW7.1 kmh SSW 7.0 mph11.3 kmh 29.95 in1014.2 mb 0.00 in0.0 mm 0.00 in0.0 mm 0.00 in0.0 mm
12:49 AM 27.8°F-2.3°C 23.0°F-5.0°C 82% 3.8 mph SSW6.1 kmh SSW 6.0 mph9.7 kmh 29.95 in1014.2 mb 0.00 in0.0 mm 0.00 in0.0 mm 0.00 in0.0 mm
12:50 AM 27.8°F-2.3°C 23.0°F-5.0°C 82% 4.5 mph SW7.2 kmh SW 6.0 mph9.7 kmh 29.95 in1014.2 mb 0.00 in0.0 mm 0.00 in0.0 mm 0.00 in0.0 mm
12:51 AM 27.7°F-2.4°C 22.9°F-5.1°C 82% 3.1 mph SW5.0 kmh SW 6.0 mph9.7 kmh 29.95 in1014.2 mb 0.00 in0.0 mm 0.00 in0.0 mm 0.00 in0.0 mm
12:52 AM 27.7°F-2.4°C 22.9°F-5.1°C 82% 4.9 mph SSW7.9 kmh SSW 8.0 mph12.9 kmh 29.95 in1014.2 mb 0.00 in0.0 mm 0.00 in0.0 mm 0.00 in0.0 mm
12:53 AM 27.7°F-2.4°C 22.9°F-5.1°C 82% 5.1 mph S8.2 kmh S 8.0 mph12.9 kmh 29.95 in1014.2 mb 0.00 in0.0 mm 0.00 in0.0 mm 0.00 in0.0 mm
12:54 AM 27.7°F-2.4°C 22.9°F-5.1°C 82% 4.6 mph SSW7.4 kmh SSW 8.0 mph12.9 kmh 29.95 in1014.2 mb 0.00 in0.0 mm 0.00 in0.0 mm 0.00 in0.0 mm
12:55 AM 27.7°F-2.4°C 22.9°F-5.1°C 82% 5.5 mph SSW8.9 kmh SSW 9.0 mph14.5 kmh 29.95 in1014.2 mb 0.00 in0.0 mm 0.00 in0.0 mm 0.00 in0.0 mm
12:56 AM 27.8°F-2.3°C 23.0°F-5.0°C 82% 7.7 mph SSW12.4 kmh SSW 9.0 mph14.5 kmh 29.95 in1014.2 mb 0.00 in0.0 mm 0.00 in0.0 mm 0.00 in0.0 mm
12:57 AM 27.7°F-2.4°C 22.9°F-5.1°C 82% 6.1 mph SSW9.8 kmh SSW 9.0 mph14.5 kmh 29.95 in1014.2 mb 0.00 in0.0 mm 0.00 in0.0 mm 0.00 in0.0 mm
12:58 AM 27.8°F-2.3°C 23.0°F-5.0°C 82% 7.2 mph SW11.6 kmh SW 9.0 mph14.5 kmh 29.95 in1014.2 mb 0.00 in0.0 mm 0.00 in0.0 mm 0.00 in0.0 mm
12:59 AM 27.8°F-2.3°C 23.0°F-5.0°C 82% 7.5 mph SW12.1 kmh SW 9.0 mph14.5 kmh 29.95 in1014.2 mb 0.00 in0.0 mm 0.00 in0.0 mm 0.00 in0.0 mm
01:00 AM 27.8°F-2.3°C 23.0°F-5.0°C 82% 6.5 mph SW10.5 kmh SW 9.0 mph14.5 kmh 29.95 in1014.2 mb 0.00 in0.0 mm 0.00 in0.0 mm 0.00 in0.0 mm
01:01 AM 27.8°F-2.3°C 23.0°F-5.0°C 82% 6.2 mph SW10.0 kmh SW 7.0 mph11.3 kmh 29.95 in1014.2 mb 0.00 in0.0 mm 0.00 in0.0 mm 0.00 in0.0 mm
01:02 AM 27.8°F-2.3°C 23.0°F-5.0°C 82% 5.9 mph SW9.5 kmh SW 8.0 mph12.9 kmh 29.95 in1014.2 mb 0.00 in0.0 mm 0.00 in0.0 mm 0.00 in0.0 mm
01:03 AM 27.8°F-2.3°C 23.0°F-5.0°C 82% 6.5 mph SW10.5 kmh SW 8.0 mph12.9 kmh 29.95 in1014.2 mb 0.00 in0.0 mm 0.00 in0.0 mm 0.00 in0.0 mm
01:04 AM 27.8°F-2.3°C 23.0°F-5.0°C 82% 6.5 mph SW10.5 kmh SW 10.0 mph16.1 kmh 29.95 in1014.2 mb 0.00 in0.0 mm 0.00 in0.0 mm 0.00 in0.0 mm
01:05 AM 27.8°F-2.3°C 23.0°F-5.0°C 82% 6.7 mph SW10.8 kmh SW 10.0 mph16.1 kmh 29.95 in1014.2 mb 0.00 in0.0 mm 0.00 in0.0 mm 0.00 in0.0 mm
01:06 AM 27.8°F-2.3°C 23.0°F-5.0°C 82% 7.5 mph SW12.1 kmh SW 9.0 mph14.5 kmh 29.95 in1014.2 mb 0.00 in0.0 mm 0.00 in0.0 mm 0.00 in0.0 mm
01:07 AM 27.8°F-2.3°C 23.0°F-5.0°C 82% 6.1 mph SSW9.8 kmh SSW 9.0 mph14.5 kmh 29.95 in1014.2 mb 0.00 in0.0 mm 0.00 in0.0 mm 0.00 in0.0 mm
01:08 AM 27.8°F-2.3°C 23.0°F-5.0°C 82% 6.7 mph SW10.8 kmh SW 9.0 mph14.5 kmh 29.95 in1014.2 mb 0.00 in0.0 mm 0.00 in0.0 mm 0.00 in0.0 mm
01:09 AM 27.8°F-2.3°C 23.0°F-5.0°C 82% 6.1 mph SW9.8 kmh SW 9.0 mph14.5 kmh 29.95 in1014.2 mb 0.00 in0.0 mm 0.00 in0.0 mm 0.00 in0.0 mm
01:10 AM 27.8°F-2.3°C 23.0°F-5.0°C 82% 8.2 mph SSW13.2 kmh SSW 10.0 mph16.1 kmh 29.95 in1014.2 mb 0.00 in0.0 mm 0.00 in0.0 mm 0.00 in0.0 mm
01:11 AM 27.8°F-2.3°C 23.0°F-5.0°C 82% 8.1 mph SW13.0 kmh SW 10.0 mph16.1 kmh 29.95 in1014.2 mb 0.00 in0.0 mm 0.00 in0.0 mm 0.00 in0.0 mm
01:12 AM 27.8°F-2.3°C 23.0°F-5.0°C 82% 8.1 mph SW13.0 kmh SW 10.0 mph16.1 kmh 29.95 in1014.2 mb 0.00 in0.0 mm 0.00 in0.0 mm 0.00 in0.0 mm
01:13 AM 27.8°F-2.3°C 23.0°F-5.0°C 82% 8.4 mph SSW13.5 kmh SSW 12.0 mph19.3 kmh 29.95 in1014.2 mb 0.00 in0.0 mm 0.00 in0.0 mm 0.00 in0.0 mm
01:14 AM 27.8°F-2.3°C 23.0°F-5.0°C 82% 10.4 mph SW16.7 kmh SW 13.0 mph20.9 kmh 29.95 in1014.2 mb 0.00 in0.0 mm 0.00 in0.0 mm 0.00 in0.0 mm
01:15 AM 27.8°F-2.3°C 23.0°F-5.0°C 82% 8.5 mph SW13.7 kmh SW 13.0 mph20.9 kmh 29.95 in1014.2 mb 0.00 in0.0 mm 0.00 in0.0 mm 0.00 in0.0 mm
01:16 AM 27.8°F-2.3°C 23.0°F-5.0°C 82% 7.7 mph SW12.4 kmh SW 11.0 mph17.7 kmh 29.95 in1014.2 mb 0.00 in0.0 mm 0.00 in0.0 mm 0.00 in0.0 mm
01:17 AM 27.7°F-2.4°C 22.9°F-5.1°C 82% 5.9 mph SW9.5 kmh SW 11.0 mph17.7 kmh 29.95 in1014.2 mb 0.00 in0.0 mm 0.00 in0.0 mm 0.00 in0.0 mm
01:18 AM 27.8°F-2.3°C 23.0°F-5.0°C 82% 6.8 mph SSW10.9 kmh SSW 9.0 mph14.5 kmh 29.95 in1014.2 mb 0.00 in0.0 mm 0.00 in0.0 mm 0.00 in0.0 mm
01:19 AM 27.8°F-2.3°C 23.0°F-5.0°C 82% 7.2 mph SSW11.6 kmh SSW 9.0 mph14.5 kmh 29.95 in1014.2 mb 0.00 in0.0 mm 0.00 in0.0 mm 0.00 in0.0 mm
01:20 AM 27.7°F-2.4°C 22.9°F-5.1°C 82% 5.2 mph SW8.4 kmh SW 9.0 mph14.5 kmh 29.95 in1014.2 mb 0.00 in0.0 mm 0.00 in0.0 mm 0.00 in0.0 mm
01:21 AM 27.8°F-2.3°C 23.0°F-5.0°C 82% 6.1 mph SW9.8 kmh SW 7.0 mph11.3 kmh 29.95 in1014.2 mb 0.00 in0.0 mm 0.00 in0.0 mm 0.00 in0.0 mm
01:22 AM 27.7°F-2.4°C 22.9°F-5.1°C 82% 6.5 mph SW10.5 kmh SW 9.0 mph14.5 kmh 29.95 in1014.2 mb 0.00 in0.0 mm 0.00 in0.0 mm 0.00 in0.0 mm
01:23 AM 27.8°F-2.3°C 23.0°F-5.0°C 82% 7.0 mph SW11.3 kmh SW 9.0 mph14.5 kmh 29.95 in1014.2 mb 0.00 in0.0 mm 0.00 in0.0 mm 0.00 in0.0 mm
01:24 AM 27.8°F-2.3°C 23.0°F-5.0°C 82% 7.9 mph SW12.7 kmh SW 9.0 mph14.5 kmh 29.95 in1014.2 mb 0.00 in0.0 mm 0.00 in0.0 mm 0.00 in0.0 mm
01:25 AM 27.7°F-2.4°C 22.9°F-5.1°C 82% 7.1 mph SSW11.4 kmh SSW 11.0 mph17.7 kmh 29.95 in1014.2 mb 0.00 in0.0 mm 0.00 in0.0 mm 0.00 in0.0 mm
01:26 AM 27.7°F-2.4°C 22.9°F-5.1°C 82% 7.0 mph SSW11.3 kmh SSW 11.0 mph17.7 kmh 29.95 in1014.2 mb 0.00 in0.0 mm 0.00 in0.0 mm 0.00 in0.0 mm
01:27 AM 27.8°F-2.3°C 23.0°F-5.0°C 82% 7.1 mph SSW11.4 kmh SSW 9.0 mph14.5 kmh 29.95 in1014.2 mb 0.00 in0.0 mm 0.00 in0.0 mm 0.00 in0.0 mm
01:28 AM 27.7°F-2.4°C 23.2°F-4.9°C 83% 6.6 mph SSW10.6 kmh SSW 9.0 mph14.5 kmh 29.95 in1014.2 mb 0.00 in0.0 mm 0.00 in0.0 mm 0.00 in0.0 mm
01:29 AM 27.7°F-2.4°C 23.2°F-4.9°C 83% 8.0 mph SSW12.9 kmh SSW 9.0 mph14.5 kmh 29.95 in1014.2 mb 0.00 in0.0 mm 0.00 in0.0 mm 0.00 in0.0 mm
01:30 AM 27.7°F-2.4°C 23.2°F-4.9°C 83% 7.5 mph SSW12.1 kmh SSW 11.0 mph17.7 kmh 29.95 in1014.2 mb 0.00 in0.0 mm 0.00 in0.0 mm 0.00 in0.0 mm
01:31 AM 27.7°F-2.4°C 23.2°F-4.9°C 83% 7.8 mph SW12.6 kmh SW 11.0 mph17.7 kmh 29.95 in1014.2 mb 0.00 in0.0 mm 0.00 in0.0 mm 0.00 in0.0 mm
01:32 AM 27.8°F-2.3°C 23.3°F-4.8°C 83% 8.0 mph SW12.9 kmh SW 11.0 mph17.7 kmh 29.95 in1014.2 mb 0.00 in0.0 mm 0.00 in0.0 mm 0.00 in0.0 mm
01:33 AM 27.7°F-2.4°C 23.2°F-4.9°C 83% 7.4 mph SW11.9 kmh SW 11.0 mph17.7 kmh 29.95 in1014.2 mb 0.00 in0.0 mm 0.00 in0.0 mm 0.00 in0.0 mm
01:34 AM 27.7°F-2.4°C 23.2°F-4.9°C 83% 8.5 mph SSW13.7 kmh SSW 12.0 mph19.3 kmh 29.95 in1014.2 mb 0.00 in0.0 mm 0.00 in0.0 mm 0.00 in0.0 mm
01:35 AM 27.7°F-2.4°C 23.2°F-4.9°C 83% 7.0 mph SSW11.3 kmh SSW 12.0 mph19.3 kmh 29.95 in1014.2 mb 0.00 in0.0 mm 0.00 in0.0 mm 0.00 in0.0 mm
01:36 AM 27.7°F-2.4°C 23.2°F-4.9°C 83% 6.9 mph SW11.1 kmh SW 10.0 mph16.1 kmh 29.95 in1014.2 mb 0.00 in0.0 mm 0.00 in0.0 mm 0.00 in0.0 mm
01:37 AM 27.7°F-2.4°C 23.2°F-4.9°C 83% 6.4 mph SW10.3 kmh SW 10.0 mph16.1 kmh 29.95 in1014.2 mb 0.00 in0.0 mm 0.00 in0.0 mm 0.00 in0.0 mm
01:38 AM 27.7°F-2.4°C 23.5°F-4.7°C 84% 6.0 mph SSW9.7 kmh SSW 9.0 mph14.5 kmh 29.95 in1014.2 mb 0.00 in0.0 mm 0.00 in0.0 mm 0.00 in0.0 mm
01:39 AM 27.6°F-2.4°C 23.4°F-4.8°C 84% 7.2 mph SSW11.6 kmh SSW 10.0 mph16.1 kmh 29.95 in1014.2 mb 0.00 in0.0 mm 0.00 in0.0 mm 0.00 in0.0 mm
01:40 AM 27.6°F-2.4°C 23.4°F-4.8°C 84% 6.2 mph SW10.0 kmh SW 10.0 mph16.1 kmh 29.95 in1014.2 mb 0.00 in0.0 mm 0.00 in0.0 mm 0.00 in0.0 mm
01:41 AM 27.6°F-2.4°C 23.4°F-4.8°C 84% 4.7 mph SSW7.6 kmh SSW 7.0 mph11.3 kmh 29.95 in1014.2 mb 0.00 in0.0 mm 0.00 in0.0 mm 0.00 in0.0 mm
01:42 AM 27.6°F-2.4°C 23.4°F-4.8°C 84% 6.6 mph SSW10.6 kmh SSW 9.0 mph14.5 kmh 29.95 in1014.2 mb 0.00 in0.0 mm 0.00 in0.0 mm 0.00 in0.0 mm
01:43 AM 27.6°F-2.4°C 23.4°F-4.8°C 84% 7.4 mph SSW11.9 kmh SSW 9.0 mph14.5 kmh 29.95 in1014.2 mb 0.00 in0.0 mm 0.00 in0.0 mm 0.00 in0.0 mm
01:44 AM 27.5°F-2.5°C 23.6°F-4.7°C 85% 4.8 mph SW7.7 kmh SW 9.0 mph14.5 kmh 29.95 in1014.2 mb 0.00 in0.0 mm 0.00 in0.0 mm 0.00 in0.0 mm
01:45 AM 27.5°F-2.5°C 23.6°F-4.7°C 85% 4.9 mph SSW7.9 kmh SSW 7.0 mph11.3 kmh 29.95 in1014.2 mb 0.00 in0.0 mm 0.00 in0.0 mm 0.00 in0.0 mm
01:46 AM 27.5°F-2.5°C 23.6°F-4.7°C 85% 6.7 mph SSW10.8 kmh SSW 9.0 mph14.5 kmh 29.95 in1014.2 mb 0.00 in0.0 mm 0.00 in0.0 mm 0.00 in0.0 mm
01:47 AM 27.4°F-2.6°C 23.5°F-4.7°C 85% 5.5 mph SSW8.9 kmh SSW 9.0 mph14.5 kmh 29.95 in1014.2 mb 0.00 in0.0 mm 0.00 in0.0 mm 0.00 in0.0 mm
01:48 AM 27.4°F-2.6°C 23.5°F-4.7°C 85% 5.3 mph SW8.5 kmh SW 7.0 mph11.3 kmh 29.95 in1014.2 mb 0.00 in0.0 mm 0.00 in0.0 mm 0.00 in0.0 mm
01:49 AM 27.4°F-2.6°C 23.5°F-4.7°C 85% 5.1 mph SW8.2 kmh SW 8.0 mph12.9 kmh 29.95 in1014.2 mb 0.00 in0.0 mm 0.00 in0.0 mm 0.00 in0.0 mm
01:50 AM 27.5°F-2.5°C 23.6°F-4.7°C 85% 5.2 mph SSW8.4 kmh SSW 8.0 mph12.9 kmh 29.95 in1014.2 mb 0.00 in0.0 mm 0.00 in0.0 mm 0.00 in0.0 mm
01:51 AM 27.4°F-2.6°C 23.8°F-4.6°C 86% 5.8 mph SSW9.3 kmh SSW 7.0 mph11.3 kmh 29.95 in1014.2 mb 0.00 in0.0 mm 0.00 in0.0 mm 0.00 in0.0 mm
01:52 AM 27.4°F-2.6°C 23.8°F-4.6°C 86% 4.6 mph SSW7.4 kmh SSW 7.0 mph11.3 kmh 29.95 in1014.2 mb 0.00 in0.0 mm 0.00 in0.0 mm 0.00 in0.0 mm
01:53 AM 27.4°F-2.6°C 23.8°F-4.6°C 86% 6.5 mph SSW10.5 kmh SSW 8.0 mph12.9 kmh 29.95 in1014.2 mb 0.00 in0.0 mm 0.00 in0.0 mm 0.00 in0.0 mm
01:54 AM 27.3°F-2.6°C 23.7°F-4.6°C 86% 5.6 mph SSW9.0 kmh SSW 8.0 mph12.9 kmh 29.95 in1014.2 mb 0.00 in0.0 mm 0.00 in0.0 mm 0.00 in0.0 mm
01:55 AM 27.3°F-2.6°C 23.7°F-4.6°C 86% 6.9 mph SW11.1 kmh SW 9.0 mph14.5 kmh 29.95 in1014.2 mb 0.00 in0.0 mm 0.00 in0.0 mm 0.00 in0.0 mm
01:56 AM 27.3°F-2.6°C 23.7°F-4.6°C 86% 6.3 mph SSW10.1 kmh SSW 9.0 mph14.5 kmh 29.95 in1014.2 mb 0.00 in0.0 mm 0.00 in0.0 mm 0.00 in0.0 mm
01:57 AM 27.3°F-2.6°C 23.7°F-4.6°C 86% 5.1 mph SSW8.2 kmh SSW 8.0 mph12.9 kmh 29.95 in1014.2 mb 0.00 in0.0 mm 0.00 in0.0 mm 0.00 in0.0 mm
01:58 AM 27.3°F-2.6°C 23.7°F-4.6°C 86% 6.4 mph SSW10.3 kmh SSW 8.0 mph12.9 kmh 29.95 in1014.2 mb 0.00 in0.0 mm 0.00 in0.0 mm 0.00 in0.0 mm
01:59 AM 27.3°F-2.6°C 23.7°F-4.6°C 86% 4.7 mph SSW7.6 kmh SSW 8.0 mph12.9 kmh 29.95 in1014.2 mb 0.00 in0.0 mm 0.00 in0.0 mm 0.00 in0.0 mm
02:00 AM 27.3°F-2.6°C 23.7°F-4.6°C 86% 4.0 mph SSW6.4 kmh SSW 7.0 mph11.3 kmh 29.95 in1014.2 mb 0.00 in0.0 mm 0.00 in0.0 mm 0.00 in0.0 mm
02:01 AM 27.3°F-2.6°C 23.7°F-4.6°C 86% 5.2 mph SSW8.4 kmh SSW 7.0 mph11.3 kmh 29.95 in1014.2 mb 0.00 in0.0 mm 0.00 in0.0 mm 0.00 in0.0 mm
02:02 AM 27.2°F-2.7°C 23.9°F-4.5°C 87% 5.5 mph SSW8.9 kmh SSW 7.0 mph11.3 kmh 29.95 in1014.2 mb 0.00 in0.0 mm 0.00 in0.0 mm 0.00 in0.0 mm
02:03 AM 27.2°F-2.7°C 23.9°F-4.5°C 87% 5.7 mph SSW9.2 kmh SSW 8.0 mph12.9 kmh 29.95 in1014.2 mb 0.00 in0.0 mm 0.00 in0.0 mm 0.00 in0.0 mm
02:04 AM 27.2°F-2.7°C 23.9°F-4.5°C 87% 4.7 mph S7.6 kmh S 8.0 mph12.9 kmh 29.95 in1014.2 mb 0.00 in0.0 mm 0.00 in0.0 mm 0.00 in0.0 mm
02:05 AM 27.1°F-2.7°C 23.8°F-4.6°C 87% 6.7 mph SSW10.8 kmh SSW 9.0 mph14.5 kmh 29.95 in1014.2 mb 0.00 in0.0 mm 0.00 in0.0 mm 0.00 in0.0 mm
02:06 AM 27.2°F-2.7°C 23.9°F-4.5°C 87% 4.6 mph S7.4 kmh S 9.0 mph14.5 kmh 29.95 in1014.2 mb 0.00 in0.0 mm 0.00 in0.0 mm 0.00 in0.0 mm
02:07 AM 27.1°F-2.7°C 23.8°F-4.6°C 87% 6.4 mph S10.3 kmh S 9.0 mph14.5 kmh 29.95 in1014.2 mb 0.00 in0.0 mm 0.00 in0.0 mm 0.00 in0.0 mm
02:08 AM 27.1°F-2.7°C 23.8°F-4.6°C 87% 5.6 mph SSW9.0 kmh SSW 9.0 mph14.5 kmh 29.95 in1014.2 mb 0.00 in0.0 mm 0.00 in0.0 mm 0.00 in0.0 mm
02:09 AM 27.1°F-2.7°C 23.8°F-4.6°C 87% 5.3 mph S8.5 kmh S 9.0 mph14.5 kmh 29.95 in1014.2 mb 0.00 in0.0 mm 0.00 in0.0 mm 0.00 in0.0 mm
02:10 AM 27.0°F-2.8°C 23.7°F-4.6°C 87% 6.0 mph S9.7 kmh S 9.0 mph14.5 kmh 29.95 in1014.2 mb 0.00 in0.0 mm 0.00 in0.0 mm 0.00 in0.0 mm
02:11 AM 27.0°F-2.8°C 23.7°F-4.6°C 87% 6.4 mph S10.3 kmh S 11.0 mph17.7 kmh 29.95 in1014.2 mb 0.00 in0.0 mm 0.00 in0.0 mm 0.00 in0.0 mm
02:12 AM 27.0°F-2.8°C 23.7°F-4.6°C 87% 4.9 mph S7.9 kmh S 11.0 mph17.7 kmh 29.95 in1014.2 mb 0.00 in0.0 mm 0.00 in0.0 mm 0.00 in0.0 mm
02:13 AM 27.0°F-2.8°C 23.7°F-4.6°C 87% 6.0 mph S9.7 kmh S 8.0 mph12.9 kmh 29.95 in1014.2 mb 0.00 in0.0 mm 0.00 in0.0 mm 0.00 in0.0 mm
02:14 AM 27.0°F-2.8°C 23.7°F-4.6°C 87% 5.3 mph S8.5 kmh S 9.0 mph14.5 kmh 29.95 in1014.2 mb 0.00 in0.0 mm 0.00 in0.0 mm 0.00 in0.0 mm
02:15 AM 27.0°F-2.8°C 23.7°F-4.6°C 87% 6.2 mph S10.0 kmh S 8.0 mph12.9 kmh 29.95 in1014.2 mb 0.00 in0.0 mm 0.00 in0.0 mm 0.00 in0.0 mm
02:16 AM 27.0°F-2.8°C 23.7°F-4.6°C 87% 5.7 mph SSE9.2 kmh SSE 9.0 mph14.5 kmh 29.95 in1014.2 mb 0.00 in0.0 mm 0.00 in0.0 mm 0.00 in0.0 mm
02:17 AM 27.0°F-2.8°C 23.7°F-4.6°C 87% 4.9 mph SSE7.9 kmh SSE 8.0 mph12.9 kmh 29.95 in1014.2 mb 0.00 in0.0 mm 0.00 in0.0 mm 0.00 in0.0 mm
02:18 AM 27.0°F-2.8°C 23.9°F-4.5°C 88% 3.6 mph SSE5.8 kmh SSE 8.0 mph12.9 kmh 29.95 in1014.2 mb 0.00 in0.0 mm 0.00 in0.0 mm 0.00 in0.0 mm
02:19 AM 27.0°F-2.8°C 23.9°F-4.5°C 88% 5.9 mph S9.5 kmh S 9.0 mph14.5 kmh 29.95 in1014.2 mb 0.00 in0.0 mm 0.00 in0.0 mm 0.00 in0.0 mm
02:20 AM 26.9°F-2.8°C 23.8°F-4.6°C 88% 5.5 mph SSE8.9 kmh SSE 9.0 mph14.5 kmh 29.94 in1013.9 mb 0.00 in0.0 mm 0.00 in0.0 mm 0.00 in0.0 mm
02:21 AM 27.0°F-2.8°C 23.9°F-4.5°C 88% 6.1 mph S9.8 kmh S 10.0 mph16.1 kmh 29.94 in1013.9 mb 0.00 in0.0 mm 0.00 in0.0 mm 0.00 in0.0 mm
02:22 AM 27.0°F-2.8°C 23.9°F-4.5°C 88% 7.7 mph S12.4 kmh S 11.0 mph17.7 kmh 29.94 in1013.9 mb 0.00 in0.0 mm 0.00 in0.0 mm 0.00 in0.0 mm
02:23 AM 27.0°F-2.8°C 23.9°F-4.5°C 88% 5.5 mph S8.9 kmh S 11.0 mph17.7 kmh 29.94 in1013.9 mb 0.00 in0.0 mm 0.00 in0.0 mm 0.00 in0.0 mm
02:24 AM 27.0°F-2.8°C 23.9°F-4.5°C 88% 5.0 mph SSE8.0 kmh SSE 8.0 mph12.9 kmh 29.94 in1013.9 mb 0.00 in0.0 mm 0.00 in0.0 mm 0.00 in0.0 mm
02:25 AM 27.0°F-2.8°C 23.9°F-4.5°C 88% 5.6 mph S9.0 kmh S 8.0 mph12.9 kmh 29.94 in1013.9 mb 0.00 in0.0 mm 0.00 in0.0 mm 0.00 in0.0 mm
02:26 AM 27.0°F-2.8°C 23.9°F-4.5°C 88% 6.0 mph S9.7 kmh S 8.0 mph12.9 kmh 29.94 in1013.9 mb 0.00 in0.0 mm 0.00 in0.0 mm 0.00 in0.0 mm
02:27 AM 27.1°F-2.7°C 24.0°F-4.4°C 88% 5.1 mph S8.2 kmh S 7.0 mph11.3 kmh 29.95 in1014.2 mb 0.00 in0.0 mm 0.00 in0.0 mm 0.00 in0.0 mm
02:28 AM 27.1°F-2.7°C 24.0°F-4.4°C 88% 3.9 mph S6.3 kmh S 6.0 mph9.7 kmh 29.95 in1014.2 mb 0.00 in0.0 mm 0.00 in0.0 mm 0.00 in0.0 mm
02:29 AM 27.1°F-2.7°C 24.0°F-4.4°C 88% 4.3 mph S6.9 kmh S 6.0 mph9.7 kmh 29.95 in1014.2 mb 0.00 in0.0 mm 0.00 in0.0 mm 0.00 in0.0 mm
02:30 AM 27.1°F-2.7°C 24.0°F-4.4°C 88% 5.5 mph S8.9 kmh S 7.0 mph11.3 kmh 29.95 in1014.2 mb 0.00 in0.0 mm 0.00 in0.0 mm 0.00 in0.0 mm
02:31 AM 27.1°F-2.7°C 24.0°F-4.4°C 88% 5.9 mph S9.5 kmh S 7.0 mph11.3 kmh 29.95 in1014.2 mb 0.00 in0.0 mm 0.00 in0.0 mm 0.00 in0.0 mm
02:32 AM 27.1°F-2.7°C 24.0°F-4.4°C 88% 4.6 mph S7.4 kmh S 7.0 mph11.3 kmh 29.95 in1014.2 mb 0.00 in0.0 mm 0.00 in0.0 mm 0.00 in0.0 mm
02:33 AM 27.1°F-2.7°C 24.0°F-4.4°C 88% 4.3 mph S6.9 kmh S 6.0 mph9.7 kmh 29.95 in1014.2 mb 0.00 in0.0 mm 0.00 in0.0 mm 0.00 in0.0 mm
02:34 AM 27.1°F-2.7°C 24.0°F-4.4°C 88% 4.6 mph S7.4 kmh S 6.0 mph9.7 kmh 29.95 in1014.2 mb 0.00 in0.0 mm 0.00 in0.0 mm 0.00 in0.0 mm
02:35 AM 27.1°F-2.7°C 24.0°F-4.4°C 88% 6.8 mph S10.9 kmh S 10.0 mph16.1 kmh 29.95 in1014.2 mb 0.00 in0.0 mm 0.00 in0.0 mm 0.00 in0.0 mm
02:36 AM 27.1°F-2.7°C 24.0°F-4.4°C 88% 4.5 mph SSE7.2 kmh SSE 10.0 mph16.1 kmh 29.95 in1014.2 mb 0.00 in0.0 mm 0.00 in0.0 mm 0.00 in0.0 mm
02:37 AM 27.2°F-2.7°C 24.1°F-4.4°C 88% 5.2 mph SSE8.4 kmh SSE 7.0 mph11.3 kmh 29.95 in1014.2 mb 0.00 in0.0 mm 0.00 in0.0 mm 0.00 in0.0 mm
02:38 AM 27.2°F-2.7°C 24.1°F-4.4°C 88% 3.6 mph SSE5.8 kmh SSE 7.0 mph11.3 kmh 29.95 in1014.2 mb 0.00 in0.0 mm 0.00 in0.0 mm 0.00 in0.0 mm
02:39 AM 27.2°F-2.7°C 24.1°F-4.4°C 88% 6.1 mph SSE9.8 kmh SSE 9.0 mph14.5 kmh 29.95 in1014.2 mb 0.00 in0.0 mm 0.00 in0.0 mm 0.00 in0.0 mm
02:40 AM 27.2°F-2.7°C 24.1°F-4.4°C 88% 6.3 mph SSE10.1 kmh SSE 9.0 mph14.5 kmh 29.95 in1014.2 mb 0.00 in0.0 mm 0.00 in0.0 mm 0.00 in0.0 mm
02:41 AM 27.2°F-2.7°C 24.1°F-4.4°C 88% 5.7 mph SSE9.2 kmh SSE 8.0 mph12.9 kmh 29.95 in1014.2 mb 0.00 in0.0 mm 0.00 in0.0 mm 0.00 in0.0 mm
02:42 AM 27.2°F-2.7°C 23.9°F-4.5°C 87% 5.0 mph SSE8.0 kmh SSE 7.0 mph11.3 kmh 29.95 in1014.2 mb 0.00 in0.0 mm 0.00 in0.0 mm 0.00 in0.0 mm
02:43 AM 27.3°F-2.6°C 24.0°F-4.4°C 87% 5.6 mph SSE9.0 kmh SSE 8.0 mph12.9 kmh 29.95 in1014.2 mb 0.00 in0.0 mm 0.00 in0.0 mm 0.00 in0.0 mm
02:44 AM 27.3°F-2.6°C 24.0°F-4.4°C 87% 6.2 mph SE10.0 kmh SE 8.0 mph12.9 kmh 29.94 in1013.9 mb 0.00 in0.0 mm 0.00 in0.0 mm 0.00 in0.0 mm
02:45 AM 27.3°F-2.6°C 24.0°F-4.4°C 87% 5.6 mph SSE9.0 kmh SSE 8.0 mph12.9 kmh 29.94 in1013.9 mb 0.00 in0.0 mm 0.00 in0.0 mm 0.00 in0.0 mm
02:46 AM 27.3°F-2.6°C 24.0°F-4.4°C 87% 4.0 mph SSE6.4 kmh SSE 7.0 mph11.3 kmh 29.94 in1013.9 mb 0.00 in0.0 mm 0.00 in0.0 mm 0.00 in0.0 mm
02:47 AM 27.3°F-2.6°C 24.0°F-4.4°C 87% 5.3 mph SSE8.5 kmh SSE 6.0 mph9.7 kmh 29.94 in1013.9 mb 0.00 in0.0 mm 0.00 in0.0 mm 0.00 in0.0 mm
02:48 AM 27.3°F-2.6°C 24.0°F-4.4°C 87% 5.5 mph SSE8.9 kmh SSE 7.0 mph11.3 kmh 29.94 in1013.9 mb 0.00 in0.0 mm 0.00 in0.0 mm 0.00 in0.0 mm
02:49 AM 27.3°F-2.6°C 24.0°F-4.4°C 87% 5.0 mph S8.0 kmh S 7.0 mph11.3 kmh 29.94 in1013.9 mb 0.00 in0.0 mm 0.00 in0.0 mm 0.00 in0.0 mm
02:50 AM 27.3°F-2.6°C 24.0°F-4.4°C 87% 5.4 mph SSE8.7 kmh SSE 9.0 mph14.5 kmh 29.94 in1013.9 mb 0.00 in0.0 mm 0.00 in0.0 mm 0.00 in0.0 mm
02:51 AM 27.3°F-2.6°C 24.0°F-4.4°C 87% 5.9 mph SSE9.5 kmh SSE 9.0 mph14.5 kmh 29.94 in1013.9 mb 0.00 in0.0 mm 0.00 in0.0 mm 0.00 in0.0 mm
02:52 AM 27.3°F-2.6°C 24.0°F-4.4°C 87% 6.5 mph SSE10.5 kmh SSE 9.0 mph14.5 kmh 29.94 in1013.9 mb 0.00 in0.0 mm 0.00 in0.0 mm 0.00 in0.0 mm
02:53 AM 27.3°F-2.6°C 24.0°F-4.4°C 87% 6.2 mph SE10.0 kmh SE 9.0 mph14.5 kmh 29.94 in1013.9 mb 0.00 in0.0 mm 0.00 in0.0 mm 0.00 in0.0 mm
02:54 AM 27.3°F-2.6°C 24.0°F-4.4°C 87% 7.3 mph SE11.7 kmh SE 9.0 mph14.5 kmh 29.94 in1013.9 mb 0.00 in0.0 mm 0.00 in0.0 mm 0.00 in0.0 mm
02:55 AM 27.3°F-2.6°C 24.0°F-4.4°C 87% 7.3 mph SSE11.7 kmh SSE 9.0 mph14.5 kmh 29.94 in1013.9 mb 0.00 in0.0 mm 0.00 in0.0 mm 0.00 in0.0 mm
02:56 AM 27.3°F-2.6°C 24.0°F-4.4°C 87% 6.2 mph SSE10.0 kmh SSE 9.0 mph14.5 kmh 29.94 in1013.9 mb 0.00 in0.0 mm 0.00 in0.0 mm 0.00 in0.0 mm
02:57 AM 27.4°F-2.6°C 24.1°F-4.4°C 87% 5.1 mph S8.2 kmh S 8.0 mph12.9 kmh 29.94 in1013.9 mb 0.00 in0.0 mm 0.00 in0.0 mm 0.00 in0.0 mm
02:58 AM 27.4°F-2.6°C 24.1°F-4.4°C 87% 5.7 mph SSE9.2 kmh SSE 11.0 mph17.7 kmh 29.94 in1013.9 mb 0.00 in0.0 mm 0.00 in0.0 mm 0.00 in0.0 mm
02:59 AM 27.4°F-2.6°C 24.1°F-4.4°C 87% 6.3 mph SSE10.1 kmh SSE 11.0 mph17.7 kmh 29.94 in1013.9 mb 0.00 in0.0 mm 0.00 in0.0 mm 0.00 in0.0 mm
03:00 AM 27.4°F-2.6°C 24.1°F-4.4°C 87% 5.1 mph SSE8.2 kmh SSE 9.0 mph14.5 kmh 29.94 in1013.9 mb 0.00 in0.0 mm 0.00 in0.0 mm 0.00 in0.0 mm
03:01 AM 27.4°F-2.6°C 24.1°F-4.4°C 87% 5.2 mph SSE8.4 kmh SSE 8.0 mph12.9 kmh 29.94 in1013.9 mb 0.00 in0.0 mm 0.00 in0.0 mm 0.00 in0.0 mm
03:02 AM 27.5°F-2.5°C 24.1°F-4.4°C 87% 5.3 mph SSE8.5 kmh SSE 11.0 mph17.7 kmh 29.94 in1013.9 mb 0.00 in0.0 mm 0.00 in0.0 mm 0.00 in0.0 mm
03:03 AM 27.4°F-2.6°C 24.1°F-4.4°C 87% 4.6 mph SE7.4 kmh SE 11.0 mph17.7 kmh 29.94 in1013.9 mb 0.00 in0.0 mm 0.00 in0.0 mm 0.00 in0.0 mm
03:04 AM 27.5°F-2.5°C 24.1°F-4.4°C 87% 5.0 mph SSE8.0 kmh SSE 7.0 mph11.3 kmh 29.94 in1013.9 mb 0.00 in0.0 mm 0.00 in0.0 mm 0.00 in0.0 mm
03:05 AM 27.5°F-2.5°C 24.1°F-4.4°C 87% 4.0 mph S6.4 kmh S 6.0 mph9.7 kmh 29.94 in1013.9 mb 0.00 in0.0 mm 0.00 in0.0 mm 0.00 in0.0 mm
03:06 AM 27.5°F-2.5°C 24.1°F-4.4°C 87% 5.8 mph SE9.3 kmh SE 11.0 mph17.7 kmh 29.94 in1013.9 mb 0.00 in0.0 mm 0.00 in0.0 mm 0.00 in0.0 mm
03:07 AM 27.5°F-2.5°C 24.1°F-4.4°C 87% 5.4 mph SSE8.7 kmh SSE 11.0 mph17.7 kmh 29.94 in1013.9 mb 0.00 in0.0 mm 0.00 in0.0 mm 0.00 in0.0 mm
03:08 AM 27.6°F-2.4°C 24.2°F-4.3°C 87% 5.5 mph SSE8.9 kmh SSE 8.0 mph12.9 kmh 29.94 in1013.9 mb 0.00 in0.0 mm 0.00 in0.0 mm 0.00 in0.0 mm
03:09 AM 27.6°F-2.4°C 24.2°F-4.3°C 87% 4.5 mph SSE7.2 kmh SSE 8.0 mph12.9 kmh 29.94 in1013.9 mb 0.00 in0.0 mm 0.00 in0.0 mm 0.00 in0.0 mm
03:10 AM 27.6°F-2.4°C 24.0°F-4.4°C 86% 6.3 mph SSE10.1 kmh SSE 9.0 mph14.5 kmh 29.94 in1013.9 mb 0.00 in0.0 mm 0.00 in0.0 mm 0.00 in0.0 mm
03:11 AM 27.6°F-2.4°C 24.0°F-4.4°C 86% 5.9 mph S9.5 kmh S 9.0 mph14.5 kmh 29.94 in1013.9 mb 0.00 in0.0 mm 0.00 in0.0 mm 0.00 in0.0 mm
03:12 AM 27.6°F-2.4°C 24.0°F-4.4°C 86% 5.0 mph SSE8.0 kmh SSE 8.0 mph12.9 kmh 29.94 in1013.9 mb 0.00 in0.0 mm 0.00 in0.0 mm 0.00 in0.0 mm
03:13 AM 27.6°F-2.4°C 24.0°F-4.4°C 86% 4.5 mph SE7.2 kmh SE 7.0 mph11.3 kmh 29.94 in1013.9 mb 0.00 in0.0 mm 0.00 in0.0 mm 0.00 in0.0 mm
03:14 AM 27.6°F-2.4°C 24.0°F-4.4°C 86% 5.7 mph SE9.2 kmh SE 8.0 mph12.9 kmh 29.94 in1013.9 mb 0.00 in0.0 mm 0.00 in0.0 mm 0.00 in0.0 mm
03:15 AM 27.6°F-2.4°C 24.0°F-4.4°C 86% 5.0 mph SSE8.0 kmh SSE 8.0 mph12.9 kmh 29.94 in1013.9 mb 0.00 in0.0 mm 0.00 in0.0 mm 0.00 in0.0 mm
03:16 AM 27.6°F-2.4°C 24.0°F-4.4°C 86% 5.4 mph SSE8.7 kmh SSE 8.0 mph12.9 kmh 29.94 in1013.9 mb 0.00 in0.0 mm 0.00 in0.0 mm 0.00 in0.0 mm
03:17 AM 27.6°F-2.4°C 24.0°F-4.4°C 86% 6.9 mph SSE11.1 kmh SSE 9.0 mph14.5 kmh 29.94 in1013.9 mb 0.00 in0.0 mm 0.00 in0.0 mm 0.00 in0.0 mm
03:18 AM 27.6°F-2.4°C 24.0°F-4.4°C 86% 6.6 mph SSE10.6 kmh SSE 9.0 mph14.5 kmh 29.94 in1013.9 mb 0.00 in0.0 mm 0.00 in0.0 mm 0.00 in0.0 mm
03:19 AM 27.6°F-2.4°C 24.0°F-4.4°C 86% 6.4 mph SE10.3 kmh SE 8.0 mph12.9 kmh 29.93 in1013.5 mb 0.00 in0.0 mm 0.00 in0.0 mm 0.00 in0.0 mm
03:20 AM 27.6°F-2.4°C 24.0°F-4.4°C 86% 5.5 mph SSE8.9 kmh SSE 8.0 mph12.9 kmh 29.93 in1013.5 mb 0.00 in0.0 mm 0.00 in0.0 mm 0.00 in0.0 mm
03:21 AM 27.6°F-2.4°C 24.0°F-4.4°C 86% 5.5 mph SSE8.9 kmh SSE 7.0 mph11.3 kmh 29.94 in1013.9 mb 0.00 in0.0 mm 0.00 in0.0 mm 0.00 in0.0 mm
03:22 AM 27.6°F-2.4°C 24.0°F-4.4°C 86% 5.7 mph SSE9.2 kmh SSE 8.0 mph12.9 kmh 29.93 in1013.5 mb 0.00 in0.0 mm 0.00 in0.0 mm 0.00 in0.0 mm
03:23 AM 27.6°F-2.4°C 24.0°F-4.4°C 86% 6.1 mph SSE9.8 kmh SSE 8.0 mph12.9 kmh 29.93 in1013.5 mb 0.00 in0.0 mm 0.00 in0.0 mm 0.00 in0.0 mm
03:24 AM 27.6°F-2.4°C 24.0°F-4.4°C 86% 5.7 mph SSE9.2 kmh SSE 8.0 mph12.9 kmh 29.93 in1013.5 mb 0.00 in0.0 mm 0.00 in0.0 mm 0.00 in0.0 mm
03:25 AM 27.6°F-2.4°C 24.0°F-4.4°C 86% 4.9 mph SSE7.9 kmh SSE 7.0 mph11.3 kmh 29.93 in1013.5 mb 0.00 in0.0 mm 0.00 in0.0 mm 0.00 in0.0 mm
03:26 AM 27.6°F-2.4°C 24.0°F-4.4°C 86% 5.9 mph SSE9.5 kmh SSE 9.0 mph14.5 kmh 29.93 in1013.5 mb 0.00 in0.0 mm 0.00 in0.0 mm 0.00 in0.0 mm
03:27 AM 27.6°F-2.4°C 24.0°F-4.4°C 86% 5.7 mph SSE9.2 kmh SSE 9.0 mph14.5 kmh 29.94 in1013.9 mb 0.00 in0.0 mm 0.00 in0.0 mm 0.00 in0.0 mm
03:28 AM 27.6°F-2.4°C 24.0°F-4.4°C 86% 6.4 mph SSE10.3 kmh SSE 9.0 mph14.5 kmh 29.94 in1013.9 mb 0.00 in0.0 mm 0.00 in0.0 mm 0.00 in0.0 mm
03:29 AM 27.6°F-2.4°C 24.0°F-4.4°C 86% 4.5 mph SSE7.2 kmh SSE 9.0 mph14.5 kmh 29.93 in1013.5 mb 0.00 in0.0 mm 0.00 in0.0 mm 0.00 in0.0 mm
03:30 AM 27.6°F-2.4°C 24.0°F-4.4°C 86% 5.8 mph SSE9.3 kmh SSE 8.0 mph12.9 kmh 29.93 in1013.5 mb 0.00 in0.0 mm 0.00 in0.0 mm 0.00 in0.0 mm
03:31 AM 27.6°F-2.4°C 24.0°F-4.4°C 86% 6.0 mph SSE9.7 kmh SSE 9.0 mph14.5 kmh 29.93 in1013.5 mb 0.00 in0.0 mm 0.00 in0.0 mm 0.00 in0.0 mm
03:32 AM 27.6°F-2.4°C 24.0°F-4.4°C 86% 5.5 mph S8.9 kmh S 9.0 mph14.5 kmh 29.94 in1013.9 mb 0.00 in0.0 mm 0.00 in0.0 mm 0.00 in0.0 mm
03:33 AM 27.6°F-2.4°C 24.0°F-4.4°C 86% 5.3 mph SSE8.5 kmh SSE 9.0 mph14.5 kmh 29.93 in1013.5 mb 0.00 in0.0 mm 0.00 in0.0 mm 0.00 in0.0 mm
03:34 AM 27.7°F-2.4°C 24.1°F-4.4°C 86% 3.5 mph S5.6 kmh S 9.0 mph14.5 kmh 29.94 in1013.9 mb 0.00 in0.0 mm 0.00 in0.0 mm 0.00 in0.0 mm
03:35 AM 27.6°F-2.4°C 24.0°F-4.4°C 86% 6.0 mph SSE9.7 kmh SSE 10.0 mph16.1 kmh 29.94 in1013.9 mb 0.00 in0.0 mm 0.00 in0.0 mm 0.00 in0.0 mm
03:36 AM 27.7°F-2.4°C 24.1°F-4.4°C 86% 5.4 mph S8.7 kmh S 10.0 mph16.1 kmh 29.93 in1013.5 mb 0.00 in0.0 mm 0.00 in0.0 mm 0.00 in0.0 mm
03:37 AM 27.7°F-2.4°C 24.1°F-4.4°C 86% 5.1 mph S8.2 kmh S 8.0 mph12.9 kmh 29.93 in1013.5 mb 0.00 in0.0 mm 0.00 in0.0 mm 0.00 in0.0 mm
03:38 AM 27.7°F-2.4°C 24.1°F-4.4°C 86% 5.1 mph SSE8.2 kmh SSE 8.0 mph12.9 kmh 29.93 in1013.5 mb 0.00 in0.0 mm 0.00 in0.0 mm 0.00 in0.0 mm
03:39 AM 27.7°F-2.4°C 23.8°F-4.6°C 85% 5.5 mph SSE8.9 kmh SSE 8.0 mph12.9 kmh 29.93 in1013.5 mb 0.00 in0.0 mm 0.00 in0.0 mm 0.00 in0.0 mm
03:40 AM 27.7°F-2.4°C 23.8°F-4.6°C 85% 5.8 mph SSE9.3 kmh SSE 8.0 mph12.9 kmh 29.93 in1013.5 mb 0.00 in0.0 mm 0.00 in0.0 mm 0.00 in0.0 mm
03:41 AM 27.7°F-2.4°C 23.8°F-4.6°C 85% 5.9 mph SSE9.5 kmh SSE 8.0 mph12.9 kmh 29.93 in1013.5 mb 0.00 in0.0 mm 0.00 in0.0 mm 0.00 in0.0 mm
03:42 AM 27.7°F-2.4°C 23.8°F-4.6°C 85% 5.9 mph SSE9.5 kmh SSE 8.0 mph12.9 kmh 29.93 in1013.5 mb 0.00 in0.0 mm 0.00 in0.0 mm 0.00 in0.0 mm
03:43 AM 27.8°F-2.3°C 23.9°F-4.5°C 85% 5.1 mph SSE8.2 kmh SSE 8.0 mph12.9 kmh 29.93 in1013.5 mb 0.00 in0.0 mm 0.00 in0.0 mm 0.00 in0.0 mm
03:44 AM 27.8°F-2.3°C 23.9°F-4.5°C 85% 4.0 mph S6.4 kmh S 8.0 mph12.9 kmh 29.93 in1013.5 mb 0.00 in0.0 mm 0.00 in0.0 mm 0.00 in0.0 mm
03:45 AM 27.8°F-2.3°C 23.9°F-4.5°C 85% 5.0 mph S8.0 kmh S 7.0 mph11.3 kmh 29.93 in1013.5 mb 0.00 in0.0 mm 0.00 in0.0 mm 0.00 in0.0 mm
03:46 AM 27.8°F-2.3°C 23.9°F-4.5°C 85% 5.1 mph S8.2 kmh S 7.0 mph11.3 kmh 29.93 in1013.5 mb 0.00 in0.0 mm 0.00 in0.0 mm 0.00 in0.0 mm
03:47 AM 27.8°F-2.3°C 23.9°F-4.5°C 85% 4.2 mph SSE6.8 kmh SSE 7.0 mph11.3 kmh 29.93 in1013.5 mb 0.00 in0.0 mm 0.00 in0.0 mm 0.00 in0.0 mm
03:48 AM 27.8°F-2.3°C 23.9°F-4.5°C 85% 5.3 mph SSE8.5 kmh SSE 8.0 mph12.9 kmh 29.93 in1013.5 mb 0.00 in0.0 mm 0.00 in0.0 mm 0.00 in0.0 mm
03:49 AM 27.8°F-2.3°C 23.9°F-4.5°C 85% 3.5 mph SSE5.6 kmh SSE 8.0 mph12.9 kmh 29.93 in1013.5 mb 0.00 in0.0 mm 0.00 in0.0 mm 0.00 in0.0 mm
03:50 AM 27.8°F-2.3°C 23.9°F-4.5°C 85% 3.6 mph SSE5.8 kmh SSE 5.0 mph8.0 kmh 29.93 in1013.5 mb 0.00 in0.0 mm 0.00 in0.0 mm 0.00 in0.0 mm
03:51 AM 27.8°F-2.3°C 23.9°F-4.5°C 85% 6.4 mph S10.3 kmh S 10.0 mph16.1 kmh 29.93 in1013.5 mb 0.00 in0.0 mm 0.00 in0.0 mm 0.00 in0.0 mm
03:52 AM 27.8°F-2.3°C 23.9°F-4.5°C 85% 4.7 mph S7.6 kmh S 10.0 mph16.1 kmh 29.93 in1013.5 mb 0.00 in0.0 mm 0.00 in0.0 mm 0.00 in0.0 mm
03:53 AM 27.8°F-2.3°C 23.9°F-4.5°C 85% 5.9 mph S9.5 kmh S 9.0 mph14.5 kmh 29.93 in1013.5 mb 0.00 in0.0 mm 0.00 in0.0 mm 0.00 in0.0 mm
03:54 AM 27.8°F-2.3°C 23.9°F-4.5°C 85% 5.4 mph S8.7 kmh S 9.0 mph14.5 kmh 29.93 in1013.5 mb 0.00 in0.0 mm 0.00 in0.0 mm 0.00 in0.0 mm
03:55 AM 27.8°F-2.3°C 23.9°F-4.5°C 85% 5.0 mph S8.0 kmh S 7.0 mph11.3 kmh 29.93 in1013.5 mb 0.00 in0.0 mm 0.00 in0.0 mm 0.00 in0.0 mm
03:56 AM 27.9°F-2.3°C 24.0°F-4.4°C 85% 4.8 mph S7.7 kmh S 8.0 mph12.9 kmh 29.93 in1013.5 mb 0.00 in0.0 mm 0.00 in0.0 mm 0.00 in0.0 mm
03:57 AM 27.9°F-2.3°C 24.0°F-4.4°C 85% 5.2 mph SSE8.4 kmh SSE 8.0 mph12.9 kmh 29.93 in1013.5 mb 0.00 in0.0 mm 0.00 in0.0 mm 0.00 in0.0 mm
03:58 AM 27.9°F-2.3°C 23.7°F-4.6°C 84% 5.5 mph S8.9 kmh S 8.0 mph12.9 kmh 29.93 in1013.5 mb 0.00 in0.0 mm 0.00 in0.0 mm 0.00 in0.0 mm
03:59 AM 27.9°F-2.3°C 23.7°F-4.6°C 84% 4.8 mph S7.7 kmh S 8.0 mph12.9 kmh 29.93 in1013.5 mb 0.00 in0.0 mm 0.00 in0.0 mm 0.00 in0.0 mm
04:00 AM 28.0°F-2.2°C 23.8°F-4.6°C 84% 3.6 mph S5.8 kmh S 6.0 mph9.7 kmh 29.93 in1013.5 mb 0.00 in0.0 mm 0.00 in0.0 mm 0.00 in0.0 mm
04:01 AM 28.0°F-2.2°C 23.8°F-4.6°C 84% 3.7 mph S6.0 kmh S 6.0 mph9.7 kmh 29.93 in1013.5 mb 0.00 in0.0 mm 0.00 in0.0 mm 0.00 in0.0 mm
04:02 AM 27.9°F-2.3°C 23.7°F-4.6°C 84% 4.1 mph S6.6 kmh S 6.0 mph9.7 kmh 29.93 in1013.5 mb 0.00 in0.0 mm 0.00 in0.0 mm 0.00 in0.0 mm
04:03 AM 28.0°F-2.2°C 23.8°F-4.6°C 84% 5.3 mph S8.5 kmh S 7.0 mph11.3 kmh 29.93 in1013.5 mb 0.00 in0.0 mm 0.00 in0.0 mm 0.00 in0.0 mm
04:04 AM 28.0°F-2.2°C 23.8°F-4.6°C 84% 4.6 mph S7.4 kmh S 7.0 mph11.3 kmh 29.93 in1013.5 mb 0.00 in0.0 mm 0.00 in0.0 mm 0.00 in0.0 mm
04:05 AM 28.0°F-2.2°C 23.8°F-4.6°C 84% 4.1 mph SSE6.6 kmh SSE 6.0 mph9.7 kmh 29.93 in1013.5 mb 0.00 in0.0 mm 0.00 in0.0 mm 0.00 in0.0 mm
04:06 AM 28.1°F-2.2°C 23.9°F-4.5°C 84% 5.6 mph S9.0 kmh S 7.0 mph11.3 kmh 29.93 in1013.5 mb 0.00 in0.0 mm 0.00 in0.0 mm 0.00 in0.0 mm
04:07 AM 28.1°F-2.2°C 23.9°F-4.5°C 84% 4.8 mph S7.7 kmh S 7.0 mph11.3 kmh 29.93 in1013.5 mb 0.00 in0.0 mm 0.00 in0.0 mm 0.00 in0.0 mm
04:08 AM 28.1°F-2.2°C 23.9°F-4.5°C 84% 5.8 mph S9.3 kmh S 9.0 mph14.5 kmh 29.93 in1013.5 mb 0.00 in0.0 mm 0.00 in0.0 mm 0.00 in0.0 mm
04:09 AM 28.1°F-2.2°C 23.9°F-4.5°C 84% 7.4 mph S11.9 kmh S 9.0 mph14.5 kmh 29.93 in1013.5 mb 0.00 in0.0 mm 0.00 in0.0 mm 0.00 in0.0 mm
04:10 AM 28.1°F-2.2°C 23.9°F-4.5°C 84% 6.1 mph S9.8 kmh S 9.0 mph14.5 kmh 29.93 in1013.5 mb 0.00 in0.0 mm 0.00 in0.0 mm 0.00 in0.0 mm
04:11 AM 28.2°F-2.1°C 23.7°F-4.6°C 83% 6.6 mph S10.6 kmh S 9.0 mph14.5 kmh 29.93 in1013.5 mb 0.00 in0.0 mm 0.00 in0.0 mm 0.00 in0.0 mm
04:12 AM 28.2°F-2.1°C 23.7°F-4.6°C 83% 6.6 mph S10.6 kmh S 9.0 mph14.5 kmh 29.93 in1013.5 mb 0.00 in0.0 mm 0.00 in0.0 mm 0.00 in0.0 mm
04:13 AM 28.2°F-2.1°C 23.7°F-4.6°C 83% 6.0 mph S9.7 kmh S 9.0 mph14.5 kmh 29.93 in1013.5 mb 0.00 in0.0 mm 0.00 in0.0 mm 0.00 in0.0 mm
04:14 AM 28.3°F-2.1°C 23.8°F-4.6°C 83% 6.8 mph S10.9 kmh S 9.0 mph14.5 kmh 29.93 in1013.5 mb 0.00 in0.0 mm 0.00 in0.0 mm 0.00 in0.0 mm
04:15 AM 28.3°F-2.1°C 23.8°F-4.6°C 83% 7.5 mph S12.1 kmh S 9.0 mph14.5 kmh 29.93 in1013.5 mb 0.00 in0.0 mm 0.00 in0.0 mm 0.00 in0.0 mm
04:16 AM 28.3°F-2.1°C 23.5°F-4.7°C 82% 5.8 mph S9.3 kmh S 9.0 mph14.5 kmh 29.93 in1013.5 mb 0.00 in0.0 mm 0.00 in0.0 mm 0.00 in0.0 mm
04:17 AM 28.3°F-2.1°C 23.5°F-4.7°C 82% 5.2 mph S8.4 kmh S 8.0 mph12.9 kmh 29.93 in1013.5 mb 0.00 in0.0 mm 0.00 in0.0 mm 0.00 in0.0 mm
04:18 AM 28.3°F-2.1°C 23.5°F-4.7°C 82% 5.2 mph S8.4 kmh S 8.0 mph12.9 kmh 29.93 in1013.5 mb 0.00 in0.0 mm 0.00 in0.0 mm 0.00 in0.0 mm
04:19 AM 28.3°F-2.1°C 23.5°F-4.7°C 82% 6.8 mph S10.9 kmh S 9.0 mph14.5 kmh 29.93 in1013.5 mb 0.00 in0.0 mm 0.00 in0.0 mm 0.00 in0.0 mm
04:20 AM 28.3°F-2.1°C 23.5°F-4.7°C 82% 7.5 mph S12.1 kmh S 10.0 mph16.1 kmh 29.93 in1013.5 mb 0.00 in0.0 mm 0.00 in0.0 mm 0.00 in0.0 mm
04:21 AM 28.3°F-2.1°C 23.5°F-4.7°C 82% 5.9 mph S9.5 kmh S 10.0 mph16.1 kmh 29.93 in1013.5 mb 0.00 in0.0 mm 0.00 in0.0 mm 0.00 in0.0 mm
04:22 AM 28.3°F-2.1°C 23.5°F-4.7°C 82% 7.5 mph S12.1 kmh S 9.0 mph14.5 kmh 29.93 in1013.5 mb 0.00 in0.0 mm 0.00 in0.0 mm 0.00 in0.0 mm
04:23 AM 28.2°F-2.1°C 23.4°F-4.8°C 82% 7.1 mph S11.4 kmh S 10.0 mph16.1 kmh 29.93 in1013.5 mb 0.00 in0.0 mm 0.00 in0.0 mm 0.00 in0.0 mm
04:24 AM 28.3°F-2.1°C 23.5°F-4.7°C 82% 6.6 mph S10.6 kmh S 10.0 mph16.1 kmh 29.93 in1013.5 mb 0.00 in0.0 mm 0.00 in0.0 mm 0.00 in0.0 mm
04:25 AM 28.3°F-2.1°C 23.5°F-4.7°C 82% 6.8 mph S10.9 kmh S 10.0 mph16.1 kmh 29.93 in1013.5 mb 0.00 in0.0 mm 0.00 in0.0 mm 0.00 in0.0 mm
04:26 AM 28.2°F-2.1°C 23.4°F-4.8°C 82% 7.2 mph S11.6 kmh S 9.0 mph14.5 kmh 29.93 in1013.5 mb 0.00 in0.0 mm 0.00 in0.0 mm 0.00 in0.0 mm
04:27 AM 28.2°F-2.1°C 23.4°F-4.8°C 82% 5.8 mph S9.3 kmh S 10.0 mph16.1 kmh 29.93 in1013.5 mb 0.00 in0.0 mm 0.00 in0.0 mm 0.00 in0.0 mm
04:28 AM 28.3°F-2.1°C 23.5°F-4.7°C 82% 5.0 mph S8.0 kmh S 9.0 mph14.5 kmh 29.93 in1013.5 mb 0.00 in0.0 mm 0.00 in0.0 mm 0.00 in0.0 mm
04:29 AM 28.2°F-2.1°C 23.1°F-4.9°C 81% 4.7 mph S7.6 kmh S 8.0 mph12.9 kmh 29.93 in1013.5 mb 0.00 in0.0 mm 0.00 in0.0 mm 0.00 in0.0 mm
04:30 AM 28.2°F-2.1°C 23.1°F-4.9°C 81% 4.7 mph S7.6 kmh S 9.0 mph14.5 kmh 29.93 in1013.5 mb 0.00 in0.0 mm 0.00 in0.0 mm 0.00 in0.0 mm
04:31 AM 28.2°F-2.1°C 23.4°F-4.8°C 82% 6.3 mph S10.1 kmh S 10.0 mph16.1 kmh 29.93 in1013.5 mb 0.00 in0.0 mm 0.00 in0.0 mm 0.00 in0.0 mm
04:32 AM 28.1°F-2.2°C 23.3°F-4.8°C 82% 5.5 mph S8.9 kmh S 10.0 mph16.1 kmh 29.93 in1013.5 mb 0.00 in0.0 mm 0.00 in0.0 mm 0.00 in0.0 mm
04:33 AM 28.2°F-2.1°C 23.4°F-4.8°C 82% 7.8 mph S12.6 kmh S 10.0 mph16.1 kmh 29.93 in1013.5 mb 0.00 in0.0 mm 0.00 in0.0 mm 0.00 in0.0 mm
04:34 AM 28.2°F-2.1°C 23.4°F-4.8°C 82% 8.2 mph S13.2 kmh S 12.0 mph19.3 kmh 29.93 in1013.5 mb 0.00 in0.0 mm 0.00 in0.0 mm 0.00 in0.0 mm
04:35 AM 28.2°F-2.1°C 23.1°F-4.9°C 81% 7.5 mph S12.1 kmh S 12.0 mph19.3 kmh 29.93 in1013.5 mb 0.00 in0.0 mm 0.00 in0.0 mm 0.00 in0.0 mm
04:36 AM 28.2°F-2.1°C 23.1°F-4.9°C 81% 6.7 mph S10.8 kmh S 12.0 mph19.3 kmh 29.93 in1013.5 mb 0.00 in0.0 mm 0.00 in0.0 mm 0.00 in0.0 mm
04:37 AM 28.2°F-2.1°C 23.1°F-4.9°C 81% 7.1 mph S11.4 kmh S 11.0 mph17.7 kmh 29.93 in1013.5 mb 0.00 in0.0 mm 0.00 in0.0 mm 0.00 in0.0 mm
04:38 AM 28.2°F-2.1°C 23.1°F-4.9°C 81% 7.8 mph S12.6 kmh S 11.0 mph17.7 kmh 29.93 in1013.5 mb 0.00 in0.0 mm 0.00 in0.0 mm 0.00 in0.0 mm
04:39 AM 28.3°F-2.1°C 23.2°F-4.9°C 81% 5.8 mph S9.3 kmh S 11.0 mph17.7 kmh 29.93 in1013.5 mb 0.00 in0.0 mm 0.00 in0.0 mm 0.00 in0.0 mm
04:40 AM 28.3°F-2.1°C 23.2°F-4.9°C 81% 6.3 mph S10.1 kmh S 8.0 mph12.9 kmh 29.93 in1013.5 mb 0.00 in0.0 mm 0.00 in0.0 mm 0.00 in0.0 mm
04:41 AM 28.4°F-2.0°C 23.3°F-4.8°C 81% 7.5 mph S12.1 kmh S 12.0 mph19.3 kmh 29.93 in1013.5 mb 0.00 in0.0 mm 0.00 in0.0 mm 0.00 in0.0 mm
04:42 AM 28.4°F-2.0°C 23.3°F-4.8°C 81% 6.3 mph S10.1 kmh S 12.0 mph19.3 kmh 29.93 in1013.5 mb 0.00 in0.0 mm 0.00 in0.0 mm 0.00 in0.0 mm
04:43 AM 28.4°F-2.0°C 23.3°F-4.8°C 81% 6.3 mph S10.1 kmh S 10.0 mph16.1 kmh 29.93 in1013.5 mb 0.00 in0.0 mm 0.00 in0.0 mm 0.00 in0.0 mm
04:44 AM 28.4°F-2.0°C 23.3°F-4.8°C 81% 7.2 mph S11.6 kmh S 11.0 mph17.7 kmh 29.93 in1013.5 mb 0.00 in0.0 mm 0.00 in0.0 mm 0.00 in0.0 mm
04:45 AM 28.4°F-2.0°C 23.3°F-4.8°C 81% 8.6 mph S13.8 kmh S 11.0 mph17.7 kmh 29.93 in1013.5 mb 0.00 in0.0 mm 0.00 in0.0 mm 0.00 in0.0 mm
04:46 AM 28.5°F-1.9°C 23.4°F-4.8°C 81% 7.8 mph S12.6 kmh S 11.0 mph17.7 kmh 29.93 in1013.5 mb 0.00 in0.0 mm 0.00 in0.0 mm 0.00 in0.0 mm
04:47 AM 28.5°F-1.9°C 23.4°F-4.8°C 81% 6.0 mph S9.7 kmh S 11.0 mph17.7 kmh 29.93 in1013.5 mb 0.00 in0.0 mm 0.00 in0.0 mm 0.00 in0.0 mm
04:48 AM 28.5°F-1.9°C 23.4°F-4.8°C 81% 6.6 mph S10.6 kmh S 9.0 mph14.5 kmh 29.93 in1013.5 mb 0.00 in0.0 mm 0.00 in0.0 mm 0.00 in0.0 mm
04:49 AM 28.5°F-1.9°C 23.4°F-4.8°C 81% 5.4 mph S8.7 kmh S 8.0 mph12.9 kmh 29.93 in1013.5 mb 0.00 in0.0 mm 0.00 in0.0 mm 0.00 in0.0 mm
04:50 AM 28.5°F-1.9°C 23.4°F-4.8°C 81% 5.8 mph S9.3 kmh S 8.0 mph12.9 kmh 29.93 in1013.5 mb 0.00 in0.0 mm 0.00 in0.0 mm 0.00 in0.0 mm
04:51 AM 28.5°F-1.9°C 23.4°F-4.8°C 81% 5.3 mph S8.5 kmh S 8.0 mph12.9 kmh 29.93 in1013.5 mb 0.00 in0.0 mm 0.00 in0.0 mm 0.00 in0.0 mm
04:52 AM 28.5°F-1.9°C 23.4°F-4.8°C 81% 6.1 mph SSW9.8 kmh SSW 10.0 mph16.1 kmh 29.93 in1013.5 mb 0.00 in0.0 mm 0.00 in0.0 mm 0.00 in0.0 mm
04:53 AM 28.5°F-1.9°C 23.4°F-4.8°C 81% 6.2 mph SSW10.0 kmh SSW 10.0 mph16.1 kmh 29.93 in1013.5 mb 0.00 in0.0 mm 0.00 in0.0 mm 0.00 in0.0 mm
04:54 AM 28.5°F-1.9°C 23.4°F-4.8°C 81% 6.2 mph S10.0 kmh S 9.0 mph14.5 kmh 29.93 in1013.5 mb 0.00 in0.0 mm 0.00 in0.0 mm 0.00 in0.0 mm
04:55 AM 28.5°F-1.9°C 23.4°F-4.8°C 81% 5.5 mph SSW8.9 kmh SSW 9.0 mph14.5 kmh 29.93 in1013.5 mb 0.00 in0.0 mm 0.00 in0.0 mm 0.00 in0.0 mm
04:56 AM 28.6°F-1.9°C 23.5°F-4.7°C 81% 6.7 mph S10.8 kmh S 9.0 mph14.5 kmh 29.93 in1013.5 mb 0.00 in0.0 mm 0.00 in0.0 mm 0.00 in0.0 mm
04:57 AM 28.6°F-1.9°C 23.5°F-4.7°C 81% 7.0 mph S11.3 kmh S 9.0 mph14.5 kmh 29.93 in1013.5 mb 0.00 in0.0 mm 0.00 in0.0 mm 0.00 in0.0 mm
04:58 AM 28.6°F-1.9°C 23.5°F-4.7°C 81% 6.6 mph S10.6 kmh S 11.0 mph17.7 kmh 29.93 in1013.5 mb 0.00 in0.0 mm 0.00 in0.0 mm 0.00 in0.0 mm
04:59 AM 28.6°F-1.9°C 23.5°F-4.7°C 81% 5.6 mph S9.0 kmh S 11.0 mph17.7 kmh 29.93 in1013.5 mb 0.00 in0.0 mm 0.00 in0.0 mm 0.00 in0.0 mm
05:00 AM 28.7°F-1.8°C 23.6°F-4.7°C 81% 5.4 mph S8.7 kmh S 8.0 mph12.9 kmh 29.93 in1013.5 mb 0.00 in0.0 mm 0.00 in0.0 mm 0.00 in0.0 mm
05:01 AM 28.7°F-1.8°C 23.6°F-4.7°C 81% 7.0 mph S11.3 kmh S 9.0 mph14.5 kmh 29.93 in1013.5 mb 0.00 in0.0 mm 0.00 in0.0 mm 0.00 in0.0 mm
05:02 AM 28.7°F-1.8°C 23.6°F-4.7°C 81% 7.3 mph S11.7 kmh S 10.0 mph16.1 kmh 29.93 in1013.5 mb 0.00 in0.0 mm 0.00 in0.0 mm 0.00 in0.0 mm
05:03 AM 28.7°F-1.8°C 23.6°F-4.7°C 81% 6.9 mph S11.1 kmh S 10.0 mph16.1 kmh 29.93 in1013.5 mb 0.00 in0.0 mm 0.00 in0.0 mm 0.00 in0.0 mm
05:04 AM 28.8°F-1.8°C 23.7°F-4.6°C 81% 5.7 mph S9.2 kmh S 10.0 mph16.1 kmh 29.93 in1013.5 mb 0.00 in0.0 mm 0.00 in0.0 mm 0.00 in0.0 mm
05:05 AM 28.8°F-1.8°C 23.7°F-4.6°C 81% 6.6 mph SSW10.6 kmh SSW 9.0 mph14.5 kmh 29.93 in1013.5 mb 0.00 in0.0 mm 0.00 in0.0 mm 0.00 in0.0 mm
05:06 AM 28.8°F-1.8°C 23.7°F-4.6°C 81% 6.6 mph S10.6 kmh S 10.0 mph16.1 kmh 29.93 in1013.5 mb 0.00 in0.0 mm 0.00 in0.0 mm 0.00 in0.0 mm
05:07 AM 28.9°F-1.7°C 23.8°F-4.6°C 81% 7.5 mph SSW12.1 kmh SSW 10.0 mph16.1 kmh 29.93 in1013.5 mb 0.00 in0.0 mm 0.00 in0.0 mm 0.00 in0.0 mm
05:08 AM 28.9°F-1.7°C 23.8°F-4.6°C 81% 5.8 mph S9.3 kmh S 9.0 mph14.5 kmh 29.93 in1013.5 mb 0.00 in0.0 mm 0.00 in0.0 mm 0.00 in0.0 mm
05:09 AM 28.9°F-1.7°C 23.8°F-4.6°C 81% 7.4 mph SSW11.9 kmh SSW 10.0 mph16.1 kmh 29.93 in1013.5 mb 0.00 in0.0 mm 0.00 in0.0 mm 0.00 in0.0 mm
05:10 AM 28.9°F-1.7°C 23.8°F-4.6°C 81% 7.5 mph SSW12.1 kmh SSW 10.0 mph16.1 kmh 29.93 in1013.5 mb 0.00 in0.0 mm 0.00 in0.0 mm 0.00 in0.0 mm
05:11 AM 29.0°F-1.7°C 23.9°F-4.5°C 81% 6.8 mph S10.9 kmh S 10.0 mph16.1 kmh 29.93 in1013.5 mb 0.00 in0.0 mm 0.00 in0.0 mm 0.00 in0.0 mm
05:12 AM 29.0°F-1.7°C 23.9°F-4.5°C 81% 7.7 mph SSW12.4 kmh SSW 11.0 mph17.7 kmh 29.93 in1013.5 mb 0.00 in0.0 mm 0.00 in0.0 mm 0.00 in0.0 mm
05:13 AM 29.0°F-1.7°C 23.9°F-4.5°C 81% 7.5 mph SW12.1 kmh SW 11.0 mph17.7 kmh 29.93 in1013.5 mb 0.00 in0.0 mm 0.00 in0.0 mm 0.00 in0.0 mm
05:14 AM 29.1°F-1.6°C 24.0°F-4.4°C 81% 5.9 mph SSW9.5 kmh SSW 10.0 mph16.1 kmh 29.93 in1013.5 mb 0.00 in0.0 mm 0.00 in0.0 mm 0.00 in0.0 mm
05:15 AM 29.0°F-1.7°C 23.9°F-4.5°C 81% 7.5 mph SSW12.1 kmh SSW 9.0 mph14.5 kmh 29.94 in1013.9 mb 0.00 in0.0 mm 0.00 in0.0 mm 0.00 in0.0 mm
05:16 AM 29.1°F-1.6°C 24.0°F-4.4°C 81% 7.4 mph SW11.9 kmh SW 10.0 mph16.1 kmh 29.93 in1013.5 mb 0.00 in0.0 mm 0.00 in0.0 mm 0.00 in0.0 mm
05:17 AM 29.0°F-1.7°C 23.9°F-4.5°C 81% 7.3 mph SSW11.7 kmh SSW 10.0 mph16.1 kmh 29.93 in1013.5 mb 0.00 in0.0 mm 0.00 in0.0 mm 0.00 in0.0 mm
05:18 AM 29.1°F-1.6°C 24.0°F-4.4°C 81% 7.6 mph SSW12.2 kmh SSW 10.0 mph16.1 kmh 29.93 in1013.5 mb 0.00 in0.0 mm 0.00 in0.0 mm 0.00 in0.0 mm
05:19 AM 29.0°F-1.7°C 23.9°F-4.5°C 81% 8.2 mph SW13.2 kmh SW 10.0 mph16.1 kmh 29.93 in1013.5 mb 0.00 in0.0 mm 0.00 in0.0 mm 0.00 in0.0 mm
05:20 AM 29.0°F-1.7°C 23.9°F-4.5°C 81% 6.1 mph SSW9.8 kmh SSW 10.0 mph16.1 kmh 29.93 in1013.5 mb 0.00 in0.0 mm 0.00 in0.0 mm 0.00 in0.0 mm
05:21 AM 29.0°F-1.7°C 23.9°F-4.5°C 81% 6.2 mph SSW10.0 kmh SSW 8.0 mph12.9 kmh 29.93 in1013.5 mb 0.00 in0.0 mm 0.00 in0.0 mm 0.00 in0.0 mm
05:22 AM 29.0°F-1.7°C 23.9°F-4.5°C 81% 9.3 mph SSW15.0 kmh SSW 14.0 mph22.5 kmh 29.93 in1013.5 mb 0.00 in0.0 mm 0.00 in0.0 mm 0.00 in0.0 mm
05:23 AM 29.0°F-1.7°C 24.2°F-4.3°C 82% 8.5 mph SW13.7 kmh SW 14.0 mph22.5 kmh 29.93 in1013.5 mb 0.00 in0.0 mm 0.00 in0.0 mm 0.00 in0.0 mm
05:24 AM 29.0°F-1.7°C 24.2°F-4.3°C 82% 7.8 mph SSW12.6 kmh SSW 12.0 mph19.3 kmh 29.93 in1013.5 mb 0.00 in0.0 mm 0.00 in0.0 mm 0.00 in0.0 mm
05:25 AM 28.9°F-1.7°C 24.1°F-4.4°C 82% 7.8 mph SSW12.6 kmh SSW 13.0 mph20.9 kmh 29.93 in1013.5 mb 0.00 in0.0 mm 0.00 in0.0 mm 0.00 in0.0 mm
05:26 AM 28.9°F-1.7°C 24.1°F-4.4°C 82% 9.1 mph SSW14.6 kmh SSW 13.0 mph20.9 kmh 29.93 in1013.5 mb 0.00 in0.0 mm 0.00 in0.0 mm 0.00 in0.0 mm
05:27 AM 28.9°F-1.7°C 24.1°F-4.4°C 82% 7.7 mph SSW12.4 kmh SSW 13.0 mph20.9 kmh 29.93 in1013.5 mb 0.00 in0.0 mm 0.00 in0.0 mm 0.00 in0.0 mm
05:28 AM 28.9°F-1.7°C 24.1°F-4.4°C 82% 8.3 mph SSW13.4 kmh SSW 10.0 mph16.1 kmh 29.93 in1013.5 mb 0.00 in0.0 mm 0.00 in0.0 mm 0.00 in0.0 mm
05:29 AM 28.8°F-1.8°C 24.3°F-4.3°C 83% 6.9 mph SSW11.1 kmh SSW 10.0 mph16.1 kmh 29.93 in1013.5 mb 0.00 in0.0 mm 0.00 in0.0 mm 0.00 in0.0 mm
05:30 AM 28.8°F-1.8°C 24.3°F-4.3°C 83% 9.1 mph SSW14.6 kmh SSW 11.0 mph17.7 kmh 29.93 in1013.5 mb 0.00 in0.0 mm 0.00 in0.0 mm 0.00 in0.0 mm
05:31 AM 28.7°F-1.8°C 24.2°F-4.3°C 83% 7.8 mph S12.6 kmh S 11.0 mph17.7 kmh 29.93 in1013.5 mb 0.00 in0.0 mm 0.00 in0.0 mm 0.00 in0.0 mm
05:32 AM 28.7°F-1.8°C 24.2°F-4.3°C 83% 7.7 mph SSW12.4 kmh SSW 11.0 mph17.7 kmh 29.93 in1013.5 mb 0.00 in0.0 mm 0.00 in0.0 mm 0.00 in0.0 mm
05:33 AM 28.7°F-1.8°C 24.2°F-4.3°C 83% 8.3 mph SSW13.4 kmh SSW 11.0 mph17.7 kmh 29.93 in1013.5 mb 0.00 in0.0 mm 0.00 in0.0 mm 0.00 in0.0 mm
05:34 AM 28.6°F-1.9°C 24.1°F-4.4°C 83% 6.8 mph SSW10.9 kmh SSW 11.0 mph17.7 kmh 29.93 in1013.5 mb 0.00 in0.0 mm 0.00 in0.0 mm 0.00 in0.0 mm
05:35 AM 28.6°F-1.9°C 24.1°F-4.4°C 83% 7.2 mph S11.6 kmh S 11.0 mph17.7 kmh 29.93 in1013.5 mb 0.00 in0.0 mm 0.00 in0.0 mm 0.00 in0.0 mm
05:36 AM 28.5°F-1.9°C 24.0°F-4.4°C 83% 8.4 mph SSW13.5 kmh SSW 11.0 mph17.7 kmh 29.93 in1013.5 mb 0.00 in0.0 mm 0.00 in0.0 mm 0.00 in0.0 mm
05:37 AM 28.5°F-1.9°C 24.0°F-4.4°C 83% 7.5 mph SSW12.1 kmh SSW 11.0 mph17.7 kmh 29.93 in1013.5 mb 0.00 in0.0 mm 0.00 in0.0 mm 0.00 in0.0 mm
05:38 AM 28.6°F-1.9°C 24.4°F-4.2°C 84% 7.4 mph S11.9 kmh S 10.0 mph16.1 kmh 29.93 in1013.5 mb 0.00 in0.0 mm 0.00 in0.0 mm 0.00 in0.0 mm
05:39 AM 28.5°F-1.9°C 24.3°F-4.3°C 84% 8.1 mph S13.0 kmh S 10.0 mph16.1 kmh 29.93 in1013.5 mb 0.00 in0.0 mm 0.00 in0.0 mm 0.00 in0.0 mm
05:40 AM 28.4°F-2.0°C 24.2°F-4.3°C 84% 7.0 mph S11.3 kmh S 9.0 mph14.5 kmh 29.93 in1013.5 mb 0.00 in0.0 mm 0.00 in0.0 mm 0.00 in0.0 mm
05:41 AM 28.4°F-2.0°C 24.2°F-4.3°C 84% 5.8 mph S9.3 kmh S 9.0 mph14.5 kmh 29.93 in1013.5 mb 0.00 in0.0 mm 0.00 in0.0 mm 0.00 in0.0 mm
05:42 AM 28.4°F-2.0°C 24.2°F-4.3°C 84% 6.6 mph S10.6 kmh S 9.0 mph14.5 kmh 29.93 in1013.5 mb 0.00 in0.0 mm 0.00 in0.0 mm 0.00 in0.0 mm
05:43 AM 28.3°F-2.1°C 24.1°F-4.4°C 84% 6.3 mph S10.1 kmh S 9.0 mph14.5 kmh 29.93 in1013.5 mb 0.00 in0.0 mm 0.00 in0.0 mm 0.00 in0.0 mm
05:44 AM 28.3°F-2.1°C 24.1°F-4.4°C 84% 5.4 mph S8.7 kmh S 8.0 mph12.9 kmh 29.93 in1013.5 mb 0.00 in0.0 mm 0.00 in0.0 mm 0.00 in0.0 mm
05:45 AM 28.3°F-2.1°C 24.1°F-4.4°C 84% 6.1 mph S9.8 kmh S 8.0 mph12.9 kmh 29.93 in1013.5 mb 0.00 in0.0 mm 0.00 in0.0 mm 0.00 in0.0 mm
05:46 AM 28.2°F-2.1°C 24.0°F-4.4°C 84% 4.7 mph S7.6 kmh S 8.0 mph12.9 kmh 29.93 in1013.5 mb 0.00 in0.0 mm 0.00 in0.0 mm 0.00 in0.0 mm
05:47 AM 28.2°F-2.1°C 24.3°F-4.3°C 85% 7.4 mph S11.9 kmh S 9.0 mph14.5 kmh 29.93 in1013.5 mb 0.00 in0.0 mm 0.00 in0.0 mm 0.00 in0.0 mm
05:48 AM 28.1°F-2.2°C 24.2°F-4.3°C 85% 6.1 mph S9.8 kmh S 9.0 mph14.5 kmh 29.93 in1013.5 mb 0.00 in0.0 mm 0.00 in0.0 mm 0.00 in0.0 mm
05:49 AM 28.1°F-2.2°C 24.2°F-4.3°C 85% 4.6 mph S7.4 kmh S 8.0 mph12.9 kmh 29.93 in1013.5 mb 0.00 in0.0 mm 0.00 in0.0 mm 0.00 in0.0 mm
05:50 AM 28.1°F-2.2°C 24.2°F-4.3°C 85% 4.6 mph SSW7.4 kmh SSW 7.0 mph11.3 kmh 29.93 in1013.5 mb 0.00 in0.0 mm 0.00 in0.0 mm 0.00 in0.0 mm
05:51 AM 28.0°F-2.2°C 24.1°F-4.4°C 85% 4.6 mph SSW7.4 kmh SSW 6.0 mph9.7 kmh 29.93 in1013.5 mb 0.00 in0.0 mm 0.00 in0.0 mm 0.00 in0.0 mm
05:52 AM 28.0°F-2.2°C 24.1°F-4.4°C 85% 5.5 mph SSW8.9 kmh SSW 8.0 mph12.9 kmh 29.93 in1013.5 mb 0.00 in0.0 mm 0.00 in0.0 mm 0.00 in0.0 mm
05:53 AM 28.0°F-2.2°C 24.1°F-4.4°C 85% 5.6 mph SSW9.0 kmh SSW 9.0 mph14.5 kmh 29.93 in1013.5 mb 0.00 in0.0 mm 0.00 in0.0 mm 0.00 in0.0 mm
05:54 AM 28.0°F-2.2°C 24.1°F-4.4°C 85% 5.7 mph S9.2 kmh S 9.0 mph14.5 kmh 29.93 in1013.5 mb 0.00 in0.0 mm 0.00 in0.0 mm 0.00 in0.0 mm
05:55 AM 28.0°F-2.2°C 24.1°F-4.4°C 85% 3.8 mph SSW6.1 kmh SSW 9.0 mph14.5 kmh 29.93 in1013.5 mb 0.00 in0.0 mm 0.00 in0.0 mm 0.00 in0.0 mm
05:56 AM 28.0°F-2.2°C 24.1°F-4.4°C 85% 3.6 mph SSW5.8 kmh SSW 6.0 mph9.7 kmh 29.93 in1013.5 mb 0.00 in0.0 mm 0.00 in0.0 mm 0.00 in0.0 mm
05:57 AM 28.1°F-2.2°C 24.2°F-4.3°C 85% 2.9 mph SSW4.7 kmh SSW 6.0 mph9.7 kmh 29.93 in1013.5 mb 0.00 in0.0 mm 0.00 in0.0 mm 0.00 in0.0 mm
05:58 AM 28.1°F-2.2°C 24.2°F-4.3°C 85% 4.9 mph S7.9 kmh S 6.0 mph9.7 kmh 29.93 in1013.5 mb 0.00 in0.0 mm 0.00 in0.0 mm 0.00 in0.0 mm
05:59 AM 28.1°F-2.2°C 24.2°F-4.3°C 85% 4.9 mph SSW7.9 kmh SSW 6.0 mph9.7 kmh 29.93 in1013.5 mb 0.00 in0.0 mm 0.00 in0.0 mm 0.00 in0.0 mm
06:00 AM 28.1°F-2.2°C 24.2°F-4.3°C 85% 3.8 mph SSW6.1 kmh SSW 6.0 mph9.7 kmh 29.93 in1013.5 mb 0.00 in0.0 mm 0.00 in0.0 mm 0.00 in0.0 mm
06:01 AM 28.2°F-2.1°C 24.3°F-4.3°C 85% 3.8 mph SSW6.1 kmh SSW 6.0 mph9.7 kmh 29.93 in1013.5 mb 0.00 in0.0 mm 0.00 in0.0 mm 0.00 in0.0 mm
06:02 AM 28.2°F-2.1°C 24.3°F-4.3°C 85% 4.5 mph S7.2 kmh S 7.0 mph11.3 kmh 29.93 in1013.5 mb 0.00 in0.0 mm 0.00 in0.0 mm 0.00 in0.0 mm
06:03 AM 28.3°F-2.1°C 24.7°F-4.1°C 86% 4.8 mph SSW7.7 kmh SSW 7.0 mph11.3 kmh 29.93 in1013.5 mb 0.00 in0.0 mm 0.00 in0.0 mm 0.00 in0.0 mm
06:04 AM 28.3°F-2.1°C 24.7°F-4.1°C 86% 3.1 mph SSW5.0 kmh SSW 6.0 mph9.7 kmh 29.93 in1013.5 mb 0.00 in0.0 mm 0.00 in0.0 mm 0.00 in0.0 mm
06:05 AM 28.3°F-2.1°C 24.7°F-4.1°C 86% 5.4 mph S8.7 kmh S 9.0 mph14.5 kmh 29.93 in1013.5 mb 0.00 in0.0 mm 0.00 in0.0 mm 0.00 in0.0 mm
06:06 AM 28.4°F-2.0°C 24.8°F-4.0°C 86% 4.3 mph S6.9 kmh S 9.0 mph14.5 kmh 29.93 in1013.5 mb 0.00 in0.0 mm 0.00 in0.0 mm 0.00 in0.0 mm
06:07 AM 28.4°F-2.0°C 24.8°F-4.0°C 86% 4.7 mph S7.6 kmh S 6.0 mph9.7 kmh 29.93 in1013.5 mb 0.00 in0.0 mm 0.00 in0.0 mm 0.00 in0.0 mm
06:08 AM 28.4°F-2.0°C 24.8°F-4.0°C 86% 3.3 mph S5.3 kmh S 6.0 mph9.7 kmh 29.93 in1013.5 mb 0.00 in0.0 mm 0.00 in0.0 mm 0.00 in0.0 mm
06:09 AM 28.4°F-2.0°C 24.8°F-4.0°C 86% 3.6 mph S5.8 kmh S 5.0 mph8.0 kmh 29.93 in1013.5 mb 0.00 in0.0 mm 0.00 in0.0 mm 0.00 in0.0 mm
06:10 AM 28.5°F-1.9°C 24.6°F-4.1°C 85% 3.3 mph SSW5.3 kmh SSW 5.0 mph8.0 kmh 29.93 in1013.5 mb 0.00 in0.0 mm 0.00 in0.0 mm 0.00 in0.0 mm
06:11 AM 28.5°F-1.9°C 24.6°F-4.1°C 85% 2.7 mph SSW4.3 kmh SSW 4.0 mph6.4 kmh 29.93 in1013.5 mb 0.00 in0.0 mm 0.00 in0.0 mm 0.00 in0.0 mm
06:12 AM 28.5°F-1.9°C 24.6°F-4.1°C 85% 4.3 mph SSW6.9 kmh SSW 6.0 mph9.7 kmh 29.93 in1013.5 mb 0.00 in0.0 mm 0.00 in0.0 mm 0.00 in0.0 mm
06:13 AM 28.5°F-1.9°C 24.9°F-3.9°C 86% 3.7 mph SSW6.0 kmh SSW 6.0 mph9.7 kmh 29.93 in1013.5 mb 0.00 in0.0 mm 0.00 in0.0 mm 0.00 in0.0 mm
06:14 AM 28.6°F-1.9°C 25.0°F-3.9°C 86% 5.0 mph SSW8.0 kmh SSW 8.0 mph12.9 kmh 29.93 in1013.5 mb 0.00 in0.0 mm 0.00 in0.0 mm 0.00 in0.0 mm
06:15 AM 28.6°F-1.9°C 25.0°F-3.9°C 86% 5.7 mph SSW9.2 kmh SSW 8.0 mph12.9 kmh 29.93 in1013.5 mb 0.00 in0.0 mm 0.00 in0.0 mm 0.00 in0.0 mm
06:16 AM 28.7°F-1.8°C 25.1°F-3.8°C 86% 5.5 mph SSW8.9 kmh SSW 8.0 mph12.9 kmh 29.93 in1013.5 mb 0.00 in0.0 mm 0.00 in0.0 mm 0.00 in0.0 mm
06:17 AM 28.6°F-1.9°C 25.0°F-3.9°C 86% 4.3 mph SSW6.9 kmh SSW 7.0 mph11.3 kmh 29.93 in1013.5 mb 0.00 in0.0 mm 0.00 in0.0 mm 0.00 in0.0 mm
06:18 AM 28.7°F-1.8°C 25.1°F-3.8°C 86% 4.8 mph SSW7.7 kmh SSW 7.0 mph11.3 kmh 29.93 in1013.5 mb 0.00 in0.0 mm 0.00 in0.0 mm 0.00 in0.0 mm
06:19 AM 28.7°F-1.8°C 25.1°F-3.8°C 86% 4.4 mph SSW7.1 kmh SSW 7.0 mph11.3 kmh 29.93 in1013.5 mb 0.00 in0.0 mm 0.00 in0.0 mm 0.00 in0.0 mm
06:20 AM 28.7°F-1.8°C 25.1°F-3.8°C 86% 5.8 mph SSW9.3 kmh SSW 8.0 mph12.9 kmh 29.93 in1013.5 mb 0.00 in0.0 mm 0.00 in0.0 mm 0.00 in0.0 mm
06:21 AM 28.7°F-1.8°C 25.1°F-3.8°C 86% 5.7 mph SSW9.2 kmh SSW 8.0 mph12.9 kmh 29.93 in1013.5 mb 0.00 in0.0 mm 0.00 in0.0 mm 0.00 in0.0 mm
06:22 AM 28.8°F-1.8°C 25.2°F-3.8°C 86% 6.3 mph SSW10.1 kmh SSW 8.0 mph12.9 kmh 29.93 in1013.5 mb 0.00 in0.0 mm 0.00 in0.0 mm 0.00 in0.0 mm
06:23 AM 28.8°F-1.8°C 25.2°F-3.8°C 86% 5.6 mph SSW9.0 kmh SSW 8.0 mph12.9 kmh 29.93 in1013.5 mb 0.00 in0.0 mm 0.00 in0.0 mm 0.00 in0.0 mm
06:24 AM 28.9°F-1.7°C 25.2°F-3.8°C 86% 7.2 mph SSW11.6 kmh SSW 8.0 mph12.9 kmh 29.93 in1013.5 mb 0.00 in0.0 mm 0.00 in0.0 mm 0.00 in0.0 mm
06:25 AM 28.9°F-1.7°C 25.2°F-3.8°C 86% 5.4 mph SW8.7 kmh SW 8.0 mph12.9 kmh 29.93 in1013.5 mb 0.00 in0.0 mm 0.00 in0.0 mm 0.00 in0.0 mm
06:26 AM 28.9°F-1.7°C 25.2°F-3.8°C 86% 6.3 mph SW10.1 kmh SW 9.0 mph14.5 kmh 29.93 in1013.5 mb 0.00 in0.0 mm 0.00 in0.0 mm 0.00 in0.0 mm
06:27 AM 29.0°F-1.7°C 25.3°F-3.7°C 86% 5.4 mph SSW8.7 kmh SSW 9.0 mph14.5 kmh 29.93 in1013.5 mb 0.00 in0.0 mm 0.00 in0.0 mm 0.00 in0.0 mm
06:28 AM 29.0°F-1.7°C 25.3°F-3.7°C 86% 6.1 mph SSW9.8 kmh SSW 7.0 mph11.3 kmh 29.93 in1013.5 mb 0.00 in0.0 mm 0.00 in0.0 mm 0.00 in0.0 mm
06:29 AM 29.0°F-1.7°C 25.3°F-3.7°C 86% 5.0 mph SW8.0 kmh SW 7.0 mph11.3 kmh 29.93 in1013.5 mb 0.00 in0.0 mm 0.00 in0.0 mm 0.00 in0.0 mm
06:30 AM 29.1°F-1.6°C 25.4°F-3.7°C 86% 4.5 mph SW7.2 kmh SW 7.0 mph11.3 kmh 29.93 in1013.5 mb 0.00 in0.0 mm 0.00 in0.0 mm 0.00 in0.0 mm
06:31 AM 29.1°F-1.6°C 25.4°F-3.7°C 86% 4.4 mph SW7.1 kmh SW 6.0 mph9.7 kmh 29.93 in1013.5 mb 0.00 in0.0 mm 0.00 in0.0 mm 0.00 in0.0 mm
06:32 AM 29.1°F-1.6°C 25.4°F-3.7°C 86% 4.9 mph SW7.9 kmh SW 8.0 mph12.9 kmh 29.93 in1013.5 mb 0.00 in0.0 mm 0.00 in0.0 mm 0.00 in0.0 mm
06:33 AM 29.2°F-1.6°C 25.5°F-3.6°C 86% 5.1 mph SW8.2 kmh SW 8.0 mph12.9 kmh 29.93 in1013.5 mb 0.00 in0.0 mm 0.00 in0.0 mm 0.00 in0.0 mm
06:34 AM 29.2°F-1.6°C 25.5°F-3.6°C 86% 4.8 mph SW7.7 kmh SW 7.0 mph11.3 kmh 29.93 in1013.5 mb 0.00 in0.0 mm 0.00 in0.0 mm 0.00 in0.0 mm
06:35 AM 29.2°F-1.6°C 25.5°F-3.6°C 86% 5.4 mph SW8.7 kmh SW 8.0 mph12.9 kmh 29.93 in1013.5 mb 0.00 in0.0 mm 0.00 in0.0 mm 0.00 in0.0 mm
06:36 AM 29.3°F-1.5°C 25.9°F-3.4°C 87% 6.1 mph SW9.8 kmh SW 8.0 mph12.9 kmh 29.93 in1013.5 mb 0.00 in0.0 mm 0.00 in0.0 mm 0.00 in0.0 mm
06:37 AM 29.4°F-1.4°C 25.7°F-3.5°C 86% 6.5 mph SW10.5 kmh SW 8.0 mph12.9 kmh 29.93 in1013.5 mb 0.00 in0.0 mm 0.00 in0.0 mm 0.00 in0.0 mm
06:38 AM 29.4°F-1.4°C 26.0°F-3.3°C 87% 5.7 mph SW9.2 kmh SW 8.0 mph12.9 kmh 29.93 in1013.5 mb 0.00 in0.0 mm 0.00 in0.0 mm 0.00 in0.0 mm
06:39 AM 29.4°F-1.4°C 26.0°F-3.3°C 87% 4.9 mph SW7.9 kmh SW 7.0 mph11.3 kmh 29.94 in1013.9 mb 0.00 in0.0 mm 0.00 in0.0 mm 0.00 in0.0 mm
06:40 AM 29.4°F-1.4°C 26.0°F-3.3°C 87% 5.9 mph SW9.5 kmh SW 8.0 mph12.9 kmh 29.94 in1013.9 mb 0.00 in0.0 mm 0.00 in0.0 mm 0.00 in0.0 mm
06:41 AM 29.4°F-1.4°C 26.0°F-3.3°C 87% 6.2 mph SW10.0 kmh SW 8.0 mph12.9 kmh 29.94 in1013.9 mb 0.00 in0.0 mm 0.00 in0.0 mm 0.00 in0.0 mm
06:42 AM 29.5°F-1.4°C 26.1°F-3.3°C 87% 7.3 mph SW11.7 kmh SW 10.0 mph16.1 kmh 29.94 in1013.9 mb 0.00 in0.0 mm 0.00 in0.0 mm 0.00 in0.0 mm
06:43 AM 29.5°F-1.4°C 26.1°F-3.3°C 87% 6.3 mph SW10.1 kmh SW 10.0 mph16.1 kmh 29.94 in1013.9 mb 0.00 in0.0 mm 0.00 in0.0 mm 0.00 in0.0 mm
06:44 AM 29.6°F-1.3°C 26.2°F-3.2°C 87% 5.7 mph SW9.2 kmh SW 8.0 mph12.9 kmh 29.94 in1013.9 mb 0.00 in0.0 mm 0.00 in0.0 mm 0.00 in0.0 mm
06:45 AM 29.5°F-1.4°C 26.1°F-3.3°C 87% 5.2 mph SW8.4 kmh SW 7.0 mph11.3 kmh 29.94 in1013.9 mb 0.00 in0.0 mm 0.00 in0.0 mm 0.00 in0.0 mm
06:46 AM 29.6°F-1.3°C 26.2°F-3.2°C 87% 7.5 mph SW12.1 kmh SW 11.0 mph17.7 kmh 29.94 in1013.9 mb 0.00 in0.0 mm 0.00 in0.0 mm 0.00 in0.0 mm
06:47 AM 29.6°F-1.3°C 26.2°F-3.2°C 87% 7.5 mph SW12.1 kmh SW 11.0 mph17.7 kmh 29.94 in1013.9 mb 0.00 in0.0 mm 0.00 in0.0 mm 0.00 in0.0 mm
06:48 AM 29.5°F-1.4°C 26.1°F-3.3°C 87% 7.0 mph SW11.3 kmh SW 10.0 mph16.1 kmh 29.94 in1013.9 mb 0.00 in0.0 mm 0.00 in0.0 mm 0.00 in0.0 mm
06:49 AM 29.5°F-1.4°C 26.1°F-3.3°C 87% 8.8 mph SW14.2 kmh SW 10.0 mph16.1 kmh 29.94 in1013.9 mb 0.00 in0.0 mm 0.00 in0.0 mm 0.00 in0.0 mm
06:50 AM 29.6°F-1.3°C 26.2°F-3.2°C 87% 7.3 mph SW11.7 kmh SW 10.0 mph16.1 kmh 29.94 in1013.9 mb 0.00 in0.0 mm 0.00 in0.0 mm 0.00 in0.0 mm
06:51 AM 29.6°F-1.3°C 26.2°F-3.2°C 87% 8.5 mph SW13.7 kmh SW 11.0 mph17.7 kmh 29.94 in1013.9 mb 0.00 in0.0 mm 0.00 in0.0 mm 0.00 in0.0 mm
06:52 AM 29.7°F-1.3°C 26.3°F-3.2°C 87% 7.1 mph SW11.4 kmh SW 11.0 mph17.7 kmh 29.94 in1013.9 mb 0.00 in0.0 mm 0.00 in0.0 mm 0.00 in0.0 mm
06:53 AM 29.7°F-1.3°C 26.3°F-3.2°C 87% 6.5 mph SW10.5 kmh SW 11.0 mph17.7 kmh 29.94 in1013.9 mb 0.00 in0.0 mm 0.00 in0.0 mm 0.00 in0.0 mm
06:54 AM 29.7°F-1.3°C 26.3°F-3.2°C 87% 6.2 mph SW10.0 kmh SW 9.0 mph14.5 kmh 29.94 in1013.9 mb 0.00 in0.0 mm 0.00 in0.0 mm 0.00 in0.0 mm
06:55 AM 29.6°F-1.3°C 26.2°F-3.2°C 87% 7.5 mph SW12.1 kmh SW 10.0 mph16.1 kmh 29.94 in1013.9 mb 0.00 in0.0 mm 0.00 in0.0 mm 0.00 in0.0 mm
06:56 AM 29.7°F-1.3°C 26.3°F-3.2°C 87% 8.4 mph SW13.5 kmh SW 10.0 mph16.1 kmh 29.94 in1013.9 mb 0.00 in0.0 mm 0.00 in0.0 mm 0.00 in0.0 mm
06:57 AM 29.7°F-1.3°C 26.3°F-3.2°C 87% 6.9 mph SW11.1 kmh SW 10.0 mph16.1 kmh 29.94 in1013.9 mb 0.00 in0.0 mm 0.00 in0.0 mm 0.00 in0.0 mm
06:58 AM 29.7°F-1.3°C 26.3°F-3.2°C 87% 6.7 mph SW10.8 kmh SW 8.0 mph12.9 kmh 29.94 in1013.9 mb 0.00 in0.0 mm 0.00 in0.0 mm 0.00 in0.0 mm
06:59 AM 29.7°F-1.3°C 26.3°F-3.2°C 87% 7.5 mph SW12.1 kmh SW 9.0 mph14.5 kmh 29.94 in1013.9 mb 0.00 in0.0 mm 0.00 in0.0 mm 0.00 in0.0 mm
07:00 AM 29.7°F-1.3°C 26.3°F-3.2°C 87% 6.5 mph SW10.5 kmh SW 10.0 mph16.1 kmh 29.94 in1013.9 mb 0.00 in0.0 mm 0.00 in0.0 mm 0.00 in0.0 mm
07:01 AM 29.7°F-1.3°C 26.3°F-3.2°C 87% 5.6 mph SW9.0 kmh SW 10.0 mph16.1 kmh 29.94 in1013.9 mb 0.00 in0.0 mm 0.00 in0.0 mm 0.00 in0.0 mm
07:02 AM 29.7°F-1.3°C 26.3°F-3.2°C 87% 3.8 mph SW6.1 kmh SW 7.0 mph11.3 kmh 29.94 in1013.9 mb 0.00 in0.0 mm 0.00 in0.0 mm 0.00 in0.0 mm
07:03 AM 29.7°F-1.3°C 26.3°F-3.2°C 87% 5.1 mph SW8.2 kmh SW 6.0 mph9.7 kmh 29.94 in1013.9 mb 0.00 in0.0 mm 0.00 in0.0 mm 0.00 in0.0 mm
07:04 AM 29.7°F-1.3°C 26.3°F-3.2°C 87% 6.5 mph SW10.5 kmh SW 8.0 mph12.9 kmh 29.94 in1013.9 mb 0.00 in0.0 mm 0.00 in0.0 mm 0.00 in0.0 mm
07:05 AM 29.7°F-1.3°C 26.3°F-3.2°C 87% 6.5 mph SW10.5 kmh SW 8.0 mph12.9 kmh 29.94 in1013.9 mb 0.00 in0.0 mm 0.00 in0.0 mm 0.00 in0.0 mm
07:06 AM 29.7°F-1.3°C 26.3°F-3.2°C 87% 6.8 mph SW10.9 kmh SW 8.0 mph12.9 kmh 29.94 in1013.9 mb 0.00 in0.0 mm 0.00 in0.0 mm 0.00 in0.0 mm
07:07 AM 29.7°F-1.3°C 26.3°F-3.2°C 87% 5.6 mph SW9.0 kmh SW 8.0 mph12.9 kmh 29.94 in1013.9 mb 0.00 in0.0 mm 0.00 in0.0 mm 0.00 in0.0 mm
07:08 AM 29.7°F-1.3°C 26.3°F-3.2°C 87% 6.0 mph SW9.7 kmh SW 7.0 mph11.3 kmh 29.94 in1013.9 mb 0.00 in0.0 mm 0.00 in0.0 mm 0.00 in0.0 mm
07:09 AM 29.7°F-1.3°C 26.3°F-3.2°C 87% 5.3 mph SW8.5 kmh SW 8.0 mph12.9 kmh 29.94 in1013.9 mb 0.00 in0.0 mm 0.00 in0.0 mm 0.00 in0.0 mm
07:10 AM 29.7°F-1.3°C 26.3°F-3.2°C 87% 5.2 mph SW8.4 kmh SW 8.0 mph12.9 kmh 29.94 in1013.9 mb 0.00 in0.0 mm 0.00 in0.0 mm 0.00 in0.0 mm
07:11 AM 29.7°F-1.3°C 26.3°F-3.2°C 87% 5.5 mph SW8.9 kmh SW 8.0 mph12.9 kmh 29.94 in1013.9 mb 0.00 in0.0 mm 0.00 in0.0 mm 0.00 in0.0 mm
07:12 AM 29.7°F-1.3°C 26.3°F-3.2°C 87% 4.5 mph SW7.2 kmh SW 8.0 mph12.9 kmh 29.94 in1013.9 mb 0.00 in0.0 mm 0.00 in0.0 mm 0.00 in0.0 mm
07:13 AM 29.7°F-1.3°C 26.3°F-3.2°C 87% 5.1 mph SW8.2 kmh SW 7.0 mph11.3 kmh 29.94 in1013.9 mb 0.00 in0.0 mm 0.00 in0.0 mm 0.00 in0.0 mm
07:14 AM 29.7°F-1.3°C 26.3°F-3.2°C 87% 4.8 mph SW7.7 kmh SW 7.0 mph11.3 kmh 29.94 in1013.9 mb 0.00 in0.0 mm 0.00 in0.0 mm 0.00 in0.0 mm
07:15 AM 29.7°F-1.3°C 26.3°F-3.2°C 87% 5.9 mph SW9.5 kmh SW 7.0 mph11.3 kmh 29.94 in1013.9 mb 0.00 in0.0 mm 0.00 in0.0 mm 0.00 in0.0 mm
07:16 AM 29.7°F-1.3°C 26.3°F-3.2°C 87% 6.1 mph SSW9.8 kmh SSW 7.0 mph11.3 kmh 29.94 in1013.9 mb 0.00 in0.0 mm 0.00 in0.0 mm 0.00 in0.0 mm
07:17 AM 29.8°F-1.2°C 26.4°F-3.1°C 87% 5.9 mph SW9.5 kmh SW 8.0 mph12.9 kmh 29.94 in1013.9 mb 0.00 in0.0 mm 0.00 in0.0 mm 0.00 in0.0 mm
07:18 AM 29.8°F-1.2°C 26.4°F-3.1°C 87% 6.1 mph SSW9.8 kmh SSW 8.0 mph12.9 kmh 29.94 in1013.9 mb 0.00 in0.0 mm 0.00 in0.0 mm 0.00 in0.0 mm
07:19 AM 29.8°F-1.2°C 26.4°F-3.1°C 87% 6.2 mph SSW10.0 kmh SSW 8.0 mph12.9 kmh 29.94 in1013.9 mb 0.00 in0.0 mm 0.00 in0.0 mm 0.00 in0.0 mm
07:20 AM 29.8°F-1.2°C 26.7°F-2.9°C 88% 5.4 mph SSW8.7 kmh SSW 8.0 mph12.9 kmh 29.94 in1013.9 mb 0.00 in0.0 mm 0.00 in0.0 mm 0.00 in0.0 mm
07:21 AM 29.8°F-1.2°C 26.7°F-2.9°C 88% 5.5 mph SSW8.9 kmh SSW 7.0 mph11.3 kmh 29.94 in1013.9 mb 0.00 in0.0 mm 0.00 in0.0 mm 0.00 in0.0 mm
07:22 AM 29.8°F-1.2°C 26.7°F-2.9°C 88% 5.7 mph SSW9.2 kmh SSW 8.0 mph12.9 kmh 29.94 in1013.9 mb 0.00 in0.0 mm 0.00 in0.0 mm 0.00 in0.0 mm
07:23 AM 29.9°F-1.2°C 26.8°F-2.9°C 88% 5.7 mph SSW9.2 kmh SSW 8.0 mph12.9 kmh 29.94 in1013.9 mb 0.00 in0.0 mm 0.00 in0.0 mm 0.00 in0.0 mm
07:24 AM 29.8°F-1.2°C 26.4°F-3.1°C 87% 6.5 mph SW10.5 kmh SW 8.0 mph12.9 kmh 29.94 in1013.9 mb 0.00 in0.0 mm 0.00 in0.0 mm 0.00 in0.0 mm
07:25 AM 29.8°F-1.2°C 26.7°F-2.9°C 88% 6.6 mph SSW10.6 kmh SSW 9.0 mph14.5 kmh 29.94 in1013.9 mb 0.00 in0.0 mm 0.00 in0.0 mm 0.00 in0.0 mm
07:26 AM 29.9°F-1.2°C 26.8°F-2.9°C 88% 6.2 mph SSW10.0 kmh SSW 9.0 mph14.5 kmh 29.94 in1013.9 mb 0.00 in0.0 mm 0.00 in0.0 mm 0.00 in0.0 mm
07:27 AM 29.8°F-1.2°C 26.7°F-2.9°C 88% 5.9 mph SSW9.5 kmh SSW 8.0 mph12.9 kmh 29.93 in1013.5 mb 0.00 in0.0 mm 0.00 in0.0 mm 0.00 in0.0 mm
07:28 AM 29.9°F-1.2°C 26.8°F-2.9°C 88% 6.3 mph S10.1 kmh S 7.0 mph11.3 kmh 29.94 in1013.9 mb 0.00 in0.0 mm 0.00 in0.0 mm 0.00 in0.0 mm
07:29 AM 29.9°F-1.2°C 26.8°F-2.9°C 88% 5.0 mph S8.0 kmh S 7.0 mph11.3 kmh 29.93 in1013.5 mb 0.00 in0.0 mm 0.00 in0.0 mm 0.00 in0.0 mm
07:30 AM 29.8°F-1.2°C 26.7°F-2.9°C 88% 5.9 mph S9.5 kmh S 8.0 mph12.9 kmh 29.93 in1013.5 mb 0.00 in0.0 mm 0.00 in0.0 mm 0.00 in0.0 mm
07:31 AM 29.8°F-1.2°C 26.7°F-2.9°C 88% 7.0 mph S11.3 kmh S 9.0 mph14.5 kmh 29.93 in1013.5 mb 0.00 in0.0 mm 0.00 in0.0 mm 0.00 in0.0 mm
07:32 AM 29.7°F-1.3°C 26.6°F-3.0°C 88% 7.3 mph S11.7 kmh S 9.0 mph14.5 kmh 29.93 in1013.5 mb 0.00 in0.0 mm 0.00 in0.0 mm 0.00 in0.0 mm
07:33 AM 29.7°F-1.3°C 26.3°F-3.2°C 87% 6.9 mph S11.1 kmh S 9.0 mph14.5 kmh 29.93 in1013.5 mb 0.00 in0.0 mm 0.00 in0.0 mm 0.00 in0.0 mm
07:34 AM 29.7°F-1.3°C 26.3°F-3.2°C 87% 6.9 mph S11.1 kmh S 8.0 mph12.9 kmh 29.93 in1013.5 mb 0.00 in0.0 mm 0.00 in0.0 mm 0.00 in0.0 mm
07:35 AM 29.6°F-1.3°C 26.2°F-3.2°C 87% 7.1 mph S11.4 kmh S 9.0 mph14.5 kmh 29.93 in1013.5 mb 0.00 in0.0 mm 0.00 in0.0 mm 0.00 in0.0 mm
07:36 AM 29.6°F-1.3°C 26.2°F-3.2°C 87% 7.0 mph S11.3 kmh S 9.0 mph14.5 kmh 29.93 in1013.5 mb 0.00 in0.0 mm 0.00 in0.0 mm 0.00 in0.0 mm
07:37 AM 29.5°F-1.4°C 26.4°F-3.1°C 88% 6.0 mph S9.7 kmh S 9.0 mph14.5 kmh 29.93 in1013.5 mb 0.00 in0.0 mm 0.00 in0.0 mm 0.00 in0.0 mm
07:38 AM 29.5°F-1.4°C 26.4°F-3.1°C 88% 5.1 mph S8.2 kmh S 7.0 mph11.3 kmh 29.93 in1013.5 mb 0.00 in0.0 mm 0.00 in0.0 mm 0.00 in0.0 mm
07:39 AM 29.4°F-1.4°C 26.3°F-3.2°C 88% 4.1 mph S6.6 kmh S 7.0 mph11.3 kmh 29.93 in1013.5 mb 0.00 in0.0 mm 0.00 in0.0 mm 0.00 in0.0 mm
07:40 AM 29.4°F-1.4°C 26.3°F-3.2°C 88% 4.8 mph S7.7 kmh S 6.0 mph9.7 kmh 29.94 in1013.9 mb 0.00 in0.0 mm 0.00 in0.0 mm 0.00 in0.0 mm
07:41 AM 29.3°F-1.5°C 26.2°F-3.2°C 88% 4.3 mph S6.9 kmh S 6.0 mph9.7 kmh 29.94 in1013.9 mb 0.00 in0.0 mm 0.00 in0.0 mm 0.00 in0.0 mm
07:42 AM 29.3°F-1.5°C 25.9°F-3.4°C 87% 4.7 mph S7.6 kmh S 6.0 mph9.7 kmh 29.94 in1013.9 mb 0.00 in0.0 mm 0.00 in0.0 mm 0.00 in0.0 mm
07:43 AM 29.3°F-1.5°C 26.2°F-3.2°C 88% 4.9 mph SSW7.9 kmh SSW 6.0 mph9.7 kmh 29.94 in1013.9 mb 0.00 in0.0 mm 0.00 in0.0 mm 0.00 in0.0 mm
07:44 AM 29.3°F-1.5°C 26.2°F-3.2°C 88% 4.3 mph S6.9 kmh S 6.0 mph9.7 kmh 29.94 in1013.9 mb 0.00 in0.0 mm 0.00 in0.0 mm 0.00 in0.0 mm
07:45 AM 29.3°F-1.5°C 26.2°F-3.2°C 88% 4.4 mph S7.1 kmh S 6.0 mph9.7 kmh 29.94 in1013.9 mb 0.00 in0.0 mm 0.00 in0.0 mm 0.00 in0.0 mm
07:46 AM 29.3°F-1.5°C 26.2°F-3.2°C 88% 3.5 mph S5.6 kmh S 6.0 mph9.7 kmh 29.94 in1013.9 mb 0.00 in0.0 mm 0.00 in0.0 mm 0.00 in0.0 mm
07:47 AM 29.2°F-1.6°C 26.1°F-3.3°C 88% 3.7 mph S6.0 kmh S 6.0 mph9.7 kmh 29.94 in1013.9 mb 0.00 in0.0 mm 0.00 in0.0 mm 0.00 in0.0 mm
07:48 AM 29.3°F-1.5°C 26.2°F-3.2°C 88% 3.4 mph SSW5.5 kmh SSW 6.0 mph9.7 kmh 29.94 in1013.9 mb 0.00 in0.0 mm 0.00 in0.0 mm 0.00 in0.0 mm
07:49 AM 29.2°F-1.6°C 26.1°F-3.3°C 88% 4.5 mph S7.2 kmh S 6.0 mph9.7 kmh 29.94 in1013.9 mb 0.00 in0.0 mm 0.00 in0.0 mm 0.00 in0.0 mm
07:50 AM 29.3°F-1.5°C 26.2°F-3.2°C 88% 5.4 mph S8.7 kmh S 8.0 mph12.9 kmh 29.94 in1013.9 mb 0.00 in0.0 mm 0.00 in0.0 mm 0.00 in0.0 mm
07:51 AM 29.4°F-1.4°C 26.3°F-3.2°C 88% 4.9 mph SSW7.9 kmh SSW 8.0 mph12.9 kmh 29.94 in1013.9 mb 0.00 in0.0 mm 0.00 in0.0 mm 0.00 in0.0 mm
07:52 AM 29.5°F-1.4°C 26.4°F-3.1°C 88% 4.4 mph SSW7.1 kmh SSW 6.0 mph9.7 kmh 29.94 in1013.9 mb 0.00 in0.0 mm 0.00 in0.0 mm 0.00 in0.0 mm
07:53 AM 29.6°F-1.3°C 26.8°F-2.9°C 89% 5.3 mph SSW8.5 kmh SSW 7.0 mph11.3 kmh 29.94 in1013.9 mb 0.00 in0.0 mm 0.00 in0.0 mm 0.00 in0.0 mm
07:54 AM 29.6°F-1.3°C 26.8°F-2.9°C 89% 5.7 mph SSW9.2 kmh SSW 8.0 mph12.9 kmh 29.94 in1013.9 mb 0.00 in0.0 mm 0.00 in0.0 mm 0.00 in0.0 mm
07:55 AM 29.7°F-1.3°C 26.9°F-2.8°C 89% 7.2 mph SSW11.6 kmh SSW 9.0 mph14.5 kmh 29.94 in1013.9 mb 0.00 in0.0 mm 0.00 in0.0 mm 0.00 in0.0 mm
07:56 AM 30.0°F-1.1°C 27.2°F-2.7°C 89% 5.5 mph SW8.9 kmh SW 9.0 mph14.5 kmh 29.94 in1013.9 mb 0.00 in0.0 mm 0.00 in0.0 mm 0.00 in0.0 mm
07:57 AM 30.0°F-1.1°C 27.2°F-2.7°C 89% 4.3 mph SSW6.9 kmh SSW 7.0 mph11.3 kmh 29.94 in1013.9 mb 0.00 in0.0 mm 0.00 in0.0 mm 0.00 in0.0 mm
07:58 AM 30.1°F-1.1°C 27.3°F-2.6°C 89% 4.2 mph SSW6.8 kmh SSW 6.0 mph9.7 kmh 29.94 in1013.9 mb 0.00 in0.0 mm 0.00 in0.0 mm 0.00 in0.0 mm
07:59 AM 30.2°F-1.0°C 27.4°F-2.6°C 89% 3.9 mph S6.3 kmh S 6.0 mph9.7 kmh 29.94 in1013.9 mb 0.00 in0.0 mm 0.00 in0.0 mm 0.00 in0.0 mm
08:00 AM 30.2°F-1.0°C 27.4°F-2.6°C 89% 3.6 mph S5.8 kmh S 5.0 mph8.0 kmh 29.94 in1013.9 mb 0.00 in0.0 mm 0.00 in0.0 mm 0.00 in0.0 mm
08:01 AM 30.2°F-1.0°C 27.4°F-2.6°C 89% 3.5 mph SSW5.6 kmh SSW 5.0 mph8.0 kmh 29.94 in1013.9 mb 0.00 in0.0 mm 0.00 in0.0 mm 0.00 in0.0 mm
08:02 AM 30.2°F-1.0°C 27.4°F-2.6°C 89% 3.8 mph SSW6.1 kmh SSW 6.0 mph9.7 kmh 29.94 in1013.9 mb 0.00 in0.0 mm 0.00 in0.0 mm 0.00 in0.0 mm
08:03 AM 30.3°F-0.9°C 27.5°F-2.5°C 89% 3.6 mph SSW5.8 kmh SSW 6.0 mph9.7 kmh 29.94 in1013.9 mb 0.00 in0.0 mm 0.00 in0.0 mm 0.00 in0.0 mm
08:04 AM 30.3°F-0.9°C 27.5°F-2.5°C 89% 3.5 mph S5.6 kmh S 5.0 mph8.0 kmh 29.94 in1013.9 mb 0.00 in0.0 mm 0.00 in0.0 mm 0.00 in0.0 mm
08:05 AM 30.3°F-0.9°C 27.5°F-2.5°C 89% 4.6 mph S7.4 kmh S 6.0 mph9.7 kmh 29.94 in1013.9 mb 0.00 in0.0 mm 0.00 in0.0 mm 0.00 in0.0 mm
08:06 AM 30.3°F-0.9°C 27.5°F-2.5°C 89% 3.4 mph SSW5.5 kmh SSW 6.0 mph9.7 kmh 29.94 in1013.9 mb 0.00 in0.0 mm 0.00 in0.0 mm 0.00 in0.0 mm
08:07 AM 30.3°F-0.9°C 27.5°F-2.5°C 89% 4.2 mph S6.8 kmh S 6.0 mph9.7 kmh 29.94 in1013.9 mb 0.00 in0.0 mm 0.00 in0.0 mm 0.00 in0.0 mm
08:08 AM 30.3°F-0.9°C 27.5°F-2.5°C 89% 4.2 mph S6.8 kmh S 6.0 mph9.7 kmh 29.94 in1013.9 mb 0.00 in0.0 mm 0.00 in0.0 mm 0.00 in0.0 mm
08:09 AM 30.3°F-0.9°C 27.5°F-2.5°C 89% 4.3 mph S6.9 kmh S 6.0 mph9.7 kmh 29.95 in1014.2 mb 0.00 in0.0 mm 0.00 in0.0 mm 0.00 in0.0 mm
08:10 AM 30.3°F-0.9°C 27.5°F-2.5°C 89% 4.9 mph S7.9 kmh S 7.0 mph11.3 kmh 29.95 in1014.2 mb 0.00 in0.0 mm 0.00 in0.0 mm 0.00 in0.0 mm
08:11 AM 30.2°F-1.0°C 27.4°F-2.6°C 89% 4.5 mph S7.2 kmh S 7.0 mph11.3 kmh 29.95 in1014.2 mb 0.00 in0.0 mm 0.00 in0.0 mm 0.00 in0.0 mm
08:12 AM 30.2°F-1.0°C 27.4°F-2.6°C 89% 4.9 mph S7.9 kmh S 7.0 mph11.3 kmh 29.94 in1013.9 mb 0.00 in0.0 mm 0.00 in0.0 mm 0.00 in0.0 mm
08:13 AM 30.2°F-1.0°C 27.4°F-2.6°C 89% 4.4 mph S7.1 kmh S 7.0 mph11.3 kmh 29.95 in1014.2 mb 0.00 in0.0 mm 0.00 in0.0 mm 0.00 in0.0 mm
08:14 AM 30.2°F-1.0°C 27.4°F-2.6°C 89% 3.9 mph S6.3 kmh S 9.0 mph14.5 kmh 29.94 in1013.9 mb 0.00 in0.0 mm 0.00 in0.0 mm 0.00 in0.0 mm
08:15 AM 30.2°F-1.0°C 27.4°F-2.6°C 89% 2.9 mph S4.7 kmh S 9.0 mph14.5 kmh 29.94 in1013.9 mb 0.00 in0.0 mm 0.00 in0.0 mm 0.00 in0.0 mm
08:16 AM 30.1°F-1.1°C 27.3°F-2.6°C 89% 3.4 mph SSW5.5 kmh SSW 5.0 mph8.0 kmh 29.94 in1013.9 mb 0.00 in0.0 mm 0.00 in0.0 mm 0.00 in0.0 mm
08:17 AM 30.1°F-1.1°C 27.3°F-2.6°C 89% 4.5 mph S7.2 kmh S 7.0 mph11.3 kmh 29.94 in1013.9 mb 0.00 in0.0 mm 0.00 in0.0 mm 0.00 in0.0 mm
08:18 AM 30.1°F-1.1°C 27.3°F-2.6°C 89% 3.7 mph S6.0 kmh S 7.0 mph11.3 kmh 29.94 in1013.9 mb 0.00 in0.0 mm 0.00 in0.0 mm 0.00 in0.0 mm
08:19 AM 30.1°F-1.1°C 27.3°F-2.6°C 89% 3.5 mph SSW5.6 kmh SSW 5.0 mph8.0 kmh 29.95 in1014.2 mb 0.00 in0.0 mm 0.00 in0.0 mm 0.00 in0.0 mm
08:20 AM 30.1°F-1.1°C 27.3°F-2.6°C 89% 4.0 mph S6.4 kmh S 5.0 mph8.0 kmh 29.95 in1014.2 mb 0.00 in0.0 mm 0.00 in0.0 mm 0.00 in0.0 mm
08:21 AM 30.1°F-1.1°C 27.3°F-2.6°C 89% 4.1 mph SSW6.6 kmh SSW 5.0 mph8.0 kmh 29.95 in1014.2 mb 0.00 in0.0 mm 0.00 in0.0 mm 0.00 in0.0 mm
08:22 AM 30.0°F-1.1°C 27.2°F-2.7°C 89% 4.5 mph SSW7.2 kmh SSW 6.0 mph9.7 kmh 29.95 in1014.2 mb 0.00 in0.0 mm 0.00 in0.0 mm 0.00 in0.0 mm
08:23 AM 30.0°F-1.1°C 27.2°F-2.7°C 89% 3.9 mph SSW6.3 kmh SSW 6.0 mph9.7 kmh 29.95 in1014.2 mb 0.00 in0.0 mm 0.00 in0.0 mm 0.00 in0.0 mm
08:24 AM 30.1°F-1.1°C 27.3°F-2.6°C 89% 4.8 mph SSW7.7 kmh SSW 7.0 mph11.3 kmh 29.95 in1014.2 mb 0.00 in0.0 mm 0.00 in0.0 mm 0.00 in0.0 mm
08:25 AM 30.0°F-1.1°C 27.2°F-2.7°C 89% 4.5 mph S7.2 kmh S 7.0 mph11.3 kmh 29.95 in1014.2 mb 0.00 in0.0 mm 0.00 in0.0 mm 0.00 in0.0 mm
08:26 AM 30.0°F-1.1°C 27.2°F-2.7°C 89% 5.1 mph S8.2 kmh S 7.0 mph11.3 kmh 29.95 in1014.2 mb 0.00 in0.0 mm 0.00 in0.0 mm 0.00 in0.0 mm
08:27 AM 30.0°F-1.1°C 27.2°F-2.7°C 89% 4.4 mph S7.1 kmh S 7.0 mph11.3 kmh 29.95 in1014.2 mb 0.00 in0.0 mm 0.00 in0.0 mm 0.00 in0.0 mm
08:28 AM 30.0°F-1.1°C 27.2°F-2.7°C 89% 4.5 mph SSW7.2 kmh SSW 7.0 mph11.3 kmh 29.95 in1014.2 mb 0.00 in0.0 mm 0.00 in0.0 mm 0.00 in0.0 mm
08:29 AM 30.0°F-1.1°C 27.2°F-2.7°C 89% 4.8 mph S7.7 kmh S 8.0 mph12.9 kmh 29.95 in1014.2 mb 0.00 in0.0 mm 0.00 in0.0 mm 0.00 in0.0 mm
08:30 AM 30.0°F-1.1°C 27.2°F-2.7°C 89% 5.3 mph S8.5 kmh S 8.0 mph12.9 kmh 29.95 in1014.2 mb 0.00 in0.0 mm 0.00 in0.0 mm 0.00 in0.0 mm
08:31 AM 30.0°F-1.1°C 27.2°F-2.7°C 89% 5.1 mph SSW8.2 kmh SSW 8.0 mph12.9 kmh 29.95 in1014.2 mb 0.00 in0.0 mm 0.00 in0.0 mm 0.00 in0.0 mm
08:32 AM 30.0°F-1.1°C 27.2°F-2.7°C 89% 4.4 mph S7.1 kmh S 8.0 mph12.9 kmh 29.95 in1014.2 mb 0.00 in0.0 mm 0.00 in0.0 mm 0.00 in0.0 mm
08:33 AM 29.9°F-1.2°C 27.1°F-2.7°C 89% 4.6 mph S7.4 kmh S 6.0 mph9.7 kmh 29.95 in1014.2 mb 0.00 in0.0 mm 0.00 in0.0 mm 0.00 in0.0 mm
08:34 AM 29.9°F-1.2°C 27.1°F-2.7°C 89% 4.5 mph S7.2 kmh S 7.0 mph11.3 kmh 29.95 in1014.2 mb 0.00 in0.0 mm 0.00 in0.0 mm 0.00 in0.0 mm
08:35 AM 29.9°F-1.2°C 27.1°F-2.7°C 89% 5.3 mph S8.5 kmh S 7.0 mph11.3 kmh 29.95 in1014.2 mb 0.00 in0.0 mm 0.00 in0.0 mm 0.00 in0.0 mm
08:36 AM 30.0°F-1.1°C 27.2°F-2.7°C 89% 6.2 mph S10.0 kmh S 9.0 mph14.5 kmh 29.95 in1014.2 mb 0.00 in0.0 mm 0.00 in0.0 mm 0.00 in0.0 mm
08:37 AM 30.0°F-1.1°C 27.2°F-2.7°C 89% 5.3 mph S8.5 kmh S 9.0 mph14.5 kmh 29.95 in1014.2 mb 0.00 in0.0 mm 0.00 in0.0 mm 0.00 in0.0 mm
08:38 AM 29.9°F-1.2°C 27.1°F-2.7°C 89% 5.1 mph S8.2 kmh S 7.0 mph11.3 kmh 29.95 in1014.2 mb 0.00 in0.0 mm 0.00 in0.0 mm 0.00 in0.0 mm
08:39 AM 30.0°F-1.1°C 27.2°F-2.7°C 89% 6.0 mph S9.7 kmh S 8.0 mph12.9 kmh 29.95 in1014.2 mb 0.00 in0.0 mm 0.00 in0.0 mm 0.00 in0.0 mm
08:40 AM 30.0°F-1.1°C 27.2°F-2.7°C 89% 6.1 mph S9.8 kmh S 10.0 mph16.1 kmh 29.95 in1014.2 mb 0.00 in0.0 mm 0.00 in0.0 mm 0.00 in0.0 mm
08:41 AM 30.0°F-1.1°C 27.2°F-2.7°C 89% 4.1 mph S6.6 kmh S 10.0 mph16.1 kmh 29.95 in1014.2 mb 0.00 in0.0 mm 0.00 in0.0 mm 0.00 in0.0 mm
08:42 AM 30.0°F-1.1°C 27.2°F-2.7°C 89% 4.2 mph S6.8 kmh S 6.0 mph9.7 kmh 29.95 in1014.2 mb 0.00 in0.0 mm 0.00 in0.0 mm 0.00 in0.0 mm
08:43 AM 30.0°F-1.1°C 27.2°F-2.7°C 89% 6.2 mph SSW10.0 kmh SSW 8.0 mph12.9 kmh 29.95 in1014.2 mb 0.00 in0.0 mm 0.00 in0.0 mm 0.00 in0.0 mm
08:44 AM 30.0°F-1.1°C 27.2°F-2.7°C 89% 4.7 mph S7.6 kmh S 8.0 mph12.9 kmh 29.95 in1014.2 mb 0.00 in0.0 mm 0.00 in0.0 mm 0.00 in0.0 mm
08:45 AM 30.0°F-1.1°C 27.2°F-2.7°C 89% 5.6 mph S9.0 kmh S 8.0 mph12.9 kmh 29.95 in1014.2 mb 0.00 in0.0 mm 0.00 in0.0 mm 0.00 in0.0 mm
08:46 AM 30.0°F-1.1°C 27.2°F-2.7°C 89% 5.6 mph S9.0 kmh S 8.0 mph12.9 kmh 29.95 in1014.2 mb 0.00 in0.0 mm 0.00 in0.0 mm 0.00 in0.0 mm
08:47 AM 30.0°F-1.1°C 27.2°F-2.7°C 89% 5.3 mph S8.5 kmh S 8.0 mph12.9 kmh 29.95 in1014.2 mb 0.00 in0.0 mm 0.00 in0.0 mm 0.00 in0.0 mm
08:48 AM 30.0°F-1.1°C 27.2°F-2.7°C 89% 6.6 mph S10.6 kmh S 8.0 mph12.9 kmh 29.95 in1014.2 mb 0.00 in0.0 mm 0.00 in0.0 mm 0.00 in0.0 mm
08:49 AM 30.0°F-1.1°C 27.2°F-2.7°C 89% 6.6 mph SSW10.6 kmh SSW 10.0 mph16.1 kmh 29.95 in1014.2 mb 0.00 in0.0 mm 0.00 in0.0 mm 0.00 in0.0 mm
08:50 AM 30.0°F-1.1°C 27.2°F-2.7°C 89% 6.0 mph S9.7 kmh S 10.0 mph16.1 kmh 29.95 in1014.2 mb 0.00 in0.0 mm 0.00 in0.0 mm 0.00 in0.0 mm
08:51 AM 30.0°F-1.1°C 27.2°F-2.7°C 89% 5.8 mph S9.3 kmh S 9.0 mph14.5 kmh 29.95 in1014.2 mb 0.00 in0.0 mm 0.00 in0.0 mm 0.00 in0.0 mm
08:52 AM 30.0°F-1.1°C 27.2°F-2.7°C 89% 6.5 mph S10.5 kmh S 9.0 mph14.5 kmh 29.95 in1014.2 mb 0.00 in0.0 mm 0.00 in0.0 mm 0.00 in0.0 mm
08:53 AM 30.0°F-1.1°C 27.2°F-2.7°C 89% 6.4 mph S10.3 kmh S 9.0 mph14.5 kmh 29.95 in1014.2 mb 0.00 in0.0 mm 0.00 in0.0 mm 0.00 in0.0 mm
08:54 AM 30.0°F-1.1°C 27.2°F-2.7°C 89% 6.2 mph S10.0 kmh S 10.0 mph16.1 kmh 29.95 in1014.2 mb 0.00 in0.0 mm 0.00 in0.0 mm 0.00 in0.0 mm
08:55 AM 30.0°F-1.1°C 27.2°F-2.7°C 89% 6.5 mph S10.5 kmh S 10.0 mph16.1 kmh 29.95 in1014.2 mb 0.00 in0.0 mm 0.00 in0.0 mm 0.00 in0.0 mm
08:56 AM 30.0°F-1.1°C 27.2°F-2.7°C 89% 6.5 mph S10.5 kmh S 10.0 mph16.1 kmh 29.95 in1014.2 mb 0.00 in0.0 mm 0.00 in0.0 mm 0.00 in0.0 mm
08:57 AM 30.0°F-1.1°C 27.2°F-2.7°C 89% 5.8 mph S9.3 kmh S 9.0 mph14.5 kmh 29.95 in1014.2 mb 0.00 in0.0 mm 0.00 in0.0 mm 0.00 in0.0 mm
08:58 AM 30.0°F-1.1°C 27.2°F-2.7°C 89% 5.3 mph SSW8.5 kmh SSW 8.0 mph12.9 kmh 29.95 in1014.2 mb 0.00 in0.0 mm 0.00 in0.0 mm 0.00 in0.0 mm
08:59 AM 30.0°F-1.1°C 27.2°F-2.7°C 89% 5.7 mph SSW9.2 kmh SSW 8.0 mph12.9 kmh 29.95 in1014.2 mb 0.00 in0.0 mm 0.00 in0.0 mm 0.00 in0.0 mm
09:00 AM 29.9°F-1.2°C 27.1°F-2.7°C 89% 4.6 mph S7.4 kmh S 7.0 mph11.3 kmh 29.95 in1014.2 mb 0.00 in0.0 mm 0.00 in0.0 mm 0.00 in0.0 mm
09:01 AM 29.9°F-1.2°C 27.1°F-2.7°C 89% 5.8 mph SSW9.3 kmh SSW 7.0 mph11.3 kmh 29.95 in1014.2 mb 0.00 in0.0 mm 0.00 in0.0 mm 0.00 in0.0 mm
09:02 AM 30.0°F-1.1°C 27.2°F-2.7°C 89% 4.9 mph SSW7.9 kmh SSW 7.0 mph11.3 kmh 29.95 in1014.2 mb 0.00 in0.0 mm 0.00 in0.0 mm 0.00 in0.0 mm
09:03 AM 30.0°F-1.1°C 27.2°F-2.7°C 89% 6.9 mph SSW11.1 kmh SSW 8.0 mph12.9 kmh 29.95 in1014.2 mb 0.00 in0.0 mm 0.00 in0.0 mm 0.00 in0.0 mm
09:04 AM 30.0°F-1.1°C 27.2°F-2.7°C 89% 7.4 mph SSW11.9 kmh SSW 9.0 mph14.5 kmh 29.95 in1014.2 mb 0.00 in0.0 mm 0.00 in0.0 mm 0.00 in0.0 mm
09:05 AM 30.0°F-1.1°C 27.2°F-2.7°C 89% 7.0 mph SSW11.3 kmh SSW 9.0 mph14.5 kmh 29.95 in1014.2 mb 0.00 in0.0 mm 0.00 in0.0 mm 0.00 in0.0 mm
09:06 AM 30.0°F-1.1°C 27.2°F-2.7°C 89% 7.4 mph SW11.9 kmh SW 10.0 mph16.1 kmh 29.95 in1014.2 mb 0.00 in0.0 mm 0.00 in0.0 mm 0.00 in0.0 mm
09:07 AM 30.0°F-1.1°C 27.2°F-2.7°C 89% 6.0 mph SSW9.7 kmh SSW 10.0 mph16.1 kmh 29.95 in1014.2 mb 0.00 in0.0 mm 0.00 in0.0 mm 0.00 in0.0 mm
09:08 AM 30.0°F-1.1°C 27.2°F-2.7°C 89% 5.2 mph SSW8.4 kmh SSW 8.0 mph12.9 kmh 29.95 in1014.2 mb 0.00 in0.0 mm 0.00 in0.0 mm 0.00 in0.0 mm
09:09 AM 30.0°F-1.1°C 27.2°F-2.7°C 89% 8.2 mph SSW13.2 kmh SSW 10.0 mph16.1 kmh 29.95 in1014.2 mb 0.00 in0.0 mm 0.00 in0.0 mm 0.00 in0.0 mm
09:10 AM 30.1°F-1.1°C 27.3°F-2.6°C 89% 6.8 mph SSW10.9 kmh SSW 10.0 mph16.1 kmh 29.95 in1014.2 mb 0.00 in0.0 mm 0.00 in0.0 mm 0.00 in0.0 mm
09:11 AM 30.1°F-1.1°C 27.3°F-2.6°C 89% 5.5 mph SSW8.9 kmh SSW 10.0 mph16.1 kmh 29.95 in1014.2 mb 0.00 in0.0 mm 0.00 in0.0 mm 0.00 in0.0 mm
09:12 AM 30.2°F-1.0°C 27.6°F-2.4°C 90% 7.4 mph SSW11.9 kmh SSW 9.0 mph14.5 kmh 29.95 in1014.2 mb 0.00 in0.0 mm 0.00 in0.0 mm 0.00 in0.0 mm
09:13 AM 30.2°F-1.0°C 27.6°F-2.4°C 90% 5.7 mph SSW9.2 kmh SSW 9.0 mph14.5 kmh 29.95 in1014.2 mb 0.00 in0.0 mm 0.00 in0.0 mm 0.00 in0.0 mm
09:14 AM 30.3°F-0.9°C 27.7°F-2.4°C 90% 7.8 mph SSW12.6 kmh SSW 11.0 mph17.7 kmh 29.95 in1014.2 mb 0.00 in0.0 mm 0.00 in0.0 mm 0.00 in0.0 mm
09:15 AM 30.3°F-0.9°C 27.7°F-2.4°C 90% 7.4 mph SSW11.9 kmh SSW 11.0 mph17.7 kmh 29.95 in1014.2 mb 0.00 in0.0 mm 0.00 in0.0 mm 0.00 in0.0 mm
09:16 AM 30.3°F-0.9°C 27.7°F-2.4°C 90% 5.6 mph SSW9.0 kmh SSW 10.0 mph16.1 kmh 29.95 in1014.2 mb 0.00 in0.0 mm 0.00 in0.0 mm 0.00 in0.0 mm
09:17 AM 30.3°F-0.9°C 27.7°F-2.4°C 90% 8.3 mph SSW13.4 kmh SSW 11.0 mph17.7 kmh 29.95 in1014.2 mb 0.00 in0.0 mm 0.00 in0.0 mm 0.00 in0.0 mm
09:18 AM 30.3°F-0.9°C 27.7°F-2.4°C 90% 7.6 mph SSW12.2 kmh SSW 11.0 mph17.7 kmh 29.95 in1014.2 mb 0.00 in0.0 mm 0.00 in0.0 mm 0.00 in0.0 mm
09:19 AM 30.3°F-0.9°C 27.7°F-2.4°C 90% 7.5 mph SSW12.1 kmh SSW 11.0 mph17.7 kmh 29.95 in1014.2 mb 0.00 in0.0 mm 0.00 in0.0 mm 0.00 in0.0 mm
09:20 AM 30.3°F-0.9°C 27.7°F-2.4°C 90% 7.5 mph SSW12.1 kmh SSW 11.0 mph17.7 kmh 29.95 in1014.2 mb 0.00 in0.0 mm 0.00 in0.0 mm 0.00 in0.0 mm
09:21 AM 30.2°F-1.0°C 27.6°F-2.4°C 90% 7.0 mph SSW11.3 kmh SSW 10.0 mph16.1 kmh 29.95 in1014.2 mb 0.00 in0.0 mm 0.00 in0.0 mm 0.00 in0.0 mm
09:22 AM 30.3°F-0.9°C 27.7°F-2.4°C 90% 7.2 mph SSW11.6 kmh SSW 10.0 mph16.1 kmh 29.95 in1014.2 mb 0.00 in0.0 mm 0.00 in0.0 mm 0.00 in0.0 mm
09:23 AM 30.3°F-0.9°C 27.7°F-2.4°C 90% 6.1 mph SSW9.8 kmh SSW 10.0 mph16.1 kmh 29.95 in1014.2 mb 0.00 in0.0 mm 0.00 in0.0 mm 0.00 in0.0 mm
09:24 AM 30.3°F-0.9°C 27.7°F-2.4°C 90% 6.5 mph SSW10.5 kmh SSW 10.0 mph16.1 kmh 29.95 in1014.2 mb 0.00 in0.0 mm 0.00 in0.0 mm 0.00 in0.0 mm
09:25 AM 30.3°F-0.9°C 27.7°F-2.4°C 90% 7.1 mph SW11.4 kmh SW 11.0 mph17.7 kmh 29.95 in1014.2 mb 0.00 in0.0 mm 0.00 in0.0 mm 0.00 in0.0 mm
09:26 AM 30.3°F-0.9°C 27.7°F-2.4°C 90% 7.5 mph SSW12.1 kmh SSW 11.0 mph17.7 kmh 29.95 in1014.2 mb 0.00 in0.0 mm 0.00 in0.0 mm 0.00 in0.0 mm
09:27 AM 30.3°F-0.9°C 27.7°F-2.4°C 90% 7.2 mph SSW11.6 kmh SSW 11.0 mph17.7 kmh 29.95 in1014.2 mb 0.00 in0.0 mm 0.00 in0.0 mm 0.00 in0.0 mm
09:28 AM 30.2°F-1.0°C 27.6°F-2.4°C 90% 7.6 mph SSW12.2 kmh SSW 11.0 mph17.7 kmh 29.95 in1014.2 mb 0.00 in0.0 mm 0.00 in0.0 mm 0.00 in0.0 mm
09:29 AM 30.3°F-0.9°C 27.7°F-2.4°C 90% 6.1 mph SSW9.8 kmh SSW 10.0 mph16.1 kmh 29.95 in1014.2 mb 0.00 in0.0 mm 0.00 in0.0 mm 0.00 in0.0 mm
09:30 AM 30.3°F-0.9°C 27.7°F-2.4°C 90% 6.8 mph SSW10.9 kmh SSW 10.0 mph16.1 kmh 29.95 in1014.2 mb 0.00 in0.0 mm 0.00 in0.0 mm 0.00 in0.0 mm
09:31 AM 30.3°F-0.9°C 27.7°F-2.4°C 90% 7.0 mph SSW11.3 kmh SSW 10.0 mph16.1 kmh 29.95 in1014.2 mb 0.00 in0.0 mm 0.00 in0.0 mm 0.00 in0.0 mm
09:32 AM 30.2°F-1.0°C 27.6°F-2.4°C 90% 6.9 mph SSW11.1 kmh SSW 10.0 mph16.1 kmh 29.95 in1014.2 mb 0.00 in0.0 mm 0.00 in0.0 mm 0.00 in0.0 mm
09:33 AM 30.2°F-1.0°C 27.6°F-2.4°C 90% 8.5 mph SW13.7 kmh SW 10.0 mph16.1 kmh 29.95 in1014.2 mb 0.00 in0.0 mm 0.00 in0.0 mm 0.00 in0.0 mm
09:34 AM 30.2°F-1.0°C 27.6°F-2.4°C 90% 6.2 mph SW10.0 kmh SW 10.0 mph16.1 kmh 29.95 in1014.2 mb 0.00 in0.0 mm 0.00 in0.0 mm 0.00 in0.0 mm
09:35 AM 30.3°F-0.9°C 27.7°F-2.4°C 90% 8.0 mph SW12.9 kmh SW 11.0 mph17.7 kmh 29.95 in1014.2 mb 0.00 in0.0 mm 0.00 in0.0 mm 0.00 in0.0 mm
09:36 AM 30.2°F-1.0°C 27.6°F-2.4°C 90% 7.2 mph SW11.6 kmh SW 11.0 mph17.7 kmh 29.95 in1014.2 mb 0.00 in0.0 mm 0.00 in0.0 mm 0.00 in0.0 mm
09:37 AM 30.2°F-1.0°C 27.6°F-2.4°C 90% 7.4 mph SW11.9 kmh SW 10.0 mph16.1 kmh 29.95 in1014.2 mb 0.00 in0.0 mm 0.00 in0.0 mm 0.00 in0.0 mm
09:38 AM 30.2°F-1.0°C 27.6°F-2.4°C 90% 7.1 mph SW11.4 kmh SW 10.0 mph16.1 kmh 29.95 in1014.2 mb 0.00 in0.0 mm 0.00 in0.0 mm 0.00 in0.0 mm
09:39 AM 30.2°F-1.0°C 27.6°F-2.4°C 90% 6.9 mph SW11.1 kmh SW 10.0 mph16.1 kmh 29.95 in1014.2 mb 0.00 in0.0 mm 0.00 in0.0 mm 0.00 in0.0 mm
09:40 AM 30.2°F-1.0°C 27.6°F-2.4°C 90% 8.2 mph SW13.2 kmh SW 11.0 mph17.7 kmh 29.95 in1014.2 mb 0.00 in0.0 mm 0.00 in0.0 mm 0.00 in0.0 mm
09:41 AM 30.2°F-1.0°C 27.6°F-2.4°C 90% 7.3 mph SW11.7 kmh SW 11.0 mph17.7 kmh 29.95 in1014.2 mb 0.00 in0.0 mm 0.00 in0.0 mm 0.00 in0.0 mm
09:42 AM 30.3°F-0.9°C 27.7°F-2.4°C 90% 6.9 mph SW11.1 kmh SW 10.0 mph16.1 kmh 29.95 in1014.2 mb 0.00 in0.0 mm 0.00 in0.0 mm 0.00 in0.0 mm
09:43 AM 30.3°F-0.9°C 27.7°F-2.4°C 90% 6.7 mph SW10.8 kmh SW 10.0 mph16.1 kmh 29.95 in1014.2 mb 0.00 in0.0 mm 0.00 in0.0 mm 0.00 in0.0 mm
09:44 AM 30.3°F-0.9°C 27.7°F-2.4°C 90% 9.3 mph SW15.0 kmh SW 11.0 mph17.7 kmh 29.95 in1014.2 mb 0.00 in0.0 mm 0.00 in0.0 mm 0.00 in0.0 mm
09:45 AM 30.3°F-0.9°C 27.7°F-2.4°C 90% 7.3 mph SW11.7 kmh SW 11.0 mph17.7 kmh 29.95 in1014.2 mb 0.00 in0.0 mm 0.00 in0.0 mm 0.00 in0.0 mm
09:46 AM 30.4°F-0.9°C 27.8°F-2.3°C 90% 9.5 mph SW15.3 kmh SW 12.0 mph19.3 kmh 29.95 in1014.2 mb 0.00 in0.0 mm 0.00 in0.0 mm 0.00 in0.0 mm
09:47 AM 30.4°F-0.9°C 27.8°F-2.3°C 90% 7.4 mph SW11.9 kmh SW 12.0 mph19.3 kmh 29.95 in1014.2 mb 0.00 in0.0 mm 0.00 in0.0 mm 0.00 in0.0 mm
09:48 AM 30.4°F-0.9°C 27.8°F-2.3°C 90% 9.6 mph SW15.4 kmh SW 11.0 mph17.7 kmh 29.95 in1014.2 mb 0.00 in0.0 mm 0.00 in0.0 mm 0.00 in0.0 mm
09:49 AM 30.4°F-0.9°C 28.1°F-2.2°C 91% 8.1 mph SW13.0 kmh SW 11.0 mph17.7 kmh 29.95 in1014.2 mb 0.00 in0.0 mm 0.00 in0.0 mm 0.00 in0.0 mm
09:50 AM 30.4°F-0.9°C 28.1°F-2.2°C 91% 7.0 mph SW11.3 kmh SW 10.0 mph16.1 kmh 29.95 in1014.2 mb 0.00 in0.0 mm 0.00 in0.0 mm 0.00 in0.0 mm
09:51 AM 30.5°F-0.8°C 28.2°F-2.1°C 91% 7.7 mph SW12.4 kmh SW 11.0 mph17.7 kmh 29.95 in1014.2 mb 0.00 in0.0 mm 0.00 in0.0 mm 0.00 in0.0 mm
09:52 AM 30.5°F-0.8°C 28.2°F-2.1°C 91% 7.4 mph SW11.9 kmh SW 11.0 mph17.7 kmh 29.95 in1014.2 mb 0.00 in0.0 mm 0.00 in0.0 mm 0.00 in0.0 mm
09:53 AM 30.5°F-0.8°C 28.2°F-2.1°C 91% 9.2 mph SW14.8 kmh SW 11.0 mph17.7 kmh 29.95 in1014.2 mb 0.00 in0.0 mm 0.00 in0.0 mm 0.00 in0.0 mm
09:54 AM 30.5°F-0.8°C 28.2°F-2.1°C 91% 7.9 mph SW12.7 kmh SW 11.0 mph17.7 kmh 29.95 in1014.2 mb 0.00 in0.0 mm 0.00 in0.0 mm 0.00 in0.0 mm
09:55 AM 30.5°F-0.8°C 28.2°F-2.1°C 91% 8.2 mph SW13.2 kmh SW 11.0 mph17.7 kmh 29.95 in1014.2 mb 0.00 in0.0 mm 0.00 in0.0 mm 0.00 in0.0 mm
09:56 AM 30.6°F-0.8°C 28.3°F-2.1°C 91% 8.2 mph SW13.2 kmh SW 12.0 mph19.3 kmh 29.95 in1014.2 mb 0.00 in0.0 mm 0.00 in0.0 mm 0.00 in0.0 mm
09:57 AM 30.6°F-0.8°C 28.3°F-2.1°C 91% 8.1 mph SW13.0 kmh SW 12.0 mph19.3 kmh 29.95 in1014.2 mb 0.00 in0.0 mm 0.00 in0.0 mm 0.00 in0.0 mm
09:58 AM 30.6°F-0.8°C 28.3°F-2.1°C 91% 9.7 mph SW15.6 kmh SW 11.0 mph17.7 kmh 29.95 in1014.2 mb 0.00 in0.0 mm 0.00 in0.0 mm 0.00 in0.0 mm
09:59 AM 30.6°F-0.8°C 28.3°F-2.1°C 91% 8.5 mph SW13.7 kmh SW 11.0 mph17.7 kmh 29.95 in1014.2 mb 0.00 in0.0 mm 0.00 in0.0 mm 0.00 in0.0 mm
10:00 AM 30.6°F-0.8°C 28.3°F-2.1°C 91% 7.9 mph SW12.7 kmh SW 10.0 mph16.1 kmh 29.95 in1014.2 mb 0.00 in0.0 mm 0.00 in0.0 mm 0.00 in0.0 mm
10:01 AM 30.6°F-0.8°C 28.3°F-2.1°C 91% 8.9 mph SW14.3 kmh SW 11.0 mph17.7 kmh 29.95 in1014.2 mb 0.00 in0.0 mm 0.00 in0.0 mm 0.00 in0.0 mm
10:02 AM 30.6°F-0.8°C 28.3°F-2.1°C 91% 8.7 mph SW14.0 kmh SW 11.0 mph17.7 kmh 29.95 in1014.2 mb 0.00 in0.0 mm 0.00 in0.0 mm 0.00 in0.0 mm
10:03 AM 30.6°F-0.8°C 28.3°F-2.1°C 91% 8.8 mph SW14.2 kmh SW 13.0 mph20.9 kmh 29.95 in1014.2 mb 0.00 in0.0 mm 0.00 in0.0 mm 0.00 in0.0 mm
10:04 AM 30.6°F-0.8°C 28.3°F-2.1°C 91% 8.5 mph SW13.7 kmh SW 13.0 mph20.9 kmh 29.95 in1014.2 mb 0.00 in0.0 mm 0.00 in0.0 mm 0.00 in0.0 mm
10:05 AM 30.6°F-0.8°C 28.3°F-2.1°C 91% 9.3 mph SW15.0 kmh SW 12.0 mph19.3 kmh 29.95 in1014.2 mb 0.00 in0.0 mm 0.00 in0.0 mm 0.00 in0.0 mm
10:06 AM 30.6°F-0.8°C 28.3°F-2.1°C 91% 7.5 mph SW12.1 kmh SW 12.0 mph19.3 kmh 29.95 in1014.2 mb 0.00 in0.0 mm 0.00 in0.0 mm 0.00 in0.0 mm
10:07 AM 30.5°F-0.8°C 28.2°F-2.1°C 91% 9.3 mph SW15.0 kmh SW 11.0 mph17.7 kmh 29.95 in1014.2 mb 0.00 in0.0 mm 0.00 in0.0 mm 0.00 in0.0 mm
10:08 AM 30.5°F-0.8°C 28.2°F-2.1°C 91% 10.1 mph SW16.3 kmh SW 13.0 mph20.9 kmh 29.95 in1014.2 mb 0.00 in0.0 mm 0.00 in0.0 mm 0.00 in0.0 mm
10:09 AM 30.5°F-0.8°C 28.2°F-2.1°C 91% 8.2 mph SW13.2 kmh SW 13.0 mph20.9 kmh 29.95 in1014.2 mb 0.00 in0.0 mm 0.00 in0.0 mm 0.00 in0.0 mm
10:10 AM 30.5°F-0.8°C 28.2°F-2.1°C 91% 6.9 mph SW11.1 kmh SW 11.0 mph17.7 kmh 29.95 in1014.2 mb 0.00 in0.0 mm 0.00 in0.0 mm 0.00 in0.0 mm
10:11 AM 30.5°F-0.8°C 28.2°F-2.1°C 91% 7.0 mph SW11.3 kmh SW 11.0 mph17.7 kmh 29.95 in1014.2 mb 0.00 in0.0 mm 0.00 in0.0 mm 0.00 in0.0 mm
10:12 AM 30.6°F-0.8°C 28.3°F-2.1°C 91% 6.0 mph SW9.7 kmh SW 11.0 mph17.7 kmh 29.95 in1014.2 mb 0.00 in0.0 mm 0.00 in0.0 mm 0.00 in0.0 mm
10:13 AM 30.5°F-0.8°C 28.2°F-2.1°C 91% 7.5 mph SW12.1 kmh SW 10.0 mph16.1 kmh 29.95 in1014.2 mb 0.00 in0.0 mm 0.00 in0.0 mm 0.00 in0.0 mm
10:14 AM 30.6°F-0.8°C 28.3°F-2.1°C 91% 8.2 mph SW13.2 kmh SW 10.0 mph16.1 kmh 29.95 in1014.2 mb 0.00 in0.0 mm 0.00 in0.0 mm 0.00 in0.0 mm
10:15 AM 30.6°F-0.8°C 28.3°F-2.1°C 91% 8.7 mph SW14.0 kmh SW 12.0 mph19.3 kmh 29.96 in1014.6 mb 0.00 in0.0 mm 0.00 in0.0 mm 0.00 in0.0 mm
10:16 AM 30.5°F-0.8°C 28.2°F-2.1°C 91% 8.6 mph SW13.8 kmh SW 12.0 mph19.3 kmh 29.96 in1014.6 mb 0.00 in0.0 mm 0.00 in0.0 mm 0.00 in0.0 mm
10:17 AM 30.5°F-0.8°C 28.2°F-2.1°C 91% 5.9 mph SSW9.5 kmh SSW 11.0 mph17.7 kmh 29.96 in1014.6 mb 0.00 in0.0 mm 0.00 in0.0 mm 0.00 in0.0 mm
10:18 AM 30.5°F-0.8°C 28.2°F-2.1°C 91% 7.2 mph SW11.6 kmh SW 10.0 mph16.1 kmh 29.96 in1014.6 mb 0.00 in0.0 mm 0.00 in0.0 mm 0.00 in0.0 mm
10:19 AM 30.5°F-0.8°C 28.2°F-2.1°C 91% 5.6 mph SW9.0 kmh SW 10.0 mph16.1 kmh 29.96 in1014.6 mb 0.00 in0.0 mm 0.00 in0.0 mm 0.00 in0.0 mm
10:20 AM 30.5°F-0.8°C 28.2°F-2.1°C 91% 7.7 mph SW12.4 kmh SW 9.0 mph14.5 kmh 29.96 in1014.6 mb 0.00 in0.0 mm 0.00 in0.0 mm 0.00 in0.0 mm
10:21 AM 30.6°F-0.8°C 28.3°F-2.1°C 91% 8.3 mph SW13.4 kmh SW 13.0 mph20.9 kmh 29.96 in1014.6 mb 0.00 in0.0 mm 0.00 in0.0 mm 0.00 in0.0 mm
10:22 AM 30.5°F-0.8°C 28.2°F-2.1°C 91% 8.7 mph SW14.0 kmh SW 13.0 mph20.9 kmh 29.96 in1014.6 mb 0.00 in0.0 mm 0.00 in0.0 mm 0.00 in0.0 mm
10:23 AM 30.5°F-0.8°C 28.2°F-2.1°C 91% 9.0 mph SW14.5 kmh SW 11.0 mph17.7 kmh 29.96 in1014.6 mb 0.00 in0.0 mm 0.00 in0.0 mm 0.00 in0.0 mm
10:24 AM 30.5°F-0.8°C 28.2°F-2.1°C 91% 8.5 mph SW13.7 kmh SW 12.0 mph19.3 kmh 29.96 in1014.6 mb 0.00 in0.0 mm 0.00 in0.0 mm 0.00 in0.0 mm
10:25 AM 30.5°F-0.8°C 28.2°F-2.1°C 91% 9.3 mph SW15.0 kmh SW 12.0 mph19.3 kmh 29.96 in1014.6 mb 0.00 in0.0 mm 0.00 in0.0 mm 0.00 in0.0 mm
10:26 AM 30.5°F-0.8°C 28.2°F-2.1°C 91% 7.5 mph SW12.1 kmh SW 12.0 mph19.3 kmh 29.95 in1014.2 mb 0.00 in0.0 mm 0.00 in0.0 mm 0.00 in0.0 mm
10:27 AM 30.5°F-0.8°C 28.2°F-2.1°C 91% 7.7 mph SSW12.4 kmh SSW 10.0 mph16.1 kmh 29.96 in1014.6 mb 0.00 in0.0 mm 0.00 in0.0 mm 0.00 in0.0 mm
10:28 AM 30.5°F-0.8°C 28.5°F-1.9°C 92% 8.0 mph SW12.9 kmh SW 12.0 mph19.3 kmh 29.96 in1014.6 mb 0.00 in0.0 mm 0.00 in0.0 mm 0.00 in0.0 mm
10:29 AM 30.5°F-0.8°C 28.5°F-1.9°C 92% 10.3 mph SW16.6 kmh SW 13.0 mph20.9 kmh 29.95 in1014.2 mb 0.00 in0.0 mm 0.00 in0.0 mm 0.00 in0.0 mm
10:30 AM 30.5°F-0.8°C 28.5°F-1.9°C 92% 7.6 mph SW12.2 kmh SW 13.0 mph20.9 kmh 29.95 in1014.2 mb 0.00 in0.0 mm 0.00 in0.0 mm 0.00 in0.0 mm
10:31 AM 30.6°F-0.8°C 28.6°F-1.9°C 92% 7.9 mph SW12.7 kmh SW 10.0 mph16.1 kmh 29.95 in1014.2 mb 0.00 in0.0 mm 0.00 in0.0 mm 0.00 in0.0 mm
10:32 AM 30.6°F-0.8°C 28.6°F-1.9°C 92% 7.0 mph SW11.3 kmh SW 12.0 mph19.3 kmh 29.95 in1014.2 mb 0.00 in0.0 mm 0.00 in0.0 mm 0.00 in0.0 mm
10:33 AM 30.5°F-0.8°C 28.5°F-1.9°C 92% 8.2 mph SW13.2 kmh SW 12.0 mph19.3 kmh 29.95 in1014.2 mb 0.00 in0.0 mm 0.00 in0.0 mm 0.00 in0.0 mm
10:34 AM 30.6°F-0.8°C 28.6°F-1.9°C 92% 8.1 mph SW13.0 kmh SW 11.0 mph17.7 kmh 29.96 in1014.6 mb 0.00 in0.0 mm 0.00 in0.0 mm 0.00 in0.0 mm
10:35 AM 30.6°F-0.8°C 28.6°F-1.9°C 92% 9.0 mph SW14.5 kmh SW 11.0 mph17.7 kmh 29.95 in1014.2 mb 0.00 in0.0 mm 0.00 in0.0 mm 0.00 in0.0 mm
10:36 AM 30.6°F-0.8°C 28.6°F-1.9°C 92% 8.4 mph SW13.5 kmh SW 11.0 mph17.7 kmh 29.96 in1014.6 mb 0.00 in0.0 mm 0.00 in0.0 mm 0.00 in0.0 mm
10:37 AM 30.6°F-0.8°C 28.6°F-1.9°C 92% 8.3 mph SW13.4 kmh SW 11.0 mph17.7 kmh 29.96 in1014.6 mb 0.00 in0.0 mm 0.00 in0.0 mm 0.00 in0.0 mm
10:38 AM 30.7°F-0.7°C 28.7°F-1.8°C 92% 7.7 mph SW12.4 kmh SW 11.0 mph17.7 kmh 29.96 in1014.6 mb 0.00 in0.0 mm 0.00 in0.0 mm 0.00 in0.0 mm
10:39 AM 30.7°F-0.7°C 28.7°F-1.8°C 92% 7.3 mph SW11.7 kmh SW 10.0 mph16.1 kmh 29.96 in1014.6 mb 0.00 in0.0 mm 0.00 in0.0 mm 0.00 in0.0 mm
10:40 AM 30.7°F-0.7°C 28.7°F-1.8°C 92% 5.8 mph SW9.3 kmh SW 8.0 mph12.9 kmh 29.96 in1014.6 mb 0.00 in0.0 mm 0.00 in0.0 mm 0.00 in0.0 mm
10:41 AM 30.7°F-0.7°C 28.7°F-1.8°C 92% 6.8 mph SW10.9 kmh SW 9.0 mph14.5 kmh 29.96 in1014.6 mb 0.00 in0.0 mm 0.00 in0.0 mm 0.00 in0.0 mm
10:42 AM 30.8°F-0.7°C 28.8°F-1.8°C 92% 8.5 mph SW13.7 kmh SW 11.0 mph17.7 kmh 29.96 in1014.6 mb 0.00 in0.0 mm 0.00 in0.0 mm 0.00 in0.0 mm
10:43 AM 30.8°F-0.7°C 28.8°F-1.8°C 92% 7.6 mph SW12.2 kmh SW 11.0 mph17.7 kmh 29.96 in1014.6 mb 0.00 in0.0 mm 0.00 in0.0 mm 0.00 in0.0 mm
10:44 AM 30.8°F-0.7°C 28.8°F-1.8°C 92% 7.9 mph SW12.7 kmh SW 10.0 mph16.1 kmh 29.96 in1014.6 mb 0.00 in0.0 mm 0.00 in0.0 mm 0.00 in0.0 mm
10:45 AM 30.9°F-0.6°C 28.9°F-1.7°C 92% 8.0 mph SW12.9 kmh SW 10.0 mph16.1 kmh 29.96 in1014.6 mb 0.00 in0.0 mm 0.00 in0.0 mm 0.00 in0.0 mm
10:46 AM 30.9°F-0.6°C 28.9°F-1.7°C 92% 7.3 mph SW11.7 kmh SW 10.0 mph16.1 kmh 29.96 in1014.6 mb 0.00 in0.0 mm 0.00 in0.0 mm 0.00 in0.0 mm
10:47 AM 31.0°F-0.6°C 29.0°F-1.7°C 92% 7.5 mph SW12.1 kmh SW 9.0 mph14.5 kmh 29.96 in1014.6 mb 0.00 in0.0 mm 0.00 in0.0 mm 0.00 in0.0 mm
10:48 AM 31.0°F-0.6°C 29.0°F-1.7°C 92% 7.5 mph SW12.1 kmh SW 9.0 mph14.5 kmh 29.95 in1014.2 mb 0.00 in0.0 mm 0.00 in0.0 mm 0.00 in0.0 mm
10:49 AM 31.0°F-0.6°C 29.0°F-1.7°C 92% 8.3 mph SW13.4 kmh SW 10.0 mph16.1 kmh 29.96 in1014.6 mb 0.00 in0.0 mm 0.00 in0.0 mm 0.00 in0.0 mm
10:50 AM 31.0°F-0.6°C 29.0°F-1.7°C 92% 7.9 mph SW12.7 kmh SW 10.0 mph16.1 kmh 29.96 in1014.6 mb 0.00 in0.0 mm 0.00 in0.0 mm 0.00 in0.0 mm
10:51 AM 31.1°F-0.5°C 29.1°F-1.6°C 92% 7.4 mph SW11.9 kmh SW 10.0 mph16.1 kmh 29.95 in1014.2 mb 0.00 in0.0 mm 0.00 in0.0 mm 0.00 in0.0 mm
10:52 AM 31.2°F-0.4°C 29.2°F-1.6°C 92% 6.0 mph SW9.7 kmh SW 9.0 mph14.5 kmh 29.95 in1014.2 mb 0.00 in0.0 mm 0.00 in0.0 mm 0.00 in0.0 mm
10:53 AM 31.2°F-0.4°C 29.2°F-1.6°C 92% 6.9 mph SW11.1 kmh SW 9.0 mph14.5 kmh 29.95 in1014.2 mb 0.00 in0.0 mm 0.00 in0.0 mm 0.00 in0.0 mm
10:54 AM 31.3°F-0.4°C 29.3°F-1.5°C 92% 7.8 mph SW12.6 kmh SW 10.0 mph16.1 kmh 29.95 in1014.2 mb 0.00 in0.0 mm 0.00 in0.0 mm 0.00 in0.0 mm
10:55 AM 31.3°F-0.4°C 29.3°F-1.5°C 92% 6.3 mph SW10.1 kmh SW 10.0 mph16.1 kmh 29.96 in1014.6 mb 0.00 in0.0 mm 0.00 in0.0 mm 0.00 in0.0 mm
10:56 AM 31.4°F-0.3°C 29.3°F-1.5°C 92% 4.9 mph SW7.9 kmh SW 9.0 mph14.5 kmh 29.96 in1014.6 mb 0.00 in0.0 mm 0.00 in0.0 mm 0.00 in0.0 mm
10:57 AM 31.4°F-0.3°C 29.3°F-1.5°C 92% 6.1 mph SW9.8 kmh SW 8.0 mph12.9 kmh 29.96 in1014.6 mb 0.00 in0.0 mm 0.00 in0.0 mm 0.00 in0.0 mm
10:58 AM 31.4°F-0.3°C 29.3°F-1.5°C 92% 7.2 mph SW11.6 kmh SW 10.0 mph16.1 kmh 29.96 in1014.6 mb 0.00 in0.0 mm 0.00 in0.0 mm 0.00 in0.0 mm
10:59 AM 31.5°F-0.3°C 29.4°F-1.4°C 92% 6.0 mph SW9.7 kmh SW 10.0 mph16.1 kmh 29.96 in1014.6 mb 0.00 in0.0 mm 0.00 in0.0 mm 0.00 in0.0 mm
11:00 AM 31.6°F-0.2°C 29.5°F-1.4°C 92% 5.7 mph SW9.2 kmh SW 8.0 mph12.9 kmh 29.96 in1014.6 mb 0.00 in0.0 mm 0.00 in0.0 mm 0.00 in0.0 mm
11:01 AM 31.6°F-0.2°C 29.5°F-1.4°C 92% 7.6 mph SW12.2 kmh SW 9.0 mph14.5 kmh 29.96 in1014.6 mb 0.00 in0.0 mm 0.00 in0.0 mm 0.00 in0.0 mm
11:02 AM 31.7°F-0.2°C 29.6°F-1.3°C 92% 7.5 mph SW12.1 kmh SW 10.0 mph16.1 kmh 29.96 in1014.6 mb 0.00 in0.0 mm 0.00 in0.0 mm 0.00 in0.0 mm
11:03 AM 31.8°F-0.1°C 29.7°F-1.3°C 92% 8.6 mph SW13.8 kmh SW 11.0 mph17.7 kmh 29.96 in1014.6 mb 0.00 in0.0 mm 0.00 in0.0 mm 0.00 in0.0 mm
11:04 AM 31.8°F-0.1°C 29.7°F-1.3°C 92% 7.3 mph SW11.7 kmh SW 11.0 mph17.7 kmh 29.96 in1014.6 mb 0.00 in0.0 mm 0.00 in0.0 mm 0.00 in0.0 mm
11:05 AM 31.8°F-0.1°C 29.7°F-1.3°C 92% 6.5 mph SW10.5 kmh SW 9.0 mph14.5 kmh 29.96 in1014.6 mb 0.00 in0.0 mm 0.00 in0.0 mm 0.00 in0.0 mm
11:06 AM 31.8°F-0.1°C 29.7°F-1.3°C 92% 7.3 mph SW11.7 kmh SW 11.0 mph17.7 kmh 29.96 in1014.6 mb 0.00 in0.0 mm 0.00 in0.0 mm 0.00 in0.0 mm
11:07 AM 31.9°F-0.1°C 29.8°F-1.2°C 92% 7.7 mph SW12.4 kmh SW 11.0 mph17.7 kmh 29.96 in1014.6 mb 0.00 in0.0 mm 0.00 in0.0 mm 0.00 in0.0 mm
11:08 AM 31.9°F-0.1°C 29.8°F-1.2°C 92% 7.8 mph SW12.6 kmh SW 11.0 mph17.7 kmh 29.96 in1014.6 mb 0.00 in0.0 mm 0.00 in0.0 mm 0.00 in0.0 mm
11:09 AM 32.0°F0.0°C 29.9°F-1.2°C 92% 7.6 mph SW12.2 kmh SW 11.0 mph17.7 kmh 29.96 in1014.6 mb 0.00 in0.0 mm 0.00 in0.0 mm 0.00 in0.0 mm
11:10 AM 32.0°F0.0°C 29.9°F-1.2°C 92% 5.9 mph SW9.5 kmh SW 9.0 mph14.5 kmh 29.96 in1014.6 mb 0.00 in0.0 mm 0.00 in0.0 mm 0.00 in0.0 mm
11:11 AM 32.1°F0.1°C 30.0°F-1.1°C 92% 8.6 mph SW13.8 kmh SW 10.0 mph16.1 kmh 29.96 in1014.6 mb 0.00 in0.0 mm 0.00 in0.0 mm 0.00 in0.0 mm
11:12 AM 32.1°F0.1°C 30.0°F-1.1°C 92% 6.8 mph SW10.9 kmh SW 10.0 mph16.1 kmh 29.96 in1014.6 mb 0.00 in0.0 mm 0.00 in0.0 mm 0.00 in0.0 mm
11:13 AM 32.2°F0.1°C 30.1°F-1.1°C 92% 6.8 mph SW10.9 kmh SW 10.0 mph16.1 kmh 29.96 in1014.6 mb 0.00 in0.0 mm 0.00 in0.0 mm 0.00 in0.0 mm
11:14 AM 32.3°F0.2°C 30.2°F-1.0°C 92% 7.4 mph SW11.9 kmh SW 10.0 mph16.1 kmh 29.96 in1014.6 mb 0.00 in0.0 mm 0.00 in0.0 mm 0.00 in0.0 mm
11:15 AM 32.4°F0.2°C 30.3°F-0.9°C 92% 7.6 mph SW12.2 kmh SW 11.0 mph17.7 kmh 29.96 in1014.6 mb 0.00 in0.0 mm 0.00 in0.0 mm 0.00 in0.0 mm
11:16 AM 32.5°F0.3°C 30.4°F-0.9°C 92% 8.0 mph SW12.9 kmh SW 11.0 mph17.7 kmh 29.96 in1014.6 mb 0.00 in0.0 mm 0.00 in0.0 mm 0.00 in0.0 mm
11:17 AM 32.6°F0.3°C 30.5°F-0.8°C 92% 7.2 mph SW11.6 kmh SW 11.0 mph17.7 kmh 29.96 in1014.6 mb 0.00 in0.0 mm 0.00 in0.0 mm 0.00 in0.0 mm
11:18 AM 32.6°F0.3°C 30.5°F-0.8°C 92% 8.3 mph SW13.4 kmh SW 11.0 mph17.7 kmh 29.96 in1014.6 mb 0.00 in0.0 mm 0.00 in0.0 mm 0.00 in0.0 mm
11:19 AM 32.6°F0.3°C 30.5°F-0.8°C 92% 7.0 mph SW11.3 kmh SW 11.0 mph17.7 kmh 29.96 in1014.6 mb 0.00 in0.0 mm 0.00 in0.0 mm 0.00 in0.0 mm
11:20 AM 32.7°F0.4°C 30.6°F-0.8°C 92% 7.9 mph SW12.7 kmh SW 10.0 mph16.1 kmh 29.96 in1014.6 mb 0.00 in0.0 mm 0.00 in0.0 mm 0.00 in0.0 mm
11:21 AM 32.7°F0.4°C 30.6°F-0.8°C 92% 7.1 mph SW11.4 kmh SW 10.0 mph16.1 kmh 29.96 in1014.6 mb 0.00 in0.0 mm 0.00 in0.0 mm 0.00 in0.0 mm
11:22 AM 32.8°F0.4°C 30.7°F-0.7°C 92% 5.9 mph SW9.5 kmh SW 8.0 mph12.9 kmh 29.96 in1014.6 mb 0.00 in0.0 mm 0.00 in0.0 mm 0.00 in0.0 mm
11:23 AM 32.8°F0.4°C 30.7°F-0.7°C 92% 8.0 mph SW12.9 kmh SW 10.0 mph16.1 kmh 29.96 in1014.6 mb 0.00 in0.0 mm 0.00 in0.0 mm 0.00 in0.0 mm
11:24 AM 32.8°F0.4°C 30.7°F-0.7°C 92% 7.2 mph SW11.6 kmh SW 10.0 mph16.1 kmh 29.96 in1014.6 mb 0.00 in0.0 mm 0.00 in0.0 mm 0.00 in0.0 mm
11:25 AM 32.9°F0.5°C 30.8°F-0.7°C 92% 8.3 mph SW13.4 kmh SW 11.0 mph17.7 kmh 29.96 in1014.6 mb 0.00 in0.0 mm 0.00 in0.0 mm 0.00 in0.0 mm
11:26 AM 32.9°F0.5°C 30.8°F-0.7°C 92% 7.9 mph SW12.7 kmh SW 11.0 mph17.7 kmh 29.96 in1014.6 mb 0.00 in0.0 mm 0.00 in0.0 mm 0.00 in0.0 mm
11:27 AM 33.0°F0.6°C 30.9°F-0.6°C 92% 8.1 mph SW13.0 kmh SW 10.0 mph16.1 kmh 29.96 in1014.6 mb 0.00 in0.0 mm 0.00 in0.0 mm 0.00 in0.0 mm
11:28 AM 33.1°F0.6°C 31.0°F-0.6°C 92% 6.8 mph SW10.9 kmh SW 10.0 mph16.1 kmh 29.96 in1014.6 mb 0.00 in0.0 mm 0.00 in0.0 mm 0.00 in0.0 mm
11:29 AM 33.2°F0.7°C 31.1°F-0.5°C 92% 6.4 mph SW10.3 kmh SW 10.0 mph16.1 kmh 29.96 in1014.6 mb 0.00 in0.0 mm 0.00 in0.0 mm 0.00 in0.0 mm
11:30 AM 33.2°F0.7°C 31.1°F-0.5°C 92% 8.5 mph SW13.7 kmh SW 11.0 mph17.7 kmh 29.96 in1014.6 mb 0.00 in0.0 mm 0.00 in0.0 mm 0.00 in0.0 mm
11:31 AM 33.3°F0.7°C 31.2°F-0.4°C 92% 8.4 mph SW13.5 kmh SW 11.0 mph17.7 kmh 29.96 in1014.6 mb 0.00 in0.0 mm 0.00 in0.0 mm 0.00 in0.0 mm
11:32 AM 33.4°F0.8°C 31.3°F-0.4°C 92% 6.6 mph SW10.6 kmh SW 11.0 mph17.7 kmh 29.96 in1014.6 mb 0.00 in0.0 mm 0.00 in0.0 mm 0.00 in0.0 mm
11:33 AM 33.4°F0.8°C 31.1°F-0.5°C 91% 6.9 mph SW11.1 kmh SW 10.0 mph16.1 kmh 29.96 in1014.6 mb 0.00 in0.0 mm 0.00 in0.0 mm 0.00 in0.0 mm
11:34 AM 33.5°F0.8°C 31.2°F-0.4°C 91% 6.3 mph SW10.1 kmh SW 9.0 mph14.5 kmh 29.96 in1014.6 mb 0.00 in0.0 mm 0.00 in0.0 mm 0.00 in0.0 mm
11:35 AM 33.6°F0.9°C 31.3°F-0.4°C 91% 9.6 mph SW15.4 kmh SW 12.0 mph19.3 kmh 29.96 in1014.6 mb 0.00 in0.0 mm 0.00 in0.0 mm 0.00 in0.0 mm
11:36 AM 33.7°F0.9°C 31.4°F-0.3°C 91% 8.3 mph SSW13.4 kmh SSW 12.0 mph19.3 kmh 29.96 in1014.6 mb 0.00 in0.0 mm 0.00 in0.0 mm 0.00 in0.0 mm
11:37 AM 33.8°F1.0°C 31.5°F-0.3°C 91% 7.8 mph SW12.6 kmh SW 10.0 mph16.1 kmh 29.96 in1014.6 mb 0.00 in0.0 mm 0.00 in0.0 mm 0.00 in0.0 mm
11:38 AM 33.9°F1.1°C 31.6°F-0.2°C 91% 9.2 mph SW14.8 kmh SW 10.0 mph16.1 kmh 29.96 in1014.6 mb 0.00 in0.0 mm 0.00 in0.0 mm 0.00 in0.0 mm
11:39 AM 33.9°F1.1°C 31.6°F-0.2°C 91% 7.1 mph SW11.4 kmh SW 10.0 mph16.1 kmh 29.96 in1014.6 mb 0.00 in0.0 mm 0.00 in0.0 mm 0.00 in0.0 mm
11:40 AM 34.0°F1.1°C 31.7°F-0.2°C 91% 8.1 mph SW13.0 kmh SW 10.0 mph16.1 kmh 29.96 in1014.6 mb 0.00 in0.0 mm 0.00 in0.0 mm 0.00 in0.0 mm
11:41 AM 34.1°F1.2°C 31.8°F-0.1°C 91% 8.5 mph SW13.7 kmh SW 11.0 mph17.7 kmh 29.96 in1014.6 mb 0.00 in0.0 mm 0.00 in0.0 mm 0.00 in0.0 mm
11:42 AM 34.1°F1.2°C 31.8°F-0.1°C 91% 7.4 mph SW11.9 kmh SW 11.0 mph17.7 kmh 29.96 in1014.6 mb 0.00 in0.0 mm 0.00 in0.0 mm 0.00 in0.0 mm
11:43 AM 34.2°F1.2°C 31.9°F-0.1°C 91% 7.5 mph SW12.1 kmh SW 11.0 mph17.7 kmh 29.96 in1014.6 mb 0.00 in0.0 mm 0.00 in0.0 mm 0.00 in0.0 mm
11:44 AM 34.3°F1.3°C 32.0°F0.0°C 91% 7.5 mph SW12.1 kmh SW 11.0 mph17.7 kmh 29.96 in1014.6 mb 0.00 in0.0 mm 0.00 in0.0 mm 0.00 in0.0 mm
11:45 AM 34.4°F1.3°C 32.1°F0.1°C 91% 6.6 mph SW10.6 kmh SW 10.0 mph16.1 kmh 29.96 in1014.6 mb 0.00 in0.0 mm 0.00 in0.0 mm 0.00 in0.0 mm
11:46 AM 34.4°F1.3°C 32.1°F0.1°C 91% 6.9 mph SW11.1 kmh SW 10.0 mph16.1 kmh 29.96 in1014.6 mb 0.00 in0.0 mm 0.00 in0.0 mm 0.00 in0.0 mm
11:47 AM 34.4°F1.3°C 32.1°F0.1°C 91% 9.3 mph SW15.0 kmh SW 13.0 mph20.9 kmh 29.96 in1014.6 mb 0.00 in0.0 mm 0.00 in0.0 mm 0.00 in0.0 mm
11:48 AM 34.5°F1.4°C 31.9°F-0.1°C 90% 9.7 mph SW15.6 kmh SW 13.0 mph20.9 kmh 29.96 in1014.6 mb 0.00 in0.0 mm 0.00 in0.0 mm 0.00 in0.0 mm
11:49 AM 34.5°F1.4°C 31.9°F-0.1°C 90% 8.2 mph SW13.2 kmh SW 13.0 mph20.9 kmh 29.96 in1014.6 mb 0.00 in0.0 mm 0.00 in0.0 mm 0.00 in0.0 mm
11:50 AM 34.5°F1.4°C 31.9°F-0.1°C 90% 10.0 mph SW16.1 kmh SW 14.0 mph22.5 kmh 29.96 in1014.6 mb 0.00 in0.0 mm 0.00 in0.0 mm 0.00 in0.0 mm
11:51 AM 34.6°F1.4°C 32.0°F0.0°C 90% 9.0 mph SW14.5 kmh SW 14.0 mph22.5 kmh 29.96 in1014.6 mb 0.00 in0.0 mm 0.00 in0.0 mm 0.00 in0.0 mm
11:52 AM 34.7°F1.5°C 32.1°F0.1°C 90% 9.8 mph SW15.8 kmh SW 13.0 mph20.9 kmh 29.96 in1014.6 mb 0.00 in0.0 mm 0.00 in0.0 mm 0.00 in0.0 mm
11:53 AM 34.7°F1.5°C 32.1°F0.1°C 90% 10.6 mph SW17.1 kmh SW 13.0 mph20.9 kmh 29.96 in1014.6 mb 0.00 in0.0 mm 0.00 in0.0 mm 0.00 in0.0 mm
11:54 AM 34.8°F1.6°C 31.9°F-0.1°C 89% 9.0 mph SW14.5 kmh SW 13.0 mph20.9 kmh 29.96 in1014.6 mb 0.00 in0.0 mm 0.00 in0.0 mm 0.00 in0.0 mm
11:55 AM 34.8°F1.6°C 31.9°F-0.1°C 89% 10.7 mph SW17.2 kmh SW 14.0 mph22.5 kmh 29.96 in1014.6 mb 0.00 in0.0 mm 0.00 in0.0 mm 0.00 in0.0 mm
11:56 AM 34.8°F1.6°C 31.9°F-0.1°C 89% 10.8 mph SW17.4 kmh SW 14.0 mph22.5 kmh 29.96 in1014.6 mb 0.00 in0.0 mm 0.00 in0.0 mm 0.00 in0.0 mm
11:57 AM 34.8°F1.6°C 31.9°F-0.1°C 89% 9.6 mph SW15.4 kmh SW 13.0 mph20.9 kmh 29.96 in1014.6 mb 0.00 in0.0 mm 0.00 in0.0 mm 0.00 in0.0 mm
11:58 AM 34.9°F1.6°C 32.0°F0.0°C 89% 9.6 mph SW15.4 kmh SW 13.0 mph20.9 kmh 29.96 in1014.6 mb 0.00 in0.0 mm 0.00 in0.0 mm 0.00 in0.0 mm
11:59 AM 34.9°F1.6°C 32.0°F0.0°C 89% 9.9 mph SW15.9 kmh SW 12.0 mph19.3 kmh 29.96 in1014.6 mb 0.00 in0.0 mm 0.00 in0.0 mm 0.00 in0.0 mm
12:00 PM 34.9°F1.6°C 32.0°F0.0°C 89% 10.8 mph SW17.4 kmh SW 14.0 mph22.5 kmh 29.96 in1014.6 mb 0.00 in0.0 mm 0.00 in0.0 mm 0.00 in0.0 mm
12:01 PM 35.0°F1.7°C 32.1°F0.1°C 89% 11.0 mph SW17.7 kmh SW 14.0 mph22.5 kmh 29.96 in1014.6 mb 0.00 in0.0 mm 0.00 in0.0 mm 0.00 in0.0 mm
12:02 PM 35.0°F1.7°C 32.1°F0.1°C 89% 9.1 mph SW14.6 kmh SW 13.0 mph20.9 kmh 29.96 in1014.6 mb 0.00 in0.0 mm 0.00 in0.0 mm 0.00 in0.0 mm
12:03 PM 35.0°F1.7°C 32.1°F0.1°C 89% 9.9 mph SW15.9 kmh SW 14.0 mph22.5 kmh 29.96 in1014.6 mb 0.00 in0.0 mm 0.00 in0.0 mm 0.00 in0.0 mm
12:04 PM 35.0°F1.7°C 32.1°F0.1°C 89% 10.6 mph SW17.1 kmh SW 14.0 mph22.5 kmh 29.96 in1014.6 mb 0.00 in0.0 mm 0.00 in0.0 mm 0.00 in0.0 mm
12:05 PM 35.0°F1.7°C 31.8°F-0.1°C 88% 10.8 mph SW17.4 kmh SW 14.0 mph22.5 kmh 29.97 in1014.9 mb 0.00 in0.0 mm 0.00 in0.0 mm 0.00 in0.0 mm
12:06 PM 35.1°F1.7°C 32.2°F0.1°C 89% 12.2 mph SW19.6 kmh SW 15.0 mph24.1 kmh 29.97 in1014.9 mb 0.00 in0.0 mm 0.00 in0.0 mm 0.00 in0.0 mm
12:07 PM 35.0°F1.7°C 32.1°F0.1°C 89% 11.5 mph WSW18.5 kmh WSW 15.0 mph24.1 kmh 29.97 in1014.9 mb 0.00 in0.0 mm 0.00 in0.0 mm 0.00 in0.0 mm
12:08 PM 35.1°F1.7°C 32.2°F0.1°C 89% 12.6 mph SW20.3 kmh SW 14.0 mph22.5 kmh 29.97 in1014.9 mb 0.00 in0.0 mm 0.00 in0.0 mm 0.00 in0.0 mm
12:09 PM 35.1°F1.7°C 32.2°F0.1°C 89% 12.5 mph SW20.1 kmh SW 14.0 mph22.5 kmh 29.97 in1014.9 mb 0.00 in0.0 mm 0.00 in0.0 mm 0.00 in0.0 mm
12:10 PM 35.1°F1.7°C 32.2°F0.1°C 89% 12.2 mph SW19.6 kmh SW 14.0 mph22.5 kmh 29.97 in1014.9 mb 0.00 in0.0 mm 0.00 in0.0 mm 0.00 in0.0 mm
12:11 PM 35.1°F1.7°C 32.2°F0.1°C 89% 12.7 mph SW20.4 kmh SW 14.0 mph22.5 kmh 29.97 in1014.9 mb 0.00 in0.0 mm 0.00 in0.0 mm 0.00 in0.0 mm
12:12 PM 35.2°F1.8°C 32.0°F0.0°C 88% 12.4 mph SW20.0 kmh SW 14.0 mph22.5 kmh 29.97 in1014.9 mb 0.00 in0.0 mm 0.00 in0.0 mm 0.00 in0.0 mm
12:13 PM 35.2°F1.8°C 32.0°F0.0°C 88% 12.8 mph SW20.6 kmh SW 15.0 mph24.1 kmh 29.97 in1014.9 mb 0.00 in0.0 mm 0.00 in0.0 mm 0.00 in0.0 mm
12:14 PM 35.2°F1.8°C 32.0°F0.0°C 88% 15.2 mph SW24.5 kmh SW 17.0 mph27.4 kmh 29.97 in1014.9 mb 0.00 in0.0 mm 0.00 in0.0 mm 0.00 in0.0 mm
12:15 PM 35.2°F1.8°C 32.0°F0.0°C 88% 13.5 mph SW21.7 kmh SW 17.0 mph27.4 kmh 29.97 in1014.9 mb 0.00 in0.0 mm 0.00 in0.0 mm 0.00 in0.0 mm
12:16 PM 35.2°F1.8°C 32.0°F0.0°C 88% 13.7 mph SW22.0 kmh SW 16.0 mph25.7 kmh 29.97 in1014.9 mb 0.00 in0.0 mm 0.00 in0.0 mm 0.00 in0.0 mm
12:17 PM 35.2°F1.8°C 32.0°F0.0°C 88% 15.0 mph SW24.1 kmh SW 18.0 mph29.0 kmh 29.97 in1014.9 mb 0.00 in0.0 mm 0.00 in0.0 mm 0.00 in0.0 mm
12:18 PM 35.2°F1.8°C 32.0°F0.0°C 88% 13.6 mph SW21.9 kmh SW 18.0 mph29.0 kmh 29.97 in1014.9 mb 0.00 in0.0 mm 0.00 in0.0 mm 0.00 in0.0 mm
12:19 PM 35.2°F1.8°C 32.0°F0.0°C 88% 13.6 mph SW21.9 kmh SW 16.0 mph25.7 kmh 29.96 in1014.6 mb 0.00 in0.0 mm 0.00 in0.0 mm 0.00 in0.0 mm
12:20 PM 35.2°F1.8°C 32.0°F0.0°C 88% 13.8 mph SW22.2 kmh SW 16.0 mph25.7 kmh 29.96 in1014.6 mb 0.00 in0.0 mm 0.00 in0.0 mm 0.00 in0.0 mm
12:21 PM 35.3°F1.8°C 32.1°F0.1°C 88% 12.5 mph SW20.1 kmh SW 16.0 mph25.7 kmh 29.96 in1014.6 mb 0.00 in0.0 mm 0.00 in0.0 mm 0.00 in0.0 mm
12:22 PM 35.3°F1.8°C 32.1°F0.1°C 88% 11.7 mph SW18.8 kmh SW 16.0 mph25.7 kmh 29.96 in1014.6 mb 0.00 in0.0 mm 0.00 in0.0 mm 0.00 in0.0 mm
12:23 PM 35.3°F1.8°C 32.1°F0.1°C 88% 10.4 mph SW16.7 kmh SW 16.0 mph25.7 kmh 29.97 in1014.9 mb 0.00 in0.0 mm 0.00 in0.0 mm 0.00 in0.0 mm
12:24 PM 35.3°F1.8°C 32.1°F0.1°C 88% 11.9 mph SW19.2 kmh SW 13.0 mph20.9 kmh 29.97 in1014.9 mb 0.00 in0.0 mm 0.00 in0.0 mm 0.00 in0.0 mm
12:25 PM 35.3°F1.8°C 32.1°F0.1°C 88% 11.3 mph SW18.2 kmh SW 13.0 mph20.9 kmh 29.97 in1014.9 mb 0.00 in0.0 mm 0.00 in0.0 mm 0.00 in0.0 mm
12:26 PM 35.3°F1.8°C 32.1°F0.1°C 88% 9.3 mph SW15.0 kmh SW 12.0 mph19.3 kmh 29.97 in1014.9 mb 0.00 in0.0 mm 0.00 in0.0 mm 0.00 in0.0 mm
12:27 PM 35.4°F1.9°C 32.2°F0.1°C 88% 11.3 mph SW18.2 kmh SW 14.0 mph22.5 kmh 29.97 in1014.9 mb 0.00 in0.0 mm 0.00 in0.0 mm 0.00 in0.0 mm
12:28 PM 35.3°F1.8°C 32.1°F0.1°C 88% 10.6 mph SW17.1 kmh SW 14.0 mph22.5 kmh 29.97 in1014.9 mb 0.00 in0.0 mm 0.00 in0.0 mm 0.00 in0.0 mm
12:29 PM 35.4°F1.9°C 32.2°F0.1°C 88% 11.6 mph SW18.7 kmh SW 14.0 mph22.5 kmh 29.96 in1014.6 mb 0.00 in0.0 mm 0.00 in0.0 mm 0.00 in0.0 mm
12:30 PM 35.4°F1.9°C 32.2°F0.1°C 88% 11.1 mph SW17.9 kmh SW 14.0 mph22.5 kmh 29.97 in1014.9 mb 0.00 in0.0 mm 0.00 in0.0 mm 0.00 in0.0 mm
12:31 PM 35.5°F1.9°C 32.3°F0.2°C 88% 12.5 mph SW20.1 kmh SW 15.0 mph24.1 kmh 29.96 in1014.6 mb 0.00 in0.0 mm 0.00 in0.0 mm 0.00 in0.0 mm
12:32 PM 35.5°F1.9°C 32.3°F0.2°C 88% 12.1 mph SW19.5 kmh SW 15.0 mph24.1 kmh 29.97 in1014.9 mb 0.00 in0.0 mm 0.00 in0.0 mm 0.00 in0.0 mm
12:33 PM 35.5°F1.9°C 32.3°F0.2°C 88% 11.1 mph SW17.9 kmh SW 15.0 mph24.1 kmh 29.96 in1014.6 mb 0.00 in0.0 mm 0.00 in0.0 mm 0.00 in0.0 mm
12:34 PM 35.5°F1.9°C 32.3°F0.2°C 88% 12.3 mph SW19.8 kmh SW 14.0 mph22.5 kmh 29.97 in1014.9 mb 0.00 in0.0 mm 0.00 in0.0 mm 0.00 in0.0 mm
12:35 PM 35.5°F1.9°C 32.3°F0.2°C 88% 12.7 mph SW20.4 kmh SW 14.0 mph22.5 kmh 29.96 in1014.6 mb 0.00 in0.0 mm 0.00 in0.0 mm 0.00 in0.0 mm
12:36 PM 35.5°F1.9°C 32.3°F0.2°C 88% 11.3 mph SW18.2 kmh SW 14.0 mph22.5 kmh 29.96 in1014.6 mb 0.00 in0.0 mm 0.00 in0.0 mm 0.00 in0.0 mm
12:37 PM 35.5°F1.9°C 32.3°F0.2°C 88% 12.2 mph SW19.6 kmh SW 13.0 mph20.9 kmh 29.97 in1014.9 mb 0.00 in0.0 mm 0.00 in0.0 mm 0.00 in0.0 mm
12:38 PM 35.5°F1.9°C 32.3°F0.2°C 88% 12.1 mph SW19.5 kmh SW 14.0 mph22.5 kmh 29.96 in1014.6 mb 0.00 in0.0 mm 0.00 in0.0 mm 0.00 in0.0 mm
12:39 PM 35.5°F1.9°C 32.3°F0.2°C 88% 10.6 mph SW17.1 kmh SW 14.0 mph22.5 kmh 29.96 in1014.6 mb 0.00 in0.0 mm 0.00 in0.0 mm 0.00 in0.0 mm
12:40 PM 35.5°F1.9°C 32.3°F0.2°C 88% 10.2 mph SW16.4 kmh SW 13.0 mph20.9 kmh 29.96 in1014.6 mb 0.00 in0.0 mm 0.00 in0.0 mm 0.00 in0.0 mm
12:41 PM 35.5°F1.9°C 32.3°F0.2°C 88% 11.0 mph SW17.7 kmh SW 13.0 mph20.9 kmh 29.96 in1014.6 mb 0.00 in0.0 mm 0.00 in0.0 mm 0.00 in0.0 mm
12:42 PM 35.5°F1.9°C 32.3°F0.2°C 88% 9.7 mph SW15.6 kmh SW 13.0 mph20.9 kmh 29.96 in1014.6 mb 0.00 in0.0 mm 0.00 in0.0 mm 0.00 in0.0 mm
12:43 PM 35.5°F1.9°C 32.3°F0.2°C 88% 11.7 mph SW18.8 kmh SW 14.0 mph22.5 kmh 29.96 in1014.6 mb 0.00 in0.0 mm 0.00 in0.0 mm 0.00 in0.0 mm
12:44 PM 35.5°F1.9°C 32.3°F0.2°C 88% 11.0 mph SW17.7 kmh SW 14.0 mph22.5 kmh 29.96 in1014.6 mb 0.00 in0.0 mm 0.00 in0.0 mm 0.00 in0.0 mm
12:45 PM 35.5°F1.9°C 32.3°F0.2°C 88% 10.8 mph SW17.4 kmh SW 12.0 mph19.3 kmh 29.96 in1014.6 mb 0.00 in0.0 mm 0.00 in0.0 mm 0.00 in0.0 mm
12:46 PM 35.5°F1.9°C 32.3°F0.2°C 88% 11.3 mph SW18.2 kmh SW 13.0 mph20.9 kmh 29.96 in1014.6 mb 0.00 in0.0 mm 0.00 in0.0 mm 0.00 in0.0 mm
12:47 PM 35.5°F1.9°C 32.0°F0.0°C 87% 10.6 mph SW17.1 kmh SW 13.0 mph20.9 kmh 29.96 in1014.6 mb 0.00 in0.0 mm 0.00 in0.0 mm 0.00 in0.0 mm
12:48 PM 35.5°F1.9°C 32.0°F0.0°C 87% 10.1 mph SW16.3 kmh SW 13.0 mph20.9 kmh 29.96 in1014.6 mb 0.00 in0.0 mm 0.00 in0.0 mm 0.00 in0.0 mm
12:49 PM 35.5°F1.9°C 32.0°F0.0°C 87% 10.4 mph SW16.7 kmh SW 13.0 mph20.9 kmh 29.96 in1014.6 mb 0.00 in0.0 mm 0.00 in0.0 mm 0.00 in0.0 mm
12:50 PM 35.6°F2.0°C 32.1°F0.1°C 87% 10.0 mph SW16.1 kmh SW 12.0 mph19.3 kmh 29.96 in1014.6 mb 0.00 in0.0 mm 0.00 in0.0 mm 0.00 in0.0 mm
12:51 PM 35.6°F2.0°C 32.1°F0.1°C 87% 9.3 mph SW15.0 kmh SW 11.0 mph17.7 kmh 29.96 in1014.6 mb 0.00 in0.0 mm 0.00 in0.0 mm 0.00 in0.0 mm
12:52 PM 35.7°F2.1°C 32.2°F0.1°C 87% 9.6 mph SW15.4 kmh SW 13.0 mph20.9 kmh 29.97 in1014.9 mb 0.00 in0.0 mm 0.00 in0.0 mm 0.00 in0.0 mm
12:53 PM 35.6°F2.0°C 32.1°F0.1°C 87% 9.7 mph SW15.6 kmh SW 13.0 mph20.9 kmh 29.96 in1014.6 mb 0.00 in0.0 mm 0.00 in0.0 mm 0.00 in0.0 mm
12:54 PM 35.7°F2.1°C 32.2°F0.1°C 87% 6.5 mph SW10.5 kmh SW 12.0 mph19.3 kmh 29.96 in1014.6 mb 0.00 in0.0 mm 0.00 in0.0 mm 0.00 in0.0 mm
12:55 PM 35.7°F2.1°C 32.2°F0.1°C 87% 8.4 mph SW13.5 kmh SW 11.0 mph17.7 kmh 29.96 in1014.6 mb 0.00 in0.0 mm 0.00 in0.0 mm 0.00 in0.0 mm
12:56 PM 35.7°F2.1°C 32.2°F0.1°C 87% 8.8 mph SW14.2 kmh SW 11.0 mph17.7 kmh 29.96 in1014.6 mb 0.00 in0.0 mm 0.00 in0.0 mm 0.00 in0.0 mm
12:57 PM 35.7°F2.1°C 32.2°F0.1°C 87% 8.2 mph SW13.2 kmh SW 11.0 mph17.7 kmh 29.96 in1014.6 mb 0.00 in0.0 mm 0.00 in0.0 mm 0.00 in0.0 mm
12:58 PM 35.8°F2.1°C 32.3°F0.2°C 87% 8.4 mph SW13.5 kmh SW 11.0 mph17.7 kmh 29.96 in1014.6 mb 0.00 in0.0 mm 0.00 in0.0 mm 0.00 in0.0 mm
12:59 PM 35.9°F2.2°C 32.4°F0.2°C 87% 9.1 mph SW14.6 kmh SW 11.0 mph17.7 kmh 29.96 in1014.6 mb 0.00 in0.0 mm 0.00 in0.0 mm 0.00 in0.0 mm
01:00 PM 35.9°F2.2°C 32.4°F0.2°C 87% 7.5 mph SW12.1 kmh SW 11.0 mph17.7 kmh 29.96 in1014.6 mb 0.00 in0.0 mm 0.00 in0.0 mm 0.00 in0.0 mm
01:01 PM 36.0°F2.2°C 32.5°F0.3°C 87% 7.1 mph SW11.4 kmh SW 11.0 mph17.7 kmh 29.96 in1014.6 mb 0.00 in0.0 mm 0.00 in0.0 mm 0.00 in0.0 mm
01:02 PM 36.1°F2.3°C 32.6°F0.3°C 87% 7.1 mph SW11.4 kmh SW 11.0 mph17.7 kmh 29.96 in1014.6 mb 0.00 in0.0 mm 0.00 in0.0 mm 0.00 in0.0 mm
01:03 PM 36.1°F2.3°C 32.6°F0.3°C 87% 7.4 mph SW11.9 kmh SW 10.0 mph16.1 kmh 29.96 in1014.6 mb 0.00 in0.0 mm 0.00 in0.0 mm 0.00 in0.0 mm
01:04 PM 36.2°F2.3°C 32.7°F0.4°C 87% 7.2 mph SW11.6 kmh SW 10.0 mph16.1 kmh 29.96 in1014.6 mb 0.00 in0.0 mm 0.00 in0.0 mm 0.00 in0.0 mm
01:05 PM 36.4°F2.4°C 32.6°F0.3°C 86% 6.7 mph SW10.8 kmh SW 9.0 mph14.5 kmh 29.96 in1014.6 mb 0.00 in0.0 mm 0.00 in0.0 mm 0.00 in0.0 mm
01:06 PM 36.5°F2.5°C 32.7°F0.4°C 86% 8.0 mph SW12.9 kmh SW 11.0 mph17.7 kmh 29.96 in1014.6 mb 0.00 in0.0 mm 0.00 in0.0 mm 0.00 in0.0 mm
01:07 PM 36.6°F2.6°C 32.8°F0.4°C 86% 8.1 mph SW13.0 kmh SW 11.0 mph17.7 kmh 29.96 in1014.6 mb 0.00 in0.0 mm 0.00 in0.0 mm 0.00 in0.0 mm
01:08 PM 36.6°F2.6°C 32.8°F0.4°C 86% 9.3 mph SW15.0 kmh SW 11.0 mph17.7 kmh 29.96 in1014.6 mb 0.00 in0.0 mm 0.00 in0.0 mm 0.00 in0.0 mm
01:09 PM 36.7°F2.6°C 32.6°F0.3°C 85% 7.9 mph SW12.7 kmh SW 11.0 mph17.7 kmh 29.96 in1014.6 mb 0.00 in0.0 mm 0.00 in0.0 mm 0.00 in0.0 mm
01:10 PM 36.8°F2.7°C 33.0°F0.6°C 86% 7.8 mph SW12.6 kmh SW 10.0 mph16.1 kmh 29.96 in1014.6 mb 0.00 in0.0 mm 0.00 in0.0 mm 0.00 in0.0 mm
01:11 PM 36.8°F2.7°C 32.7°F0.4°C 85% 10.0 mph SW16.1 kmh SW 13.0 mph20.9 kmh 29.96 in1014.6 mb 0.00 in0.0 mm 0.00 in0.0 mm 0.00 in0.0 mm
01:12 PM 36.9°F2.7°C 32.8°F0.4°C 85% 7.6 mph SW12.2 kmh SW 13.0 mph20.9 kmh 29.96 in1014.6 mb 0.00 in0.0 mm 0.00 in0.0 mm 0.00 in0.0 mm
01:13 PM 37.0°F2.8°C 32.9°F0.5°C 85% 8.5 mph SW13.7 kmh SW 11.0 mph17.7 kmh 29.96 in1014.6 mb 0.00 in0.0 mm 0.00 in0.0 mm 0.00 in0.0 mm
01:14 PM 37.0°F2.8°C 32.9°F0.5°C 85% 11.1 mph SW17.9 kmh SW 13.0 mph20.9 kmh 29.96 in1014.6 mb 0.00 in0.0 mm 0.00 in0.0 mm 0.00 in0.0 mm
01:15 PM 37.0°F2.8°C 32.9°F0.5°C 85% 10.3 mph SW16.6 kmh SW 13.0 mph20.9 kmh 29.96 in1014.6 mb 0.00 in0.0 mm 0.00 in0.0 mm 0.00 in0.0 mm
01:16 PM 37.1°F2.8°C 32.7°F0.4°C 84% 10.2 mph SW16.4 kmh SW 13.0 mph20.9 kmh 29.96 in1014.6 mb 0.00 in0.0 mm 0.00 in0.0 mm 0.00 in0.0 mm
01:17 PM 37.2°F2.9°C 32.8°F0.4°C 84% 8.4 mph SW13.5 kmh SW 12.0 mph19.3 kmh 29.96 in1014.6 mb 0.00 in0.0 mm 0.00 in0.0 mm 0.00 in0.0 mm
01:18 PM 37.3°F2.9°C 32.9°F0.5°C 84% 9.3 mph SW15.0 kmh SW 12.0 mph19.3 kmh 29.96 in1014.6 mb 0.00 in0.0 mm 0.00 in0.0 mm 0.00 in0.0 mm
01:19 PM 37.3°F2.9°C 32.9°F0.5°C 84% 9.2 mph SW14.8 kmh SW 13.0 mph20.9 kmh 29.96 in1014.6 mb 0.00 in0.0 mm 0.00 in0.0 mm 0.00 in0.0 mm
01:20 PM 37.3°F2.9°C 32.9°F0.5°C 84% 10.4 mph SW16.7 kmh SW 13.0 mph20.9 kmh 29.96 in1014.6 mb 0.00 in0.0 mm 0.00 in0.0 mm 0.00 in0.0 mm
01:21 PM 37.3°F2.9°C 32.6°F0.3°C 83% 11.5 mph SW18.5 kmh SW 13.0 mph20.9 kmh 29.96 in1014.6 mb 0.00 in0.0 mm 0.00 in0.0 mm 0.00 in0.0 mm
01:22 PM 37.4°F3.0°C 32.7°F0.4°C 83% 10.8 mph SW17.4 kmh SW 13.0 mph20.9 kmh 29.96 in1014.6 mb 0.00 in0.0 mm 0.00 in0.0 mm 0.00 in0.0 mm
01:23 PM 37.4°F3.0°C 32.7°F0.4°C 83% 10.4 mph SW16.7 kmh SW 13.0 mph20.9 kmh 29.96 in1014.6 mb 0.00 in0.0 mm 0.00 in0.0 mm 0.00 in0.0 mm
01:24 PM 37.5°F3.1°C 32.8°F0.4°C 83% 7.5 mph SW12.1 kmh SW 12.0 mph19.3 kmh 29.96 in1014.6 mb 0.00 in0.0 mm 0.00 in0.0 mm 0.00 in0.0 mm
01:25 PM 37.6°F3.1°C 32.9°F0.5°C 83% 10.0 mph SW16.1 kmh SW 12.0 mph19.3 kmh 29.96 in1014.6 mb 0.00 in0.0 mm 0.00 in0.0 mm 0.00 in0.0 mm
01:26 PM 37.6°F3.1°C 32.9°F0.5°C 83% 10.6 mph SW17.1 kmh SW 14.0 mph22.5 kmh 29.96 in1014.6 mb 0.00 in0.0 mm 0.00 in0.0 mm 0.00 in0.0 mm
01:27 PM 37.6°F3.1°C 32.9°F0.5°C 83% 9.0 mph SW14.5 kmh SW 14.0 mph22.5 kmh 29.96 in1014.6 mb 0.00 in0.0 mm 0.00 in0.0 mm 0.00 in0.0 mm
01:28 PM 37.7°F3.2°C 33.0°F0.6°C 83% 11.0 mph SW17.7 kmh SW 13.0 mph20.9 kmh 29.96 in1014.6 mb 0.00 in0.0 mm 0.00 in0.0 mm 0.00 in0.0 mm
01:29 PM 37.7°F3.2°C 32.7°F0.4°C 82% 10.7 mph SW17.2 kmh SW 13.0 mph20.9 kmh 29.96 in1014.6 mb 0.00 in0.0 mm 0.00 in0.0 mm 0.00 in0.0 mm
01:30 PM 37.7°F3.2°C 32.7°F0.4°C 82% 10.3 mph SW16.6 kmh SW 12.0 mph19.3 kmh 29.96 in1014.6 mb 0.00 in0.0 mm 0.00 in0.0 mm 0.00 in0.0 mm
01:31 PM 37.7°F3.2°C 32.7°F0.4°C 82% 9.7 mph SW15.6 kmh SW 12.0 mph19.3 kmh 29.96 in1014.6 mb 0.00 in0.0 mm 0.00 in0.0 mm 0.00 in0.0 mm
01:32 PM 37.7°F3.2°C 32.7°F0.4°C 82% 11.1 mph SW17.9 kmh SW 13.0 mph20.9 kmh 29.96 in1014.6 mb 0.00 in0.0 mm 0.00 in0.0 mm 0.00 in0.0 mm
01:33 PM 37.7°F3.2°C 32.7°F0.4°C 82% 11.0 mph SW17.7 kmh SW 13.0 mph20.9 kmh 29.96 in1014.6 mb 0.00 in0.0 mm 0.00 in0.0 mm 0.00 in0.0 mm
01:34 PM 37.7°F3.2°C 32.7°F0.4°C 82% 11.1 mph SW17.9 kmh SW 13.0 mph20.9 kmh 29.96 in1014.6 mb 0.00 in0.0 mm 0.00 in0.0 mm 0.00 in0.0 mm
01:35 PM 37.7°F3.2°C 32.7°F0.4°C 82% 10.4 mph SW16.7 kmh SW 13.0 mph20.9 kmh 29.96 in1014.6 mb 0.00 in0.0 mm 0.00 in0.0 mm 0.00 in0.0 mm
01:36 PM 37.7°F3.2°C 32.7°F0.4°C 82% 11.2 mph SW18.0 kmh SW 14.0 mph22.5 kmh 29.96 in1014.6 mb 0.00 in0.0 mm 0.00 in0.0 mm 0.00 in0.0 mm
01:37 PM 37.7°F3.2°C 32.7°F0.4°C 82% 11.5 mph SW18.5 kmh SW 14.0 mph22.5 kmh 29.96 in1014.6 mb 0.00 in0.0 mm 0.00 in0.0 mm 0.00 in0.0 mm
01:38 PM 37.7°F3.2°C 32.7°F0.4°C 82% 12.1 mph SW19.5 kmh SW 14.0 mph22.5 kmh 29.96 in1014.6 mb 0.00 in0.0 mm 0.00 in0.0 mm 0.00 in0.0 mm
01:39 PM 37.7°F3.2°C 32.7°F0.4°C 82% 10.6 mph SW17.1 kmh SW 14.0 mph22.5 kmh 29.96 in1014.6 mb 0.00 in0.0 mm 0.00 in0.0 mm 0.00 in0.0 mm
01:40 PM 37.7°F3.2°C 32.7°F0.4°C 82% 12.8 mph SW20.6 kmh SW 14.0 mph22.5 kmh 29.96 in1014.6 mb 0.00 in0.0 mm 0.00 in0.0 mm 0.00 in0.0 mm
01:41 PM 37.8°F3.2°C 32.5°F0.3°C 81% 12.1 mph SW19.5 kmh SW 14.0 mph22.5 kmh 29.96 in1014.6 mb 0.00 in0.0 mm 0.00 in0.0 mm 0.00 in0.0 mm
01:42 PM 37.8°F3.2°C 32.5°F0.3°C 81% 11.4 mph SW18.3 kmh SW 14.0 mph22.5 kmh 29.96 in1014.6 mb 0.00 in0.0 mm 0.00 in0.0 mm 0.00 in0.0 mm
01:43 PM 37.8°F3.2°C 32.5°F0.3°C 81% 11.6 mph SW18.7 kmh SW 14.0 mph22.5 kmh 29.96 in1014.6 mb 0.00 in0.0 mm 0.00 in0.0 mm 0.00 in0.0 mm
01:44 PM 37.7°F3.2°C 32.4°F0.2°C 81% 11.7 mph SW18.8 kmh SW 13.0 mph20.9 kmh 29.96 in1014.6 mb 0.00 in0.0 mm 0.00 in0.0 mm 0.00 in0.0 mm
01:45 PM 37.7°F3.2°C 32.4°F0.2°C 81% 11.1 mph SW17.9 kmh SW 13.0 mph20.9 kmh 29.96 in1014.6 mb 0.00 in0.0 mm 0.00 in0.0 mm 0.00 in0.0 mm
01:46 PM 37.7°F3.2°C 32.4°F0.2°C 81% 12.6 mph SW20.3 kmh SW 14.0 mph22.5 kmh 29.96 in1014.6 mb 0.00 in0.0 mm 0.00 in0.0 mm 0.00 in0.0 mm
01:47 PM 37.7°F3.2°C 32.4°F0.2°C 81% 11.0 mph SW17.7 kmh SW 14.0 mph22.5 kmh 29.96 in1014.6 mb 0.00 in0.0 mm 0.00 in0.0 mm 0.00 in0.0 mm
01:48 PM 37.8°F3.2°C 32.5°F0.3°C 81% 11.8 mph SW19.0 kmh SW 13.0 mph20.9 kmh 29.96 in1014.6 mb 0.00 in0.0 mm 0.00 in0.0 mm 0.00 in0.0 mm
01:49 PM 37.8°F3.2°C 32.5°F0.3°C 81% 10.1 mph SW16.3 kmh SW 13.0 mph20.9 kmh 29.96 in1014.6 mb 0.00 in0.0 mm 0.00 in0.0 mm 0.00 in0.0 mm
01:50 PM 37.8°F3.2°C 32.5°F0.3°C 81% 11.7 mph SW18.8 kmh SW 14.0 mph22.5 kmh 29.96 in1014.6 mb 0.00 in0.0 mm 0.00 in0.0 mm 0.00 in0.0 mm
01:51 PM 37.8°F3.2°C 32.5°F0.3°C 81% 12.5 mph SW20.1 kmh SW 14.0 mph22.5 kmh 29.96 in1014.6 mb 0.00 in0.0 mm 0.00 in0.0 mm 0.00 in0.0 mm
01:52 PM 37.8°F3.2°C 32.5°F0.3°C 81% 12.5 mph SW20.1 kmh SW 14.0 mph22.5 kmh 29.96 in1014.6 mb 0.00 in0.0 mm 0.00 in0.0 mm 0.00 in0.0 mm
01:53 PM 37.9°F3.3°C 32.6°F0.3°C 81% 11.8 mph SW19.0 kmh SW 14.0 mph22.5 kmh 29.96 in1014.6 mb 0.00 in0.0 mm 0.00 in0.0 mm 0.00 in0.0 mm
01:54 PM 37.9°F3.3°C 32.6°F0.3°C 81% 12.2 mph SW19.6 kmh SW 14.0 mph22.5 kmh 29.96 in1014.6 mb 0.00 in0.0 mm 0.00 in0.0 mm 0.00 in0.0 mm
01:55 PM 37.9°F3.3°C 32.3°F0.2°C 80% 11.8 mph SW19.0 kmh SW 14.0 mph22.5 kmh 29.96 in1014.6 mb 0.00 in0.0 mm 0.00 in0.0 mm 0.00 in0.0 mm
01:56 PM 37.9°F3.3°C 32.3°F0.2°C 80% 12.0 mph SW19.3 kmh SW 14.0 mph22.5 kmh 29.96 in1014.6 mb 0.00 in0.0 mm 0.00 in0.0 mm 0.00 in0.0 mm
01:57 PM 37.9°F3.3°C 32.3°F0.2°C 80% 11.4 mph SW18.3 kmh SW 14.0 mph22.5 kmh 29.96 in1014.6 mb 0.00 in0.0 mm 0.00 in0.0 mm 0.00 in0.0 mm
01:58 PM 37.8°F3.2°C 32.2°F0.1°C 80% 12.3 mph SW19.8 kmh SW 14.0 mph22.5 kmh 29.96 in1014.6 mb 0.00 in0.0 mm 0.00 in0.0 mm 0.00 in0.0 mm
01:59 PM 37.8°F3.2°C 32.2°F0.1°C 80% 11.6 mph SW18.7 kmh SW 14.0 mph22.5 kmh 29.96 in1014.6 mb 0.00 in0.0 mm 0.00 in0.0 mm 0.00 in0.0 mm
02:00 PM 37.8°F3.2°C 32.2°F0.1°C 80% 11.5 mph SW18.5 kmh SW 13.0 mph20.9 kmh 29.96 in1014.6 mb 0.00 in0.0 mm 0.00 in0.0 mm 0.00 in0.0 mm
02:01 PM 37.9°F3.3°C 32.3°F0.2°C 80% 12.8 mph SW20.6 kmh SW 15.0 mph24.1 kmh 29.96 in1014.6 mb 0.00 in0.0 mm 0.00 in0.0 mm 0.00 in0.0 mm
02:02 PM 37.9°F3.3°C 32.3°F0.2°C 80% 11.9 mph SW19.2 kmh SW 15.0 mph24.1 kmh 29.96 in1014.6 mb 0.00 in0.0 mm 0.00 in0.0 mm 0.00 in0.0 mm
02:03 PM 37.9°F3.3°C 32.3°F0.2°C 80% 10.5 mph SW16.9 kmh SW 14.0 mph22.5 kmh 29.96 in1014.6 mb 0.00 in0.0 mm 0.00 in0.0 mm 0.00 in0.0 mm
02:04 PM 37.8°F3.2°C 32.2°F0.1°C 80% 13.5 mph SW21.7 kmh SW 16.0 mph25.7 kmh 29.96 in1014.6 mb 0.00 in0.0 mm 0.00 in0.0 mm 0.00 in0.0 mm
02:05 PM 37.8°F3.2°C 32.2°F0.1°C 80% 12.3 mph SW19.8 kmh SW 16.0 mph25.7 kmh 29.96 in1014.6 mb 0.00 in0.0 mm 0.00 in0.0 mm 0.00 in0.0 mm
02:06 PM 37.8°F3.2°C 32.2°F0.1°C 80% 14.0 mph SW22.5 kmh SW 16.0 mph25.7 kmh 29.96 in1014.6 mb 0.00 in0.0 mm 0.00 in0.0 mm 0.00 in0.0 mm
02:07 PM 37.8°F3.2°C 32.2°F0.1°C 80% 13.4 mph SW21.6 kmh SW 16.0 mph25.7 kmh 29.96 in1014.6 mb 0.00 in0.0 mm 0.00 in0.0 mm 0.00 in0.0 mm
02:08 PM 37.7°F3.2°C 32.1°F0.1°C 80% 14.4 mph SW23.2 kmh SW 16.0 mph25.7 kmh 29.96 in1014.6 mb 0.00 in0.0 mm 0.00 in0.0 mm 0.00 in0.0 mm
02:09 PM 37.7°F3.2°C 32.1°F0.1°C 80% 12.7 mph SW20.4 kmh SW 16.0 mph25.7 kmh 29.96 in1014.6 mb 0.00 in0.0 mm 0.00 in0.0 mm 0.00 in0.0 mm
02:10 PM 37.7°F3.2°C 32.4°F0.2°C 81% 13.4 mph SW21.6 kmh SW 15.0 mph24.1 kmh 29.96 in1014.6 mb 0.00 in0.0 mm 0.00 in0.0 mm 0.00 in0.0 mm
02:11 PM 37.7°F3.2°C 32.4°F0.2°C 81% 12.9 mph SW20.8 kmh SW 15.0 mph24.1 kmh 29.96 in1014.6 mb 0.00 in0.0 mm 0.00 in0.0 mm 0.00 in0.0 mm
02:12 PM 37.7°F3.2°C 32.4°F0.2°C 81% 14.0 mph WSW22.5 kmh WSW 16.0 mph25.7 kmh 29.96 in1014.6 mb 0.00 in0.0 mm 0.00 in0.0 mm 0.00 in0.0 mm
02:13 PM 37.7°F3.2°C 32.4°F0.2°C 81% 12.7 mph SW20.4 kmh SW 16.0 mph25.7 kmh 29.96 in1014.6 mb 0.00 in0.0 mm 0.00 in0.0 mm 0.00 in0.0 mm
02:14 PM 37.7°F3.2°C 32.4°F0.2°C 81% 13.2 mph SW21.2 kmh SW 16.0 mph25.7 kmh 29.96 in1014.6 mb 0.00 in0.0 mm 0.00 in0.0 mm 0.00 in0.0 mm
02:15 PM 37.7°F3.2°C 32.4°F0.2°C 81% 12.9 mph SW20.8 kmh SW 16.0 mph25.7 kmh 29.96 in1014.6 mb 0.00 in0.0 mm 0.00 in0.0 mm 0.00 in0.0 mm
02:16 PM 37.7°F3.2°C 32.4°F0.2°C 81% 13.5 mph WSW21.7 kmh WSW 15.0 mph24.1 kmh 29.96 in1014.6 mb 0.00 in0.0 mm 0.00 in0.0 mm 0.00 in0.0 mm
02:17 PM 37.8°F3.2°C 32.5°F0.3°C 81% 12.5 mph SW20.1 kmh SW 14.0 mph22.5 kmh 29.96 in1014.6 mb 0.00 in0.0 mm 0.00 in0.0 mm 0.00 in0.0 mm
02:18 PM 37.8°F3.2°C 32.5°F0.3°C 81% 13.5 mph SW21.7 kmh SW 16.0 mph25.7 kmh 29.96 in1014.6 mb 0.00 in0.0 mm 0.00 in0.0 mm 0.00 in0.0 mm
02:19 PM 37.8°F3.2°C 32.5°F0.3°C 81% 13.1 mph SW21.1 kmh SW 16.0 mph25.7 kmh 29.96 in1014.6 mb 0.00 in0.0 mm 0.00 in0.0 mm 0.00 in0.0 mm
02:20 PM 37.8°F3.2°C 32.5°F0.3°C 81% 13.9 mph SW22.4 kmh SW 16.0 mph25.7 kmh 29.96 in1014.6 mb 0.00 in0.0 mm 0.00 in0.0 mm 0.00 in0.0 mm
02:21 PM 37.8°F3.2°C 32.5°F0.3°C 81% 12.1 mph SW19.5 kmh SW 16.0 mph25.7 kmh 29.96 in1014.6 mb 0.00 in0.0 mm 0.00 in0.0 mm 0.00 in0.0 mm
02:22 PM 37.8°F3.2°C 32.5°F0.3°C 81% 10.9 mph SW17.5 kmh SW 14.0 mph22.5 kmh 29.96 in1014.6 mb 0.00 in0.0 mm 0.00 in0.0 mm 0.00 in0.0 mm
02:23 PM 37.8°F3.2°C 32.5°F0.3°C 81% 12.2 mph SW19.6 kmh SW 14.0 mph22.5 kmh 29.96 in1014.6 mb 0.00 in0.0 mm 0.00 in0.0 mm 0.00 in0.0 mm
02:24 PM 37.9°F3.3°C 32.6°F0.3°C 81% 10.3 mph SW16.6 kmh SW 14.0 mph22.5 kmh 29.96 in1014.6 mb 0.00 in0.0 mm 0.00 in0.0 mm 0.00 in0.0 mm
02:25 PM 37.9°F3.3°C 32.6°F0.3°C 81% 11.8 mph SW19.0 kmh SW 14.0 mph22.5 kmh 29.96 in1014.6 mb 0.00 in0.0 mm 0.00 in0.0 mm 0.00 in0.0 mm
02:26 PM 37.9°F3.3°C 32.6°F0.3°C 81% 11.9 mph SW19.2 kmh SW 15.0 mph24.1 kmh 29.96 in1014.6 mb 0.00 in0.0 mm 0.00 in0.0 mm 0.00 in0.0 mm
02:27 PM 37.9°F3.3°C 32.6°F0.3°C 81% 13.6 mph SW21.9 kmh SW 15.0 mph24.1 kmh 29.96 in1014.6 mb 0.00 in0.0 mm 0.00 in0.0 mm 0.00 in0.0 mm
02:28 PM 37.9°F3.3°C 32.6°F0.3°C 81% 13.2 mph SW21.2 kmh SW 15.0 mph24.1 kmh 29.96 in1014.6 mb 0.00 in0.0 mm 0.00 in0.0 mm 0.00 in0.0 mm
02:29 PM 37.9°F3.3°C 32.6°F0.3°C 81% 11.8 mph SW19.0 kmh SW 15.0 mph24.1 kmh 29.96 in1014.6 mb 0.00 in0.0 mm 0.00 in0.0 mm 0.00 in0.0 mm
02:30 PM 37.9°F3.3°C 32.6°F0.3°C 81% 10.8 mph SW17.4 kmh SW 14.0 mph22.5 kmh 29.96 in1014.6 mb 0.00 in0.0 mm 0.00 in0.0 mm 0.00 in0.0 mm
02:31 PM 37.9°F3.3°C 32.6°F0.3°C 81% 11.6 mph SW18.7 kmh SW 13.0 mph20.9 kmh 29.96 in1014.6 mb 0.00 in0.0 mm 0.00 in0.0 mm 0.00 in0.0 mm
02:32 PM 37.9°F3.3°C 32.6°F0.3°C 81% 11.7 mph SW18.8 kmh SW 14.0 mph22.5 kmh 29.96 in1014.6 mb 0.00 in0.0 mm 0.00 in0.0 mm 0.00 in0.0 mm
02:33 PM 37.8°F3.2°C 32.5°F0.3°C 81% 12.1 mph SW19.5 kmh SW 14.0 mph22.5 kmh 29.96 in1014.6 mb 0.00 in0.0 mm 0.00 in0.0 mm 0.00 in0.0 mm
02:34 PM 37.8°F3.2°C 32.5°F0.3°C 81% 12.6 mph SW20.3 kmh SW 16.0 mph25.7 kmh 29.96 in1014.6 mb 0.00 in0.0 mm 0.00 in0.0 mm 0.00 in0.0 mm
02:35 PM 37.9°F3.3°C 32.6°F0.3°C 81% 13.7 mph SW22.0 kmh SW 16.0 mph25.7 kmh 29.96 in1014.6 mb 0.00 in0.0 mm 0.00 in0.0 mm 0.00 in0.0 mm
02:36 PM 37.9°F3.3°C 32.3°F0.2°C 80% 12.2 mph SW19.6 kmh SW 15.0 mph24.1 kmh 29.96 in1014.6 mb 0.00 in0.0 mm 0.00 in0.0 mm 0.00 in0.0 mm
02:37 PM 37.9°F3.3°C 32.6°F0.3°C 81% 12.9 mph SW20.8 kmh SW 15.0 mph24.1 kmh 29.96 in1014.6 mb 0.00 in0.0 mm 0.00 in0.0 mm 0.00 in0.0 mm
02:38 PM 38.0°F3.3°C 32.4°F0.2°C 80% 12.8 mph SW20.6 kmh SW 15.0 mph24.1 kmh 29.96 in1014.6 mb 0.00 in0.0 mm 0.00 in0.0 mm 0.00 in0.0 mm
02:39 PM 38.0°F3.3°C 32.4°F0.2°C 80% 13.3 mph SW21.4 kmh SW 15.0 mph24.1 kmh 29.96 in1014.6 mb 0.00 in0.0 mm 0.00 in0.0 mm 0.00 in0.0 mm
02:40 PM 38.0°F3.3°C 32.4°F0.2°C 80% 12.2 mph SW19.6 kmh SW 15.0 mph24.1 kmh 29.96 in1014.6 mb 0.00 in0.0 mm 0.00 in0.0 mm 0.00 in0.0 mm
02:41 PM 38.1°F3.4°C 32.5°F0.3°C 80% 11.2 mph SW18.0 kmh SW 14.0 mph22.5 kmh 29.96 in1014.6 mb 0.00 in0.0 mm 0.00 in0.0 mm 0.00 in0.0 mm
02:42 PM 38.0°F3.3°C 32.4°F0.2°C 80% 12.6 mph SW20.3 kmh SW 15.0 mph24.1 kmh 29.96 in1014.6 mb 0.00 in0.0 mm 0.00 in0.0 mm 0.00 in0.0 mm
02:43 PM 38.0°F3.3°C 32.4°F0.2°C 80% 12.3 mph SW19.8 kmh SW 15.0 mph24.1 kmh 29.96 in1014.6 mb 0.00 in0.0 mm 0.00 in0.0 mm 0.00 in0.0 mm
02:44 PM 38.0°F3.3°C 32.4°F0.2°C 80% 11.8 mph SW19.0 kmh SW 15.0 mph24.1 kmh 29.96 in1014.6 mb 0.00 in0.0 mm 0.00 in0.0 mm 0.00 in0.0 mm
02:45 PM 38.0°F3.3°C 32.4°F0.2°C 80% 13.4 mph SW21.6 kmh SW 15.0 mph24.1 kmh 29.96 in1014.6 mb 0.00 in0.0 mm 0.00 in0.0 mm 0.00 in0.0 mm
02:46 PM 38.0°F3.3°C 32.4°F0.2°C 80% 12.7 mph SW20.4 kmh SW 15.0 mph24.1 kmh 29.96 in1014.6 mb 0.00 in0.0 mm 0.00 in0.0 mm 0.00 in0.0 mm
02:47 PM 38.0°F3.3°C 32.4°F0.2°C 80% 11.8 mph SW19.0 kmh SW 14.0 mph22.5 kmh 29.96 in1014.6 mb 0.00 in0.0 mm 0.00 in0.0 mm 0.00 in0.0 mm
02:48 PM 38.0°F3.3°C 32.4°F0.2°C 80% 13.0 mph SW20.9 kmh SW 15.0 mph24.1 kmh 29.96 in1014.6 mb 0.00 in0.0 mm 0.00 in0.0 mm 0.00 in0.0 mm
02:49 PM 38.0°F3.3°C 32.4°F0.2°C 80% 12.1 mph SW19.5 kmh SW 15.0 mph24.1 kmh 29.96 in1014.6 mb 0.00 in0.0 mm 0.00 in0.0 mm 0.00 in0.0 mm
02:50 PM 38.0°F3.3°C 32.4°F0.2°C 80% 12.4 mph SW20.0 kmh SW 14.0 mph22.5 kmh 29.96 in1014.6 mb 0.00 in0.0 mm 0.00 in0.0 mm 0.00 in0.0 mm
02:51 PM 38.0°F3.3°C 32.4°F0.2°C 80% 11.6 mph SW18.7 kmh SW 14.0 mph22.5 kmh 29.96 in1014.6 mb 0.00 in0.0 mm 0.00 in0.0 mm 0.00 in0.0 mm
02:52 PM 38.0°F3.3°C 32.4°F0.2°C 80% 12.2 mph SW19.6 kmh SW 14.0 mph22.5 kmh 29.96 in1014.6 mb 0.00 in0.0 mm 0.00 in0.0 mm 0.00 in0.0 mm
02:53 PM 37.9°F3.3°C 32.3°F0.2°C 80% 11.7 mph SW18.8 kmh SW 13.0 mph20.9 kmh 29.96 in1014.6 mb 0.00 in0.0 mm 0.00 in0.0 mm 0.00 in0.0 mm
02:54 PM 38.0°F3.3°C 32.4°F0.2°C 80% 12.2 mph SW19.6 kmh SW 15.0 mph24.1 kmh 29.96 in1014.6 mb 0.00 in0.0 mm 0.00 in0.0 mm 0.00 in0.0 mm
02:55 PM 37.9°F3.3°C 32.3°F0.2°C 80% 10.9 mph SW17.5 kmh SW 15.0 mph24.1 kmh 29.96 in1014.6 mb 0.00 in0.0 mm 0.00 in0.0 mm 0.00 in0.0 mm
02:56 PM 38.0°F3.3°C 32.4°F0.2°C 80% 10.9 mph SW17.5 kmh SW 13.0 mph20.9 kmh 29.96 in1014.6 mb 0.00 in0.0 mm 0.00 in0.0 mm 0.00 in0.0 mm
02:57 PM 38.0°F3.3°C 32.4°F0.2°C 80% 10.2 mph SW16.4 kmh SW 13.0 mph20.9 kmh 29.96 in1014.6 mb 0.00 in0.0 mm 0.00 in0.0 mm 0.00 in0.0 mm
02:58 PM 38.0°F3.3°C 32.4°F0.2°C 80% 12.5 mph SW20.1 kmh SW 14.0 mph22.5 kmh 29.96 in1014.6 mb 0.00 in0.0 mm 0.00 in0.0 mm 0.00 in0.0 mm
02:59 PM 38.1°F3.4°C 32.5°F0.3°C 80% 11.8 mph SW19.0 kmh SW 14.0 mph22.5 kmh 29.96 in1014.6 mb 0.00 in0.0 mm 0.00 in0.0 mm 0.00 in0.0 mm
03:00 PM 38.1°F3.4°C 32.5°F0.3°C 80% 10.7 mph SW17.2 kmh SW 14.0 mph22.5 kmh 29.96 in1014.6 mb 0.00 in0.0 mm 0.00 in0.0 mm 0.00 in0.0 mm
03:01 PM 38.1°F3.4°C 32.5°F0.3°C 80% 10.2 mph SW16.4 kmh SW 14.0 mph22.5 kmh 29.96 in1014.6 mb 0.00 in0.0 mm 0.00 in0.0 mm 0.00 in0.0 mm
03:02 PM 38.1°F3.4°C 32.5°F0.3°C 80% 10.6 mph SW17.1 kmh SW 13.0 mph20.9 kmh 29.96 in1014.6 mb 0.00 in0.0 mm 0.00 in0.0 mm 0.00 in0.0 mm
03:03 PM 38.2°F3.4°C 32.6°F0.3°C 80% 11.0 mph SW17.7 kmh SW 13.0 mph20.9 kmh 29.96 in1014.6 mb 0.00 in0.0 mm 0.00 in0.0 mm 0.00 in0.0 mm
03:04 PM 38.2°F3.4°C 32.6°F0.3°C 80% 11.0 mph SW17.7 kmh SW 13.0 mph20.9 kmh 29.96 in1014.6 mb 0.00 in0.0 mm 0.00 in0.0 mm 0.00 in0.0 mm
03:05 PM 38.2°F3.4°C 32.6°F0.3°C 80% 11.9 mph SW19.2 kmh SW 13.0 mph20.9 kmh 29.96 in1014.6 mb 0.00 in0.0 mm 0.00 in0.0 mm 0.00 in0.0 mm
03:06 PM 38.2°F3.4°C 32.6°F0.3°C 80% 12.1 mph SW19.5 kmh SW 14.0 mph22.5 kmh 29.96 in1014.6 mb 0.00 in0.0 mm 0.00 in0.0 mm 0.00 in0.0 mm
03:07 PM 38.2°F3.4°C 32.3°F0.2°C 79% 11.8 mph SW19.0 kmh SW 14.0 mph22.5 kmh 29.96 in1014.6 mb 0.00 in0.0 mm 0.00 in0.0 mm 0.00 in0.0 mm
03:08 PM 38.2°F3.4°C 32.3°F0.2°C 79% 11.6 mph SW18.7 kmh SW 14.0 mph22.5 kmh 29.96 in1014.6 mb 0.00 in0.0 mm 0.00 in0.0 mm 0.00 in0.0 mm
03:09 PM 38.2°F3.4°C 32.3°F0.2°C 79% 11.3 mph SW18.2 kmh SW 14.0 mph22.5 kmh 29.96 in1014.6 mb 0.00 in0.0 mm 0.00 in0.0 mm 0.00 in0.0 mm
03:10 PM 38.2°F3.4°C 32.3°F0.2°C 79% 11.0 mph SW17.7 kmh SW 14.0 mph22.5 kmh 29.96 in1014.6 mb 0.00 in0.0 mm 0.00 in0.0 mm 0.00 in0.0 mm
03:11 PM 38.2°F3.4°C 32.3°F0.2°C 79% 10.5 mph SW16.9 kmh SW 14.0 mph22.5 kmh 29.96 in1014.6 mb 0.00 in0.0 mm 0.00 in0.0 mm 0.00 in0.0 mm
03:12 PM 38.3°F3.5°C 32.4°F0.2°C 79% 11.5 mph SW18.5 kmh SW 14.0 mph22.5 kmh 29.96 in1014.6 mb 0.00 in0.0 mm 0.00 in0.0 mm 0.00 in0.0 mm
03:13 PM 38.3°F3.5°C 32.4°F0.2°C 79% 12.4 mph SW20.0 kmh SW 15.0 mph24.1 kmh 29.96 in1014.6 mb 0.00 in0.0 mm 0.00 in0.0 mm 0.00 in0.0 mm
03:14 PM 38.3°F3.5°C 32.4°F0.2°C 79% 11.7 mph SW18.8 kmh SW 15.0 mph24.1 kmh 29.96 in1014.6 mb 0.00 in0.0 mm 0.00 in0.0 mm 0.00 in0.0 mm
03:15 PM 38.4°F3.6°C 32.5°F0.3°C 79% 10.9 mph SW17.5 kmh SW 13.0 mph20.9 kmh 29.96 in1014.6 mb 0.00 in0.0 mm 0.00 in0.0 mm 0.00 in0.0 mm
03:16 PM 38.4°F3.6°C 32.5°F0.3°C 79% 10.9 mph SW17.5 kmh SW 14.0 mph22.5 kmh 29.96 in1014.6 mb 0.00 in0.0 mm 0.00 in0.0 mm 0.00 in0.0 mm
03:17 PM 38.4°F3.6°C 32.2°F0.1°C 78% 10.4 mph SW16.7 kmh SW 14.0 mph22.5 kmh 29.96 in1014.6 mb 0.00 in0.0 mm 0.00 in0.0 mm 0.00 in0.0 mm
03:18 PM 38.4°F3.6°C 32.2°F0.1°C 78% 12.0 mph SW19.3 kmh SW 14.0 mph22.5 kmh 29.96 in1014.6 mb 0.00 in0.0 mm 0.00 in0.0 mm 0.00 in0.0 mm
03:19 PM 38.4°F3.6°C 32.2°F0.1°C 78% 11.8 mph SW19.0 kmh SW 14.0 mph22.5 kmh 29.96 in1014.6 mb 0.00 in0.0 mm 0.00 in0.0 mm 0.00 in0.0 mm
03:20 PM 38.4°F3.6°C 32.2°F0.1°C 78% 10.8 mph SW17.4 kmh SW 14.0 mph22.5 kmh 29.96 in1014.6 mb 0.00 in0.0 mm 0.00 in0.0 mm 0.00 in0.0 mm
03:21 PM 38.5°F3.6°C 32.2°F0.1°C 78% 11.3 mph SW18.2 kmh SW 14.0 mph22.5 kmh 29.96 in1014.6 mb 0.00 in0.0 mm 0.00 in0.0 mm 0.00 in0.0 mm
03:22 PM 38.4°F3.6°C 32.2°F0.1°C 78% 10.4 mph SW16.7 kmh SW 14.0 mph22.5 kmh 29.96 in1014.6 mb 0.00 in0.0 mm 0.00 in0.0 mm 0.00 in0.0 mm
03:23 PM 38.5°F3.6°C 32.2°F0.1°C 78% 11.2 mph SW18.0 kmh SW 14.0 mph22.5 kmh 29.96 in1014.6 mb 0.00 in0.0 mm 0.00 in0.0 mm 0.00 in0.0 mm
03:24 PM 38.5°F3.6°C 32.2°F0.1°C 78% 11.6 mph SW18.7 kmh SW 13.0 mph20.9 kmh 29.96 in1014.6 mb 0.00 in0.0 mm 0.00 in0.0 mm 0.00 in0.0 mm
03:25 PM 38.5°F3.6°C 32.2°F0.1°C 78% 13.0 mph SW20.9 kmh SW 16.0 mph25.7 kmh 29.96 in1014.6 mb 0.00 in0.0 mm 0.00 in0.0 mm 0.00 in0.0 mm
03:26 PM 38.5°F3.6°C 31.9°F-0.1°C 77% 11.7 mph SW18.8 kmh SW 16.0 mph25.7 kmh 29.96 in1014.6 mb 0.00 in0.0 mm 0.00 in0.0 mm 0.00 in0.0 mm
03:27 PM 38.5°F3.6°C 31.9°F-0.1°C 77% 12.2 mph SW19.6 kmh SW 15.0 mph24.1 kmh 29.96 in1014.6 mb 0.00 in0.0 mm 0.00 in0.0 mm 0.00 in0.0 mm
03:28 PM 38.5°F3.6°C 31.9°F-0.1°C 77% 11.6 mph SW18.7 kmh SW 14.0 mph22.5 kmh 29.96 in1014.6 mb 0.00 in0.0 mm 0.00 in0.0 mm 0.00 in0.0 mm
03:29 PM 38.5°F3.6°C 31.9°F-0.1°C 77% 11.5 mph SW18.5 kmh SW 15.0 mph24.1 kmh 29.96 in1014.6 mb 0.00 in0.0 mm 0.00 in0.0 mm 0.00 in0.0 mm
03:30 PM 38.5°F3.6°C 31.9°F-0.1°C 77% 10.8 mph SW17.4 kmh SW 15.0 mph24.1 kmh 29.96 in1014.6 mb 0.00 in0.0 mm 0.00 in0.0 mm 0.00 in0.0 mm
03:31 PM 38.6°F3.7°C 32.0°F0.0°C 77% 12.2 mph SW19.6 kmh SW 14.0 mph22.5 kmh 29.96 in1014.6 mb 0.00 in0.0 mm 0.00 in0.0 mm 0.00 in0.0 mm
03:32 PM 38.6°F3.7°C 32.0°F0.0°C 77% 11.2 mph SW18.0 kmh SW 14.0 mph22.5 kmh 29.96 in1014.6 mb 0.00 in0.0 mm 0.00 in0.0 mm 0.00 in0.0 mm
03:33 PM 38.6°F3.7°C 32.0°F0.0°C 77% 12.5 mph SW20.1 kmh SW 15.0 mph24.1 kmh 29.96 in1014.6 mb 0.00 in0.0 mm 0.00 in0.0 mm 0.00 in0.0 mm
03:34 PM 38.6°F3.7°C 32.0°F0.0°C 77% 12.9 mph SW20.8 kmh SW 15.0 mph24.1 kmh 29.96 in1014.6 mb 0.00 in0.0 mm 0.00 in0.0 mm 0.00 in0.0 mm
03:35 PM 38.5°F3.6°C 31.9°F-0.1°C 77% 13.1 mph SW21.1 kmh SW 17.0 mph27.4 kmh 29.96 in1014.6 mb 0.00 in0.0 mm 0.00 in0.0 mm 0.00 in0.0 mm
03:36 PM 38.5°F3.6°C 31.9°F-0.1°C 77% 11.8 mph SW19.0 kmh SW 17.0 mph27.4 kmh 29.96 in1014.6 mb 0.00 in0.0 mm 0.00 in0.0 mm 0.00 in0.0 mm
03:37 PM 38.4°F3.6°C 31.8°F-0.1°C 77% 9.3 mph SW15.0 kmh SW 14.0 mph22.5 kmh 29.96 in1014.6 mb 0.00 in0.0 mm 0.00 in0.0 mm 0.00 in0.0 mm
03:38 PM 38.5°F3.6°C 31.9°F-0.1°C 77% 10.9 mph SW17.5 kmh SW 14.0 mph22.5 kmh 29.96 in1014.6 mb 0.00 in0.0 mm 0.00 in0.0 mm 0.00 in0.0 mm
03:39 PM 38.5°F3.6°C 31.9°F-0.1°C 77% 10.8 mph SW17.4 kmh SW 15.0 mph24.1 kmh 29.96 in1014.6 mb 0.00 in0.0 mm 0.00 in0.0 mm 0.00 in0.0 mm
03:40 PM 38.5°F3.6°C 31.9°F-0.1°C 77% 12.8 mph SW20.6 kmh SW 15.0 mph24.1 kmh 29.96 in1014.6 mb 0.00 in0.0 mm 0.00 in0.0 mm 0.00 in0.0 mm
03:41 PM 38.5°F3.6°C 31.9°F-0.1°C 77% 13.4 mph SW21.6 kmh SW 17.0 mph27.4 kmh 29.96 in1014.6 mb 0.00 in0.0 mm 0.00 in0.0 mm 0.00 in0.0 mm
03:42 PM 38.5°F3.6°C 31.9°F-0.1°C 77% 12.4 mph SW20.0 kmh SW 17.0 mph27.4 kmh 29.96 in1014.6 mb 0.00 in0.0 mm 0.00 in0.0 mm 0.00 in0.0 mm
03:43 PM 38.4°F3.6°C 31.8°F-0.1°C 77% 12.3 mph SW19.8 kmh SW 16.0 mph25.7 kmh 29.96 in1014.6 mb 0.00 in0.0 mm 0.00 in0.0 mm 0.00 in0.0 mm
03:44 PM 38.4°F3.6°C 31.8°F-0.1°C 77% 11.8 mph SW19.0 kmh SW 15.0 mph24.1 kmh 29.96 in1014.6 mb 0.00 in0.0 mm 0.00 in0.0 mm 0.00 in0.0 mm
03:45 PM 38.4°F3.6°C 31.8°F-0.1°C 77% 12.5 mph SW20.1 kmh SW 15.0 mph24.1 kmh 29.96 in1014.6 mb 0.00 in0.0 mm 0.00 in0.0 mm 0.00 in0.0 mm
03:46 PM 38.4°F3.6°C 31.8°F-0.1°C 77% 13.5 mph SW21.7 kmh SW 16.0 mph25.7 kmh 29.96 in1014.6 mb 0.00 in0.0 mm 0.00 in0.0 mm 0.00 in0.0 mm
03:47 PM 38.4°F3.6°C 31.8°F-0.1°C 77% 13.8 mph SW22.2 kmh SW 17.0 mph27.4 kmh 29.96 in1014.6 mb 0.00 in0.0 mm 0.00 in0.0 mm 0.00 in0.0 mm
03:48 PM 38.4°F3.6°C 31.8°F-0.1°C 77% 11.7 mph SW18.8 kmh SW 17.0 mph27.4 kmh 29.95 in1014.2 mb 0.00 in0.0 mm 0.00 in0.0 mm 0.00 in0.0 mm
03:49 PM 38.4°F3.6°C 31.8°F-0.1°C 77% 12.6 mph SW20.3 kmh SW 16.0 mph25.7 kmh 29.96 in1014.6 mb 0.00 in0.0 mm 0.00 in0.0 mm 0.00 in0.0 mm
03:50 PM 38.3°F3.5°C 31.7°F-0.2°C 77% 13.3 mph SW21.4 kmh SW 16.0 mph25.7 kmh 29.96 in1014.6 mb 0.00 in0.0 mm 0.00 in0.0 mm 0.00 in0.0 mm
03:51 PM 38.2°F3.4°C 31.6°F-0.2°C 77% 14.1 mph SW22.7 kmh SW 16.0 mph25.7 kmh 29.96 in1014.6 mb 0.00 in0.0 mm 0.00 in0.0 mm 0.00 in0.0 mm
03:52 PM 38.2°F3.4°C 31.6°F-0.2°C 77% 13.7 mph SW22.0 kmh SW 16.0 mph25.7 kmh 29.96 in1014.6 mb 0.00 in0.0 mm 0.00 in0.0 mm 0.00 in0.0 mm
03:53 PM 38.1°F3.4°C 31.9°F-0.1°C 78% 12.2 mph SW19.6 kmh SW 15.0 mph24.1 kmh 29.96 in1014.6 mb 0.00 in0.0 mm 0.00 in0.0 mm 0.00 in0.0 mm
03:54 PM 38.1°F3.4°C 31.9°F-0.1°C 78% 14.0 mph SW22.5 kmh SW 15.0 mph24.1 kmh 29.96 in1014.6 mb 0.00 in0.0 mm 0.00 in0.0 mm 0.00 in0.0 mm
03:55 PM 38.0°F3.3°C 31.8°F-0.1°C 78% 13.1 mph SW21.1 kmh SW 16.0 mph25.7 kmh 29.96 in1014.6 mb 0.00 in0.0 mm 0.00 in0.0 mm 0.00 in0.0 mm
03:56 PM 38.0°F3.3°C 31.8°F-0.1°C 78% 13.0 mph SW20.9 kmh SW 16.0 mph25.7 kmh 29.96 in1014.6 mb 0.00 in0.0 mm 0.00 in0.0 mm 0.00 in0.0 mm
03:57 PM 38.1°F3.4°C 31.9°F-0.1°C 78% 10.6 mph SW17.1 kmh SW 15.0 mph24.1 kmh 29.96 in1014.6 mb 0.00 in0.0 mm 0.00 in0.0 mm 0.00 in0.0 mm
03:58 PM 38.0°F3.3°C 31.8°F-0.1°C 78% 12.2 mph SW19.6 kmh SW 14.0 mph22.5 kmh 29.96 in1014.6 mb 0.00 in0.0 mm 0.00 in0.0 mm 0.00 in0.0 mm
03:59 PM 38.1°F3.4°C 31.9°F-0.1°C 78% 10.9 mph SW17.5 kmh SW 14.0 mph22.5 kmh 29.96 in1014.6 mb 0.00 in0.0 mm 0.00 in0.0 mm 0.00 in0.0 mm
04:00 PM 38.1°F3.4°C 31.9°F-0.1°C 78% 10.6 mph SW17.1 kmh SW 14.0 mph22.5 kmh 29.96 in1014.6 mb 0.00 in0.0 mm 0.00 in0.0 mm 0.00 in0.0 mm
04:01 PM 38.1°F3.4°C 31.9°F-0.1°C 78% 9.6 mph SW15.4 kmh SW 13.0 mph20.9 kmh 29.96 in1014.6 mb 0.00 in0.0 mm 0.00 in0.0 mm 0.00 in0.0 mm
04:02 PM 38.1°F3.4°C 31.9°F-0.1°C 78% 11.7 mph SW18.8 kmh SW 13.0 mph20.9 kmh 29.96 in1014.6 mb 0.00 in0.0 mm 0.00 in0.0 mm 0.00 in0.0 mm
04:03 PM 38.1°F3.4°C 31.9°F-0.1°C 78% 10.0 mph SW16.1 kmh SW 13.0 mph20.9 kmh 29.96 in1014.6 mb 0.00 in0.0 mm 0.00 in0.0 mm 0.00 in0.0 mm
04:04 PM 38.1°F3.4°C 31.9°F-0.1°C 78% 10.3 mph SW16.6 kmh SW 14.0 mph22.5 kmh 29.96 in1014.6 mb 0.00 in0.0 mm 0.00 in0.0 mm 0.00 in0.0 mm
04:05 PM 38.1°F3.4°C 31.9°F-0.1°C 78% 10.4 mph SW16.7 kmh SW 14.0 mph22.5 kmh 29.96 in1014.6 mb 0.00 in0.0 mm 0.00 in0.0 mm 0.00 in0.0 mm
04:06 PM 38.1°F3.4°C 31.5°F-0.3°C 77% 12.2 mph SW19.6 kmh SW 14.0 mph22.5 kmh 29.96 in1014.6 mb 0.00 in0.0 mm 0.00 in0.0 mm 0.00 in0.0 mm
04:07 PM 38.1°F3.4°C 31.9°F-0.1°C 78% 11.3 mph SW18.2 kmh SW 14.0 mph22.5 kmh 29.96 in1014.6 mb 0.00 in0.0 mm 0.00 in0.0 mm 0.00 in0.0 mm
04:08 PM 38.1°F3.4°C 31.5°F-0.3°C 77% 11.2 mph SW18.0 kmh SW 14.0 mph22.5 kmh 29.96 in1014.6 mb 0.00 in0.0 mm 0.00 in0.0 mm 0.00 in0.0 mm
04:09 PM 38.1°F3.4°C 31.5°F-0.3°C 77% 11.7 mph SW18.8 kmh SW 15.0 mph24.1 kmh 29.96 in1014.6 mb 0.00 in0.0 mm 0.00 in0.0 mm 0.00 in0.0 mm
04:10 PM 38.1°F3.4°C 31.5°F-0.3°C 77% 11.0 mph SW17.7 kmh SW 16.0 mph25.7 kmh 29.96 in1014.6 mb 0.00 in0.0 mm 0.00 in0.0 mm 0.00 in0.0 mm
04:11 PM 38.1°F3.4°C 31.5°F-0.3°C 77% 11.2 mph SW18.0 kmh SW 16.0 mph25.7 kmh 29.96 in1014.6 mb 0.00 in0.0 mm 0.00 in0.0 mm 0.00 in0.0 mm
04:12 PM 38.1°F3.4°C 31.5°F-0.3°C 77% 10.1 mph SW16.3 kmh SW 15.0 mph24.1 kmh 29.96 in1014.6 mb 0.00 in0.0 mm 0.00 in0.0 mm 0.00 in0.0 mm
04:13 PM 38.0°F3.3°C 31.4°F-0.3°C 77% 10.5 mph SW16.9 kmh SW 15.0 mph24.1 kmh 29.96 in1014.6 mb 0.00 in0.0 mm 0.00 in0.0 mm 0.00 in0.0 mm
04:14 PM 38.0°F3.3°C 31.4°F-0.3°C 77% 11.5 mph SW18.5 kmh SW 15.0 mph24.1 kmh 29.96 in1014.6 mb 0.00 in0.0 mm 0.00 in0.0 mm 0.00 in0.0 mm
04:15 PM 37.9°F3.3°C 31.7°F-0.2°C 78% 10.5 mph SW16.9 kmh SW 15.0 mph24.1 kmh 29.96 in1014.6 mb 0.00 in0.0 mm 0.00 in0.0 mm 0.00 in0.0 mm
04:16 PM 38.0°F3.3°C 31.8°F-0.1°C 78% 10.9 mph SW17.5 kmh SW 15.0 mph24.1 kmh 29.96 in1014.6 mb 0.00 in0.0 mm 0.00 in0.0 mm 0.00 in0.0 mm
04:17 PM 37.9°F3.3°C 31.7°F-0.2°C 78% 11.5 mph SW18.5 kmh SW 15.0 mph24.1 kmh 29.96 in1014.6 mb 0.00 in0.0 mm 0.00 in0.0 mm 0.00 in0.0 mm
04:18 PM 37.9°F3.3°C 31.7°F-0.2°C 78% 10.8 mph SW17.4 kmh SW 14.0 mph22.5 kmh 29.96 in1014.6 mb 0.00 in0.0 mm 0.00 in0.0 mm 0.00 in0.0 mm
04:19 PM 37.8°F3.2°C 31.6°F-0.2°C 78% 8.2 mph SW13.2 kmh SW 15.0 mph24.1 kmh 29.96 in1014.6 mb 0.00 in0.0 mm 0.00 in0.0 mm 0.00 in0.0 mm
04:20 PM 37.8°F3.2°C 31.6°F-0.2°C 78% 12.5 mph SW20.1 kmh SW 15.0 mph24.1 kmh 29.96 in1014.6 mb 0.00 in0.0 mm 0.00 in0.0 mm 0.00 in0.0 mm
04:21 PM 37.8°F3.2°C 31.6°F-0.2°C 78% 12.9 mph SW20.8 kmh SW 16.0 mph25.7 kmh 29.96 in1014.6 mb 0.00 in0.0 mm 0.00 in0.0 mm 0.00 in0.0 mm
04:22 PM 37.7°F3.2°C 31.5°F-0.3°C 78% 11.3 mph SW18.2 kmh SW 16.0 mph25.7 kmh 29.96 in1014.6 mb 0.00 in0.0 mm 0.00 in0.0 mm 0.00 in0.0 mm
04:23 PM 37.7°F3.2°C 31.5°F-0.3°C 78% 12.4 mph SW20.0 kmh SW 16.0 mph25.7 kmh 29.96 in1014.6 mb 0.00 in0.0 mm 0.00 in0.0 mm 0.00 in0.0 mm
04:24 PM 37.7°F3.2°C 31.5°F-0.3°C 78% 12.1 mph SW19.5 kmh SW 16.0 mph25.7 kmh 29.96 in1014.6 mb 0.00 in0.0 mm 0.00 in0.0 mm 0.00 in0.0 mm
04:25 PM 37.7°F3.2°C 31.5°F-0.3°C 78% 11.8 mph SW19.0 kmh SW 15.0 mph24.1 kmh 29.96 in1014.6 mb 0.00 in0.0 mm 0.00 in0.0 mm 0.00 in0.0 mm
04:26 PM 37.7°F3.2°C 31.2°F-0.4°C 77% 14.2 mph SW22.9 kmh SW 17.0 mph27.4 kmh 29.96 in1014.6 mb 0.00 in0.0 mm 0.00 in0.0 mm 0.00 in0.0 mm
04:27 PM 37.7°F3.2°C 31.2°F-0.4°C 77% 11.0 mph SW17.7 kmh SW 17.0 mph27.4 kmh 29.96 in1014.6 mb 0.00 in0.0 mm 0.00 in0.0 mm 0.00 in0.0 mm
04:28 PM 37.7°F3.2°C 31.2°F-0.4°C 77% 10.9 mph SW17.5 kmh SW 14.0 mph22.5 kmh 29.96 in1014.6 mb 0.00 in0.0 mm 0.00 in0.0 mm 0.00 in0.0 mm
04:29 PM 37.7°F3.2°C 31.2°F-0.4°C 77% 12.3 mph SW19.8 kmh SW 15.0 mph24.1 kmh 29.96 in1014.6 mb 0.00 in0.0 mm 0.00 in0.0 mm 0.00 in0.0 mm
04:30 PM 37.6°F3.1°C 31.1°F-0.5°C 77% 11.6 mph SW18.7 kmh SW 15.0 mph24.1 kmh 29.96 in1014.6 mb 0.00 in0.0 mm 0.00 in0.0 mm 0.00 in0.0 mm
04:31 PM 37.6°F3.1°C 31.1°F-0.5°C 77% 11.0 mph SW17.7 kmh SW 15.0 mph24.1 kmh 29.96 in1014.6 mb 0.00 in0.0 mm 0.00 in0.0 mm 0.00 in0.0 mm
04:32 PM 37.6°F3.1°C 31.1°F-0.5°C 77% 12.0 mph SW19.3 kmh SW 15.0 mph24.1 kmh 29.96 in1014.6 mb 0.00 in0.0 mm 0.00 in0.0 mm 0.00 in0.0 mm
04:33 PM 37.6°F3.1°C 31.1°F-0.5°C 77% 9.9 mph SW15.9 kmh SW 15.0 mph24.1 kmh 29.96 in1014.6 mb 0.00 in0.0 mm 0.00 in0.0 mm 0.00 in0.0 mm
04:34 PM 37.5°F3.1°C 31.0°F-0.6°C 77% 11.3 mph SW18.2 kmh SW 15.0 mph24.1 kmh 29.96 in1014.6 mb 0.00 in0.0 mm 0.00 in0.0 mm 0.00 in0.0 mm
04:35 PM 37.5°F3.1°C 31.0°F-0.6°C 77% 10.0 mph SW16.1 kmh SW 15.0 mph24.1 kmh 29.96 in1014.6 mb 0.00 in0.0 mm 0.00 in0.0 mm 0.00 in0.0 mm
04:36 PM 37.5°F3.1°C 31.0°F-0.6°C 77% 10.6 mph SW17.1 kmh SW 13.0 mph20.9 kmh 29.96 in1014.6 mb 0.00 in0.0 mm 0.00 in0.0 mm 0.00 in0.0 mm
04:37 PM 37.4°F3.0°C 30.9°F-0.6°C 77% 10.8 mph SW17.4 kmh SW 13.0 mph20.9 kmh 29.96 in1014.6 mb 0.00 in0.0 mm 0.00 in0.0 mm 0.00 in0.0 mm
04:38 PM 37.3°F2.9°C 30.8°F-0.7°C 77% 11.0 mph SW17.7 kmh SW 14.0 mph22.5 kmh 29.96 in1014.6 mb 0.00 in0.0 mm 0.00 in0.0 mm 0.00 in0.0 mm
04:39 PM 37.3°F2.9°C 30.8°F-0.7°C 77% 11.9 mph SW19.2 kmh SW 16.0 mph25.7 kmh 29.96 in1014.6 mb 0.00 in0.0 mm 0.00 in0.0 mm 0.00 in0.0 mm
04:40 PM 37.3°F2.9°C 30.8°F-0.7°C 77% 12.6 mph SW20.3 kmh SW 16.0 mph25.7 kmh 29.96 in1014.6 mb 0.00 in0.0 mm 0.00 in0.0 mm 0.00 in0.0 mm
04:41 PM 37.2°F2.9°C 30.7°F-0.7°C 77% 12.9 mph SW20.8 kmh SW 16.0 mph25.7 kmh 29.96 in1014.6 mb 0.00 in0.0 mm 0.00 in0.0 mm 0.00 in0.0 mm
04:42 PM 37.2°F2.9°C 30.7°F-0.7°C 77% 9.5 mph SW15.3 kmh SW 16.0 mph25.7 kmh 29.96 in1014.6 mb 0.00 in0.0 mm 0.00 in0.0 mm 0.00 in0.0 mm
04:43 PM 37.1°F2.8°C 30.6°F-0.8°C 77% 9.0 mph SW14.5 kmh SW 15.0 mph24.1 kmh 29.96 in1014.6 mb 0.00 in0.0 mm 0.00 in0.0 mm 0.00 in0.0 mm
04:44 PM 37.1°F2.8°C 30.6°F-0.8°C 77% 10.8 mph SW17.4 kmh SW 14.0 mph22.5 kmh 29.96 in1014.6 mb 0.00 in0.0 mm 0.00 in0.0 mm 0.00 in0.0 mm
04:45 PM 37.1°F2.8°C 30.6°F-0.8°C 77% 12.6 mph SW20.3 kmh SW 16.0 mph25.7 kmh 29.96 in1014.6 mb 0.00 in0.0 mm 0.00 in0.0 mm 0.00 in0.0 mm
04:46 PM 37.0°F2.8°C 30.5°F-0.8°C 77% 10.9 mph SW17.5 kmh SW 16.0 mph25.7 kmh 29.96 in1014.6 mb 0.00 in0.0 mm 0.00 in0.0 mm 0.00 in0.0 mm
04:47 PM 37.0°F2.8°C 30.5°F-0.8°C 77% 9.5 mph SW15.3 kmh SW 14.0 mph22.5 kmh 29.95 in1014.2 mb 0.00 in0.0 mm 0.00 in0.0 mm 0.00 in0.0 mm
04:48 PM 37.0°F2.8°C 30.5°F-0.8°C 77% 8.6 mph SW13.8 kmh SW 13.0 mph20.9 kmh 29.96 in1014.6 mb 0.00 in0.0 mm 0.00 in0.0 mm 0.00 in0.0 mm
04:49 PM 36.9°F2.7°C 30.4°F-0.9°C 77% 9.6 mph SW15.4 kmh SW 13.0 mph20.9 kmh 29.96 in1014.6 mb 0.00 in0.0 mm 0.00 in0.0 mm 0.00 in0.0 mm
04:50 PM 36.9°F2.7°C 30.4°F-0.9°C 77% 10.1 mph SW16.3 kmh SW 13.0 mph20.9 kmh 29.96 in1014.6 mb 0.00 in0.0 mm 0.00 in0.0 mm 0.00 in0.0 mm
04:51 PM 36.8°F2.7°C 30.3°F-0.9°C 77% 9.9 mph SW15.9 kmh SW 14.0 mph22.5 kmh 29.96 in1014.6 mb 0.00 in0.0 mm 0.00 in0.0 mm 0.00 in0.0 mm
04:52 PM 36.8°F2.7°C 30.3°F-0.9°C 77% 10.1 mph SW16.3 kmh SW 14.0 mph22.5 kmh 29.96 in1014.6 mb 0.00 in0.0 mm 0.00 in0.0 mm 0.00 in0.0 mm
04:53 PM 36.8°F2.7°C 30.3°F-0.9°C 77% 9.7 mph SW15.6 kmh SW 12.0 mph19.3 kmh 29.96 in1014.6 mb 0.00 in0.0 mm 0.00 in0.0 mm 0.00 in0.0 mm
04:54 PM 36.8°F2.7°C 30.3°F-0.9°C 77% 10.2 mph SW16.4 kmh SW 13.0 mph20.9 kmh 29.96 in1014.6 mb 0.00 in0.0 mm 0.00 in0.0 mm 0.00 in0.0 mm
04:55 PM 36.8°F2.7°C 30.3°F-0.9°C 77% 10.1 mph SW16.3 kmh SW 14.0 mph22.5 kmh 29.96 in1014.6 mb 0.00 in0.0 mm 0.00 in0.0 mm 0.00 in0.0 mm
04:56 PM 36.8°F2.7°C 30.3°F-0.9°C 77% 11.0 mph SW17.7 kmh SW 14.0 mph22.5 kmh 29.96 in1014.6 mb 0.00 in0.0 mm 0.00 in0.0 mm 0.00 in0.0 mm
04:57 PM 36.9°F2.7°C 30.4°F-0.9°C 77% 12.6 mph SW20.3 kmh SW 16.0 mph25.7 kmh 29.96 in1014.6 mb 0.00 in0.0 mm 0.00 in0.0 mm 0.00 in0.0 mm
04:58 PM 36.8°F2.7°C 30.3°F-0.9°C 77% 10.8 mph SW17.4 kmh SW 16.0 mph25.7 kmh 29.96 in1014.6 mb 0.00 in0.0 mm 0.00 in0.0 mm 0.00 in0.0 mm
04:59 PM 36.8°F2.7°C 30.3°F-0.9°C 77% 10.7 mph SW17.2 kmh SW 14.0 mph22.5 kmh 29.96 in1014.6 mb 0.00 in0.0 mm 0.00 in0.0 mm 0.00 in0.0 mm
05:00 PM 36.8°F2.7°C 30.3°F-0.9°C 77% 10.1 mph SW16.3 kmh SW 12.0 mph19.3 kmh 29.96 in1014.6 mb 0.00 in0.0 mm 0.00 in0.0 mm 0.00 in0.0 mm
05:01 PM 36.8°F2.7°C 30.3°F-0.9°C 77% 10.1 mph SW16.3 kmh SW 14.0 mph22.5 kmh 29.96 in1014.6 mb 0.00 in0.0 mm 0.00 in0.0 mm 0.00 in0.0 mm
05:02 PM 36.8°F2.7°C 30.3°F-0.9°C 77% 9.5 mph SW15.3 kmh SW 14.0 mph22.5 kmh 29.96 in1014.6 mb 0.00 in0.0 mm 0.00 in0.0 mm 0.00 in0.0 mm
05:03 PM 36.8°F2.7°C 30.3°F-0.9°C 77% 8.2 mph SW13.2 kmh SW 12.0 mph19.3 kmh 29.96 in1014.6 mb 0.00 in0.0 mm 0.00 in0.0 mm 0.00 in0.0 mm
05:04 PM 36.8°F2.7°C 30.3°F-0.9°C 77% 9.2 mph SW14.8 kmh SW 11.0 mph17.7 kmh 29.96 in1014.6 mb 0.00 in0.0 mm 0.00 in0.0 mm 0.00 in0.0 mm
05:05 PM 36.7°F2.6°C 30.2°F-1.0°C 77% 9.1 mph SW14.6 kmh SW 12.0 mph19.3 kmh 29.96 in1014.6 mb 0.00 in0.0 mm 0.00 in0.0 mm 0.00 in0.0 mm
05:06 PM 36.7°F2.6°C 30.2°F-1.0°C 77% 9.6 mph SW15.4 kmh SW 17.0 mph27.4 kmh 29.96 in1014.6 mb 0.00 in0.0 mm 0.00 in0.0 mm 0.00 in0.0 mm
05:07 PM 36.7°F2.6°C 30.2°F-1.0°C 77% 12.4 mph SW20.0 kmh SW 17.0 mph27.4 kmh 29.96 in1014.6 mb 0.00 in0.0 mm 0.00 in0.0 mm 0.00 in0.0 mm
05:08 PM 36.8°F2.7°C 30.3°F-0.9°C 77% 8.6 mph SW13.8 kmh SW 15.0 mph24.1 kmh 29.96 in1014.6 mb 0.00 in0.0 mm 0.00 in0.0 mm 0.00 in0.0 mm
05:09 PM 36.7°F2.6°C 30.2°F-1.0°C 77% 8.7 mph SW14.0 kmh SW 11.0 mph17.7 kmh 29.96 in1014.6 mb 0.00 in0.0 mm 0.00 in0.0 mm 0.00 in0.0 mm
05:10 PM 36.6°F2.6°C 30.1°F-1.1°C 77% 8.5 mph SW13.7 kmh SW 12.0 mph19.3 kmh 29.96 in1014.6 mb 0.00 in0.0 mm 0.00 in0.0 mm 0.00 in0.0 mm
05:11 PM 36.7°F2.6°C 30.2°F-1.0°C 77% 7.9 mph SW12.7 kmh SW 12.0 mph19.3 kmh 29.96 in1014.6 mb 0.00 in0.0 mm 0.00 in0.0 mm 0.00 in0.0 mm
05:12 PM 36.6°F2.6°C 30.1°F-1.1°C 77% 10.1 mph SW16.3 kmh SW 13.0 mph20.9 kmh 29.96 in1014.6 mb 0.00 in0.0 mm 0.00 in0.0 mm 0.00 in0.0 mm
05:13 PM 36.6°F2.6°C 30.1°F-1.1°C 77% 8.8 mph SW14.2 kmh SW 13.0 mph20.9 kmh 29.96 in1014.6 mb 0.00 in0.0 mm 0.00 in0.0 mm 0.00 in0.0 mm
05:14 PM 36.6°F2.6°C 30.1°F-1.1°C 77% 10.8 mph SW17.4 kmh SW 13.0 mph20.9 kmh 29.96 in1014.6 mb 0.00 in0.0 mm 0.00 in0.0 mm 0.00 in0.0 mm
05:15 PM 36.6°F2.6°C 30.1°F-1.1°C 77% 11.7 mph SSW18.8 kmh SSW 14.0 mph22.5 kmh 29.96 in1014.6 mb 0.00 in0.0 mm 0.00 in0.0 mm 0.00 in0.0 mm
05:16 PM 36.6°F2.6°C 30.1°F-1.1°C 77% 9.9 mph SW15.9 kmh SW 14.0 mph22.5 kmh 29.96 in1014.6 mb 0.00 in0.0 mm 0.00 in0.0 mm 0.00 in0.0 mm
05:17 PM 36.6°F2.6°C 30.1°F-1.1°C 77% 7.9 mph SW12.7 kmh SW 13.0 mph20.9 kmh 29.96 in1014.6 mb 0.00 in0.0 mm 0.00 in0.0 mm 0.00 in0.0 mm
05:18 PM 36.6°F2.6°C 30.1°F-1.1°C 77% 9.1 mph SW14.6 kmh SW 11.0 mph17.7 kmh 29.96 in1014.6 mb 0.00 in0.0 mm 0.00 in0.0 mm 0.00 in0.0 mm
05:19 PM 36.6°F2.6°C 30.1°F-1.1°C 77% 9.8 mph SW15.8 kmh SW 13.0 mph20.9 kmh 29.96 in1014.6 mb 0.00 in0.0 mm 0.00 in0.0 mm 0.00 in0.0 mm
05:20 PM 36.6°F2.6°C 30.1°F-1.1°C 77% 8.2 mph SW13.2 kmh SW 13.0 mph20.9 kmh 29.96 in1014.6 mb 0.00 in0.0 mm 0.00 in0.0 mm 0.00 in0.0 mm
05:21 PM 36.5°F2.5°C 30.3°F-0.9°C 78% 9.7 mph SW15.6 kmh SW 13.0 mph20.9 kmh 29.96 in1014.6 mb 0.00 in0.0 mm 0.00 in0.0 mm 0.00 in0.0 mm
05:22 PM 36.6°F2.6°C 30.4°F-0.9°C 78% 11.9 mph SW19.2 kmh SW 14.0 mph22.5 kmh 29.96 in1014.6 mb 0.00 in0.0 mm 0.00 in0.0 mm 0.00 in0.0 mm
05:23 PM 36.6°F2.6°C 30.1°F-1.1°C 77% 9.3 mph SW15.0 kmh SW 14.0 mph22.5 kmh 29.96 in1014.6 mb 0.00 in0.0 mm 0.00 in0.0 mm 0.00 in0.0 mm
05:24 PM 36.6°F2.6°C 30.1°F-1.1°C 77% 9.8 mph SW15.8 kmh SW 13.0 mph20.9 kmh 29.96 in1014.6 mb 0.00 in0.0 mm 0.00 in0.0 mm 0.00 in0.0 mm
05:25 PM 36.6°F2.6°C 30.1°F-1.1°C 77% 8.6 mph SW13.8 kmh SW 14.0 mph22.5 kmh 29.96 in1014.6 mb 0.00 in0.0 mm 0.00 in0.0 mm 0.00 in0.0 mm
05:26 PM 36.5°F2.5°C 30.3°F-0.9°C 78% 10.9 mph SW17.5 kmh SW 14.0 mph22.5 kmh 29.96 in1014.6 mb 0.00 in0.0 mm 0.00 in0.0 mm 0.00 in0.0 mm
05:27 PM 36.5°F2.5°C 30.3°F-0.9°C 78% 10.1 mph SW16.3 kmh SW 14.0 mph22.5 kmh 29.96 in1014.6 mb 0.00 in0.0 mm 0.00 in0.0 mm 0.00 in0.0 mm
05:28 PM 36.5°F2.5°C 30.3°F-0.9°C 78% 9.6 mph SW15.4 kmh SW 14.0 mph22.5 kmh 29.96 in1014.6 mb 0.00 in0.0 mm 0.00 in0.0 mm 0.00 in0.0 mm
05:29 PM 36.4°F2.4°C 30.2°F-1.0°C 78% 8.4 mph SW13.5 kmh SW 14.0 mph22.5 kmh 29.96 in1014.6 mb 0.00 in0.0 mm 0.00 in0.0 mm 0.00 in0.0 mm
05:30 PM 36.5°F2.5°C 30.3°F-0.9°C 78% 10.2 mph SW16.4 kmh SW 12.0 mph19.3 kmh 29.96 in1014.6 mb 0.00 in0.0 mm 0.00 in0.0 mm 0.00 in0.0 mm
05:31 PM 36.5°F2.5°C 30.3°F-0.9°C 78% 11.4 mph SW18.3 kmh SW 14.0 mph22.5 kmh 29.96 in1014.6 mb 0.00 in0.0 mm 0.00 in0.0 mm 0.00 in0.0 mm
05:32 PM 36.4°F2.4°C 30.2°F-1.0°C 78% 9.1 mph SW14.6 kmh SW 14.0 mph22.5 kmh 29.96 in1014.6 mb 0.00 in0.0 mm 0.00 in0.0 mm 0.00 in0.0 mm
05:33 PM 36.4°F2.4°C 30.2°F-1.0°C 78% 9.9 mph SW15.9 kmh SW 13.0 mph20.9 kmh 29.96 in1014.6 mb 0.00 in0.0 mm 0.00 in0.0 mm 0.00 in0.0 mm
05:34 PM 36.4°F2.4°C 30.2°F-1.0°C 78% 11.3 mph SW18.2 kmh SW 14.0 mph22.5 kmh 29.96 in1014.6 mb 0.00 in0.0 mm 0.00 in0.0 mm 0.00 in0.0 mm
05:35 PM 36.5°F2.5°C 30.3°F-0.9°C 78% 9.6 mph SW15.4 kmh SW 14.0 mph22.5 kmh 29.96 in1014.6 mb 0.00 in0.0 mm 0.00 in0.0 mm 0.00 in0.0 mm
05:36 PM 36.5°F2.5°C 30.3°F-0.9°C 78% 8.1 mph SW13.0 kmh SW 13.0 mph20.9 kmh 29.96 in1014.6 mb 0.00 in0.0 mm 0.00 in0.0 mm 0.00 in0.0 mm
05:37 PM 36.5°F2.5°C 30.3°F-0.9°C 78% 9.6 mph SW15.4 kmh SW 14.0 mph22.5 kmh 29.96 in1014.6 mb 0.00 in0.0 mm 0.00 in0.0 mm 0.00 in0.0 mm
05:38 PM 36.4°F2.4°C 30.2°F-1.0°C 78% 9.6 mph SW15.4 kmh SW 14.0 mph22.5 kmh 29.96 in1014.6 mb 0.00 in0.0 mm 0.00 in0.0 mm 0.00 in0.0 mm
05:39 PM 36.4°F2.4°C 30.2°F-1.0°C 78% 10.7 mph SW17.2 kmh SW 14.0 mph22.5 kmh 29.96 in1014.6 mb 0.00 in0.0 mm 0.00 in0.0 mm 0.00 in0.0 mm
05:40 PM 36.4°F2.4°C 30.2°F-1.0°C 78% 9.2 mph SW14.8 kmh SW 14.0 mph22.5 kmh 29.96 in1014.6 mb 0.00 in0.0 mm 0.00 in0.0 mm 0.00 in0.0 mm
05:41 PM 36.4°F2.4°C 30.2°F-1.0°C 78% 11.6 mph SW18.7 kmh SW 15.0 mph24.1 kmh 29.96 in1014.6 mb 0.00 in0.0 mm 0.00 in0.0 mm 0.00 in0.0 mm
05:42 PM 36.4°F2.4°C 30.2°F-1.0°C 78% 10.3 mph SW16.6 kmh SW 15.0 mph24.1 kmh 29.96 in1014.6 mb 0.00 in0.0 mm 0.00 in0.0 mm 0.00 in0.0 mm
05:43 PM 36.4°F2.4°C 30.2°F-1.0°C 78% 10.5 mph SW16.9 kmh SW 13.0 mph20.9 kmh 29.96 in1014.6 mb 0.00 in0.0 mm 0.00 in0.0 mm 0.00 in0.0 mm
05:44 PM 36.4°F2.4°C 30.2°F-1.0°C 78% 10.1 mph SW16.3 kmh SW 13.0 mph20.9 kmh 29.96 in1014.6 mb 0.00 in0.0 mm 0.00 in0.0 mm 0.00 in0.0 mm
05:45 PM 36.4°F2.4°C 30.2°F-1.0°C 78% 10.5 mph SW16.9 kmh SW 14.0 mph22.5 kmh 29.96 in1014.6 mb 0.00 in0.0 mm 0.00 in0.0 mm 0.00 in0.0 mm
05:46 PM 36.4°F2.4°C 30.2°F-1.0°C 78% 12.4 mph SW20.0 kmh SW 16.0 mph25.7 kmh 29.96 in1014.6 mb 0.00 in0.0 mm 0.00 in0.0 mm 0.00 in0.0 mm
05:47 PM 36.4°F2.4°C 30.2°F-1.0°C 78% 11.2 mph SW18.0 kmh SW 16.0 mph25.7 kmh 29.96 in1014.6 mb 0.00 in0.0 mm 0.00 in0.0 mm 0.00 in0.0 mm
05:48 PM 36.4°F2.4°C 30.2°F-1.0°C 78% 11.5 mph SW18.5 kmh SW 18.0 mph29.0 kmh 29.96 in1014.6 mb 0.00 in0.0 mm 0.00 in0.0 mm 0.00 in0.0 mm
05:49 PM 36.5°F2.5°C 30.3°F-0.9°C 78% 9.4 mph SW15.1 kmh SW 18.0 mph29.0 kmh 29.96 in1014.6 mb 0.00 in0.0 mm 0.00 in0.0 mm 0.00 in0.0 mm
05:50 PM 36.4°F2.4°C 30.2°F-1.0°C 78% 9.8 mph SW15.8 kmh SW 13.0 mph20.9 kmh 29.96 in1014.6 mb 0.00 in0.0 mm 0.00 in0.0 mm 0.00 in0.0 mm
05:51 PM 36.4°F2.4°C 30.2°F-1.0°C 78% 8.1 mph SW13.0 kmh SW 13.0 mph20.9 kmh 29.96 in1014.6 mb 0.00 in0.0 mm 0.00 in0.0 mm 0.00 in0.0 mm
05:52 PM 36.4°F2.4°C 30.5°F-0.8°C 79% 8.7 mph SW14.0 kmh SW 11.0 mph17.7 kmh 29.96 in1014.6 mb 0.00 in0.0 mm 0.00 in0.0 mm 0.00 in0.0 mm
05:53 PM 36.4°F2.4°C 30.5°F-0.8°C 79% 12.4 mph SW20.0 kmh SW 16.0 mph25.7 kmh 29.96 in1014.6 mb 0.00 in0.0 mm 0.00 in0.0 mm 0.00 in0.0 mm
05:54 PM 36.4°F2.4°C 30.2°F-1.0°C 78% 10.0 mph SSW16.1 kmh SSW 16.0 mph25.7 kmh 29.96 in1014.6 mb 0.00 in0.0 mm 0.00 in0.0 mm 0.00 in0.0 mm
05:55 PM 36.5°F2.5°C 30.3°F-0.9°C 78% 8.9 mph SW14.3 kmh SW 12.0 mph19.3 kmh 29.96 in1014.6 mb 0.00 in0.0 mm 0.00 in0.0 mm 0.00 in0.0 mm
05:56 PM 36.4°F2.4°C 30.2°F-1.0°C 78% 9.9 mph SW15.9 kmh SW 14.0 mph22.5 kmh 29.96 in1014.6 mb 0.00 in0.0 mm 0.00 in0.0 mm 0.00 in0.0 mm
05:57 PM 36.5°F2.5°C 30.3°F-0.9°C 78% 11.0 mph SW17.7 kmh SW 14.0 mph22.5 kmh 29.96 in1014.6 mb 0.00 in0.0 mm 0.00 in0.0 mm 0.00 in0.0 mm
05:58 PM 36.4°F2.4°C 30.2°F-1.0°C 78% 10.1 mph SSW16.3 kmh SSW 14.0 mph22.5 kmh 29.96 in1014.6 mb 0.00 in0.0 mm 0.00 in0.0 mm 0.00 in0.0 mm
05:59 PM 36.4°F2.4°C 30.2°F-1.0°C 78% 11.1 mph SSW17.9 kmh SSW 14.0 mph22.5 kmh 29.96 in1014.6 mb 0.00 in0.0 mm 0.00 in0.0 mm 0.00 in0.0 mm
06:00 PM 36.5°F2.5°C 30.3°F-0.9°C 78% 8.9 mph SSW14.3 kmh SSW 14.0 mph22.5 kmh 29.96 in1014.6 mb 0.00 in0.0 mm 0.00 in0.0 mm 0.00 in0.0 mm
06:01 PM 36.4°F2.4°C 30.2°F-1.0°C 78% 11.0 mph SW17.7 kmh SW 14.0 mph22.5 kmh 29.96 in1014.6 mb 0.00 in0.0 mm 0.00 in0.0 mm 0.00 in0.0 mm
06:02 PM 36.4°F2.4°C 30.2°F-1.0°C 78% 9.5 mph SW15.3 kmh SW 14.0 mph22.5 kmh 29.96 in1014.6 mb 0.00 in0.0 mm 0.00 in0.0 mm 0.00 in0.0 mm
06:03 PM 36.4°F2.4°C 30.5°F-0.8°C 79% 10.4 mph SW16.7 kmh SW 15.0 mph24.1 kmh 29.96 in1014.6 mb 0.00 in0.0 mm 0.00 in0.0 mm 0.00 in0.0 mm
06:04 PM 36.4°F2.4°C 30.5°F-0.8°C 79% 10.0 mph SW16.1 kmh SW 15.0 mph24.1 kmh 29.96 in1014.6 mb 0.00 in0.0 mm 0.00 in0.0 mm 0.00 in0.0 mm
06:05 PM 36.3°F2.4°C 30.4°F-0.9°C 79% 11.0 mph SSW17.7 kmh SSW 15.0 mph24.1 kmh 29.96 in1014.6 mb 0.00 in0.0 mm 0.00 in0.0 mm 0.00 in0.0 mm
06:06 PM 36.3°F2.4°C 30.4°F-0.9°C 79% 11.7 mph SW18.8 kmh SW 15.0 mph24.1 kmh 29.96 in1014.6 mb 0.00 in0.0 mm 0.00 in0.0 mm 0.00 in0.0 mm
06:07 PM 36.4°F2.4°C 30.5°F-0.8°C 79% 9.1 mph SSW14.6 kmh SSW 14.0 mph22.5 kmh 29.96 in1014.6 mb 0.00 in0.0 mm 0.00 in0.0 mm 0.00 in0.0 mm
06:08 PM 36.3°F2.4°C 30.4°F-0.9°C 79% 9.3 mph SW15.0 kmh SW 12.0 mph19.3 kmh 29.96 in1014.6 mb 0.00 in0.0 mm 0.00 in0.0 mm 0.00 in0.0 mm
06:09 PM 36.3°F2.4°C 30.4°F-0.9°C 79% 10.7 mph SW17.2 kmh SW 14.0 mph22.5 kmh 29.96 in1014.6 mb 0.00 in0.0 mm 0.00 in0.0 mm 0.00 in0.0 mm
06:10 PM 36.3°F2.4°C 30.4°F-0.9°C 79% 11.3 mph SW18.2 kmh SW 16.0 mph25.7 kmh 29.96 in1014.6 mb 0.00 in0.0 mm 0.00 in0.0 mm 0.00 in0.0 mm
06:11 PM 36.3°F2.4°C 30.4°F-0.9°C 79% 9.3 mph SW15.0 kmh SW 16.0 mph25.7 kmh 29.96 in1014.6 mb 0.00 in0.0 mm 0.00 in0.0 mm 0.00 in0.0 mm
06:12 PM 36.3°F2.4°C 30.4°F-0.9°C 79% 11.3 mph SW18.2 kmh SW 17.0 mph27.4 kmh 29.96 in1014.6 mb 0.00 in0.0 mm 0.00 in0.0 mm 0.00 in0.0 mm
06:13 PM 36.3°F2.4°C 30.4°F-0.9°C 79% 10.0 mph SW16.1 kmh SW 17.0 mph27.4 kmh 29.96 in1014.6 mb 0.00 in0.0 mm 0.00 in0.0 mm 0.00 in0.0 mm
06:14 PM 36.3°F2.4°C 30.4°F-0.9°C 79% 10.6 mph SW17.1 kmh SW 14.0 mph22.5 kmh 29.96 in1014.6 mb 0.00 in0.0 mm 0.00 in0.0 mm 0.00 in0.0 mm
06:15 PM 36.3°F2.4°C 30.4°F-0.9°C 79% 9.6 mph SW15.4 kmh SW 14.0 mph22.5 kmh 29.96 in1014.6 mb 0.00 in0.0 mm 0.00 in0.0 mm 0.00 in0.0 mm
06:16 PM 36.3°F2.4°C 30.4°F-0.9°C 79% 9.4 mph SW15.1 kmh SW 14.0 mph22.5 kmh 29.96 in1014.6 mb 0.00 in0.0 mm 0.00 in0.0 mm 0.00 in0.0 mm
06:17 PM 36.2°F2.3°C 30.3°F-0.9°C 79% 10.9 mph SW17.5 kmh SW 14.0 mph22.5 kmh 29.96 in1014.6 mb 0.00 in0.0 mm 0.00 in0.0 mm 0.00 in0.0 mm
06:18 PM 36.2°F2.3°C 30.3°F-0.9°C 79% 8.2 mph SW13.2 kmh SW 14.0 mph22.5 kmh 29.96 in1014.6 mb 0.00 in0.0 mm 0.00 in0.0 mm 0.00 in0.0 mm
06:19 PM 36.2°F2.3°C 30.3°F-0.9°C 79% 8.7 mph SW14.0 kmh SW 12.0 mph19.3 kmh 29.96 in1014.6 mb 0.00 in0.0 mm 0.00 in0.0 mm 0.00 in0.0 mm
06:20 PM 36.2°F2.3°C 30.3°F-0.9°C 79% 9.3 mph SW15.0 kmh SW 13.0 mph20.9 kmh 29.96 in1014.6 mb 0.00 in0.0 mm 0.00 in0.0 mm 0.00 in0.0 mm
06:21 PM 36.2°F2.3°C 30.3°F-0.9°C 79% 10.7 mph SW17.2 kmh SW 14.0 mph22.5 kmh 29.96 in1014.6 mb 0.00 in0.0 mm 0.00 in0.0 mm 0.00 in0.0 mm
06:22 PM 36.1°F2.3°C 30.2°F-1.0°C 79% 11.3 mph SW18.2 kmh SW 14.0 mph22.5 kmh 29.96 in1014.6 mb 0.00 in0.0 mm 0.00 in0.0 mm 0.00 in0.0 mm
06:23 PM 36.1°F2.3°C 30.2°F-1.0°C 79% 10.7 mph SW17.2 kmh SW 14.0 mph22.5 kmh 29.96 in1014.6 mb 0.00 in0.0 mm 0.00 in0.0 mm 0.00 in0.0 mm
06:24 PM 36.1°F2.3°C 30.2°F-1.0°C 79% 11.5 mph SW18.5 kmh SW 16.0 mph25.7 kmh 29.96 in1014.6 mb 0.00 in0.0 mm 0.00 in0.0 mm 0.00 in0.0 mm
06:25 PM 36.1°F2.3°C 30.2°F-1.0°C 79% 10.2 mph SW16.4 kmh SW 16.0 mph25.7 kmh 29.96 in1014.6 mb 0.00 in0.0 mm 0.00 in0.0 mm 0.00 in0.0 mm
06:26 PM 36.1°F2.3°C 30.2°F-1.0°C 79% 9.5 mph SW15.3 kmh SW 14.0 mph22.5 kmh 29.96 in1014.6 mb 0.00 in0.0 mm 0.00 in0.0 mm 0.00 in0.0 mm
06:27 PM 36.1°F2.3°C 30.2°F-1.0°C 79% 12.4 mph SW20.0 kmh SW 16.0 mph25.7 kmh 29.96 in1014.6 mb 0.00 in0.0 mm 0.00 in0.0 mm 0.00 in0.0 mm
06:28 PM 36.1°F2.3°C 30.2°F-1.0°C 79% 10.5 mph SW16.9 kmh SW 16.0 mph25.7 kmh 29.96 in1014.6 mb 0.00 in0.0 mm 0.00 in0.0 mm 0.00 in0.0 mm
06:29 PM 36.1°F2.3°C 30.2°F-1.0°C 79% 10.1 mph SW16.3 kmh SW 13.0 mph20.9 kmh 29.96 in1014.6 mb 0.00 in0.0 mm 0.00 in0.0 mm 0.00 in0.0 mm
06:30 PM 36.1°F2.3°C 30.2°F-1.0°C 79% 10.3 mph SW16.6 kmh SW 14.0 mph22.5 kmh 29.96 in1014.6 mb 0.00 in0.0 mm 0.00 in0.0 mm 0.00 in0.0 mm
06:31 PM 36.1°F2.3°C 30.2°F-1.0°C 79% 10.5 mph SW16.9 kmh SW 15.0 mph24.1 kmh 29.96 in1014.6 mb 0.00 in0.0 mm 0.00 in0.0 mm 0.00 in0.0 mm
06:32 PM 36.0°F2.2°C 30.1°F-1.1°C 79% 10.9 mph SW17.5 kmh SW 14.0 mph22.5 kmh 29.96 in1014.6 mb 0.00 in0.0 mm 0.00 in0.0 mm 0.00 in0.0 mm
06:33 PM 36.0°F2.2°C 30.4°F-0.9°C 80% 11.7 mph SW18.8 kmh SW 14.0 mph22.5 kmh 29.96 in1014.6 mb 0.00 in0.0 mm 0.00 in0.0 mm 0.00 in0.0 mm
06:34 PM 36.0°F2.2°C 30.4°F-0.9°C 80% 8.9 mph SW14.3 kmh SW 14.0 mph22.5 kmh 29.96 in1014.6 mb 0.00 in0.0 mm 0.00 in0.0 mm 0.00 in0.0 mm
06:35 PM 35.9°F2.2°C 30.3°F-0.9°C 80% 12.0 mph SW19.3 kmh SW 16.0 mph25.7 kmh 29.96 in1014.6 mb 0.00 in0.0 mm 0.00 in0.0 mm 0.00 in0.0 mm
06:36 PM 35.9°F2.2°C 30.3°F-0.9°C 80% 12.1 mph SW19.5 kmh SW 16.0 mph25.7 kmh 29.96 in1014.6 mb 0.00 in0.0 mm 0.00 in0.0 mm 0.00 in0.0 mm
06:37 PM 35.9°F2.2°C 30.3°F-0.9°C 80% 10.0 mph SW16.1 kmh SW 16.0 mph25.7 kmh 29.96 in1014.6 mb 0.00 in0.0 mm 0.00 in0.0 mm 0.00 in0.0 mm
06:38 PM 35.8°F2.1°C 30.2°F-1.0°C 80% 11.2 mph SW18.0 kmh SW 17.0 mph27.4 kmh 29.96 in1014.6 mb 0.00 in0.0 mm 0.00 in0.0 mm 0.00 in0.0 mm
06:39 PM 35.8°F2.1°C 30.2°F-1.0°C 80% 11.2 mph SW18.0 kmh SW 17.0 mph27.4 kmh 29.96 in1014.6 mb 0.00 in0.0 mm 0.00 in0.0 mm 0.00 in0.0 mm
06:40 PM 35.8°F2.1°C 30.2°F-1.0°C 80% 9.4 mph SW15.1 kmh SW 15.0 mph24.1 kmh 29.96 in1014.6 mb 0.00 in0.0 mm 0.00 in0.0 mm 0.00 in0.0 mm
06:41 PM 35.8°F2.1°C 30.2°F-1.0°C 80% 11.3 mph SW18.2 kmh SW 15.0 mph24.1 kmh 29.96 in1014.6 mb 0.00 in0.0 mm 0.00 in0.0 mm 0.00 in0.0 mm
06:42 PM 35.8°F2.1°C 30.2°F-1.0°C 80% 10.8 mph SW17.4 kmh SW 15.0 mph24.1 kmh 29.96 in1014.6 mb 0.00 in0.0 mm 0.00 in0.0 mm 0.00 in0.0 mm
06:43 PM 35.8°F2.1°C 30.6°F-0.8°C 81% 11.5 mph SW18.5 kmh SW 16.0 mph25.7 kmh 29.96 in1014.6 mb 0.00 in0.0 mm 0.00 in0.0 mm 0.00 in0.0 mm
06:44 PM 35.8°F2.1°C 30.6°F-0.8°C 81% 10.0 mph SW16.1 kmh SW 16.0 mph25.7 kmh 29.96 in1014.6 mb 0.00 in0.0 mm 0.00 in0.0 mm 0.00 in0.0 mm
06:45 PM 35.9°F2.2°C 30.6°F-0.8°C 81% 10.8 mph SW17.4 kmh SW 15.0 mph24.1 kmh 29.96 in1014.6 mb 0.00 in0.0 mm 0.00 in0.0 mm 0.00 in0.0 mm
06:46 PM 35.9°F2.2°C 30.6°F-0.8°C 81% 10.1 mph SW16.3 kmh SW 15.0 mph24.1 kmh 29.96 in1014.6 mb 0.00 in0.0 mm 0.00 in0.0 mm 0.00 in0.0 mm
06:47 PM 35.9°F2.2°C 30.6°F-0.8°C 81% 9.4 mph SW15.1 kmh SW 14.0 mph22.5 kmh 29.96 in1014.6 mb 0.00 in0.0 mm 0.00 in0.0 mm 0.00 in0.0 mm
06:48 PM 35.9°F2.2°C 30.6°F-0.8°C 81% 10.9 mph SW17.5 kmh SW 14.0 mph22.5 kmh 29.96 in1014.6 mb 0.00 in0.0 mm 0.00 in0.0 mm 0.00 in0.0 mm
06:49 PM 35.9°F2.2°C 30.6°F-0.8°C 81% 11.3 mph SW18.2 kmh SW 14.0 mph22.5 kmh 29.96 in1014.6 mb 0.00 in0.0 mm 0.00 in0.0 mm 0.00 in0.0 mm
06:50 PM 35.9°F2.2°C 30.6°F-0.8°C 81% 12.0 mph SW19.3 kmh SW 16.0 mph25.7 kmh 29.96 in1014.6 mb 0.00 in0.0 mm 0.00 in0.0 mm 0.00 in0.0 mm
06:51 PM 35.9°F2.2°C 30.6°F-0.8°C 81% 11.6 mph SW18.7 kmh SW 16.0 mph25.7 kmh 29.96 in1014.6 mb 0.00 in0.0 mm 0.00 in0.0 mm 0.00 in0.0 mm
06:52 PM 35.9°F2.2°C 30.6°F-0.8°C 81% 11.6 mph SW18.7 kmh SW 14.0 mph22.5 kmh 29.97 in1014.9 mb 0.00 in0.0 mm 0.00 in0.0 mm 0.00 in0.0 mm
06:53 PM 35.9°F2.2°C 30.6°F-0.8°C 81% 10.6 mph SW17.1 kmh SW 14.0 mph22.5 kmh 29.97 in1014.9 mb 0.00 in0.0 mm 0.00 in0.0 mm 0.00 in0.0 mm
06:54 PM 35.9°F2.2°C 30.6°F-0.8°C 81% 11.5 mph SW18.5 kmh SW 14.0 mph22.5 kmh 29.97 in1014.9 mb 0.00 in0.0 mm 0.00 in0.0 mm 0.00 in0.0 mm
06:55 PM 35.9°F2.2°C 30.6°F-0.8°C 81% 12.1 mph SW19.5 kmh SW 16.0 mph25.7 kmh 29.97 in1014.9 mb 0.00 in0.0 mm 0.00 in0.0 mm 0.00 in0.0 mm
06:56 PM 35.9°F2.2°C 30.6°F-0.8°C 81% 12.4 mph SW20.0 kmh SW 16.0 mph25.7 kmh 29.97 in1014.9 mb 0.00 in0.0 mm 0.00 in0.0 mm 0.00 in0.0 mm
06:57 PM 35.9°F2.2°C 31.0°F-0.6°C 82% 11.3 mph SW18.2 kmh SW 15.0 mph24.1 kmh 29.97 in1014.9 mb 0.00 in0.0 mm 0.00 in0.0 mm 0.00 in0.0 mm
06:58 PM 35.8°F2.1°C 30.9°F-0.6°C 82% 12.0 mph SW19.3 kmh SW 15.0 mph24.1 kmh 29.97 in1014.9 mb 0.00 in0.0 mm 0.00 in0.0 mm 0.00 in0.0 mm
06:59 PM 35.8°F2.1°C 30.9°F-0.6°C 82% 10.0 mph SW16.1 kmh SW 14.0 mph22.5 kmh 29.96 in1014.6 mb 0.00 in0.0 mm 0.00 in0.0 mm 0.00 in0.0 mm
07:00 PM 35.8°F2.1°C 30.9°F-0.6°C 82% 10.7 mph SW17.2 kmh SW 13.0 mph20.9 kmh 29.97 in1014.9 mb 0.00 in0.0 mm 0.00 in0.0 mm 0.00 in0.0 mm
07:01 PM 35.8°F2.1°C 30.9°F-0.6°C 82% 8.8 mph SW14.2 kmh SW 13.0 mph20.9 kmh 29.97 in1014.9 mb 0.00 in0.0 mm 0.00 in0.0 mm 0.00 in0.0 mm
07:02 PM 35.8°F2.1°C 30.9°F-0.6°C 82% 9.5 mph SW15.3 kmh SW 14.0 mph22.5 kmh 29.97 in1014.9 mb 0.00 in0.0 mm 0.00 in0.0 mm 0.00 in0.0 mm
07:03 PM 35.8°F2.1°C 30.9°F-0.6°C 82% 11.2 mph SW18.0 kmh SW 15.0 mph24.1 kmh 29.96 in1014.6 mb 0.00 in0.0 mm 0.00 in0.0 mm 0.00 in0.0 mm
07:04 PM 35.8°F2.1°C 30.9°F-0.6°C 82% 10.0 mph SW16.1 kmh SW 15.0 mph24.1 kmh 29.97 in1014.9 mb 0.00 in0.0 mm 0.00 in0.0 mm 0.00 in0.0 mm
07:05 PM 35.8°F2.1°C 31.2°F-0.4°C 83% 11.1 mph SW17.9 kmh SW 12.0 mph19.3 kmh 29.97 in1014.9 mb 0.00 in0.0 mm 0.00 in0.0 mm 0.00 in0.0 mm
07:06 PM 35.7°F2.1°C 31.1°F-0.5°C 83% 9.5 mph SW15.3 kmh SW 12.0 mph19.3 kmh 29.97 in1014.9 mb 0.00 in0.0 mm 0.00 in0.0 mm 0.00 in0.0 mm
07:07 PM 35.7°F2.1°C 31.1°F-0.5°C 83% 9.7 mph SW15.6 kmh SW 13.0 mph20.9 kmh 29.97 in1014.9 mb 0.00 in0.0 mm 0.00 in0.0 mm 0.00 in0.0 mm
07:08 PM 35.8°F2.1°C 31.2°F-0.4°C 83% 10.3 mph SW16.6 kmh SW 13.0 mph20.9 kmh 29.97 in1014.9 mb 0.00 in0.0 mm 0.00 in0.0 mm 0.00 in0.0 mm
07:09 PM 35.7°F2.1°C 31.1°F-0.5°C 83% 11.8 mph SW19.0 kmh SW 14.0 mph22.5 kmh 29.97 in1014.9 mb 0.00 in0.0 mm 0.00 in0.0 mm 0.00 in0.0 mm
07:10 PM 35.7°F2.1°C 31.1°F-0.5°C 83% 9.7 mph SW15.6 kmh SW 14.0 mph22.5 kmh 29.97 in1014.9 mb 0.00 in0.0 mm 0.00 in0.0 mm 0.00 in0.0 mm
07:11 PM 35.7°F2.1°C 31.3°F-0.4°C 84% 11.4 mph SW18.3 kmh SW 15.0 mph24.1 kmh 29.97 in1014.9 mb 0.00 in0.0 mm 0.00 in0.0 mm 0.00 in0.0 mm
07:12 PM 35.7°F2.1°C 31.3°F-0.4°C 84% 10.2 mph SW16.4 kmh SW 15.0 mph24.1 kmh 29.97 in1014.9 mb 0.00 in0.0 mm 0.00 in0.0 mm 0.00 in0.0 mm
07:13 PM 35.7°F2.1°C 31.3°F-0.4°C 84% 8.5 mph SW13.7 kmh SW 14.0 mph22.5 kmh 29.97 in1014.9 mb 0.00 in0.0 mm 0.00 in0.0 mm 0.00 in0.0 mm
07:14 PM 35.7°F2.1°C 31.3°F-0.4°C 84% 10.5 mph SW16.9 kmh SW 13.0 mph20.9 kmh 29.97 in1014.9 mb 0.00 in0.0 mm 0.00 in0.0 mm 0.00 in0.0 mm
07:15 PM 35.7°F2.1°C 31.6°F-0.2°C 85% 9.3 mph SW15.0 kmh SW 13.0 mph20.9 kmh 29.97 in1014.9 mb 0.00 in0.0 mm 0.00 in0.0 mm 0.00 in0.0 mm
07:16 PM 35.6°F2.0°C 31.5°F-0.3°C 85% 10.1 mph SW16.3 kmh SW 13.0 mph20.9 kmh 29.97 in1014.9 mb 0.00 in0.0 mm 0.00 in0.0 mm 0.00 in0.0 mm
07:17 PM 35.7°F2.1°C 31.6°F-0.2°C 85% 9.8 mph SW15.8 kmh SW 13.0 mph20.9 kmh 29.97 in1014.9 mb 0.00 in0.0 mm 0.00 in0.0 mm 0.00 in0.0 mm
07:18 PM 35.6°F2.0°C 31.5°F-0.3°C 85% 9.9 mph SW15.9 kmh SW 13.0 mph20.9 kmh 29.97 in1014.9 mb 0.00 in0.0 mm 0.00 in0.0 mm 0.00 in0.0 mm
07:19 PM 35.6°F2.0°C 31.5°F-0.3°C 85% 10.4 mph SW16.7 kmh SW 13.0 mph20.9 kmh 29.97 in1014.9 mb 0.00 in0.0 mm 0.00 in0.0 mm 0.00 in0.0 mm
07:20 PM 35.6°F2.0°C 31.5°F-0.3°C 85% 9.4 mph SW15.1 kmh SW 13.0 mph20.9 kmh 29.97 in1014.9 mb 0.00 in0.0 mm 0.00 in0.0 mm 0.00 in0.0 mm
07:21 PM 35.5°F1.9°C 31.4°F-0.3°C 85% 7.1 mph SW11.4 kmh SW 11.0 mph17.7 kmh 29.97 in1014.9 mb 0.00 in0.0 mm 0.00 in0.0 mm 0.00 in0.0 mm
07:22 PM 35.5°F1.9°C 31.7°F-0.2°C 86% 8.1 mph SW13.0 kmh SW 10.0 mph16.1 kmh 29.97 in1014.9 mb 0.00 in0.0 mm 0.00 in0.0 mm 0.00 in0.0 mm
07:23 PM 35.5°F1.9°C 31.7°F-0.2°C 86% 8.3 mph SW13.4 kmh SW 13.0 mph20.9 kmh 29.97 in1014.9 mb 0.00 in0.0 mm 0.00 in0.0 mm 0.00 in0.0 mm
07:24 PM 35.4°F1.9°C 31.6°F-0.2°C 86% 9.5 mph SW15.3 kmh SW 13.0 mph20.9 kmh 29.97 in1014.9 mb 0.00 in0.0 mm 0.00 in0.0 mm 0.00 in0.0 mm
07:25 PM 35.5°F1.9°C 31.7°F-0.2°C 86% 9.3 mph SW15.0 kmh SW 12.0 mph19.3 kmh 29.97 in1014.9 mb 0.00 in0.0 mm 0.00 in0.0 mm 0.00 in0.0 mm
07:26 PM 35.4°F1.9°C 31.6°F-0.2°C 86% 9.6 mph SW15.4 kmh SW 12.0 mph19.3 kmh 29.97 in1014.9 mb 0.00 in0.0 mm 0.00 in0.0 mm 0.00 in0.0 mm
07:27 PM 35.4°F1.9°C 31.6°F-0.2°C 86% 9.4 mph SW15.1 kmh SW 12.0 mph19.3 kmh 29.97 in1014.9 mb 0.00 in0.0 mm 0.00 in0.0 mm 0.00 in0.0 mm
07:28 PM 35.4°F1.9°C 31.6°F-0.2°C 86% 8.2 mph SW13.2 kmh SW 11.0 mph17.7 kmh 29.97 in1014.9 mb 0.00 in0.0 mm 0.00 in0.0 mm 0.00 in0.0 mm
07:29 PM 35.3°F1.8°C 31.5°F-0.3°C 86% 10.3 mph SW16.6 kmh SW 12.0 mph19.3 kmh 29.97 in1014.9 mb 0.00 in0.0 mm 0.00 in0.0 mm 0.00 in0.0 mm
07:30 PM 35.3°F1.8°C 31.5°F-0.3°C 86% 9.9 mph SW15.9 kmh SW 12.0 mph19.3 kmh 29.97 in1014.9 mb 0.00 in0.0 mm 0.00 in0.0 mm 0.00 in0.0 mm
07:31 PM 35.3°F1.8°C 31.5°F-0.3°C 86% 10.8 mph SW17.4 kmh SW 14.0 mph22.5 kmh 29.97 in1014.9 mb 0.00 in0.0 mm 0.00 in0.0 mm 0.00 in0.0 mm
07:32 PM 35.3°F1.8°C 31.8°F-0.1°C 87% 11.1 mph SW17.9 kmh SW 14.0 mph22.5 kmh 29.97 in1014.9 mb 0.00 in0.0 mm 0.00 in0.0 mm 0.00 in0.0 mm
07:33 PM 35.3°F1.8°C 31.8°F-0.1°C 87% 11.7 mph SW18.8 kmh SW 15.0 mph24.1 kmh 29.97 in1014.9 mb 0.00 in0.0 mm 0.00 in